<?xml version="1.0" encoding="UTF-8" standalone="no" ?>
<gpx xmlns="http://www.topografix.com/GPX/1/1" xmlns:xsi="http://www.w3.org/2001/XMLSchema-instance" xsi:schemaLocation="http://www.topografix.com/GPX/1/1 http://www.topografix.com/GPX/1/1/gpx.xsd" version="1.1" creator="VisuGPX - https://www.visugpx.com">
  <metadata>
    <name>Les sources de l'Ouche</name>
    <desc><![CDATA[Très agréable, malgré la chaleur excessive de ce mois de Mai.

]]></desc>
  </metadata>
  <trk>
    <name><![CDATA[2017-05-28 14:19:43]]></name>
    <trkseg>
      <trkpt lat="47.1057" lon="4.67021">
        <ele>345.75</ele>
        <time>2017-05-28T07:31:09Z</time>
      </trkpt>
      <trkpt lat="47.10571" lon="4.67019">
        <ele>348.86</ele>
        <time>2017-05-28T07:31:18Z</time>
      </trkpt>
      <trkpt lat="47.10572" lon="4.67017">
        <ele>351.94</ele>
        <time>2017-05-28T07:31:23Z</time>
      </trkpt>
      <trkpt lat="47.10573" lon="4.67016">
        <ele>355.16</ele>
        <time>2017-05-28T07:31:29Z</time>
      </trkpt>
      <trkpt lat="47.10569" lon="4.67019">
        <ele>358.35</ele>
        <time>2017-05-28T07:31:37Z</time>
      </trkpt>
      <trkpt lat="47.10571" lon="4.67017">
        <ele>360.42</ele>
        <time>2017-05-28T07:32:20Z</time>
      </trkpt>
      <trkpt lat="47.10569" lon="4.67018">
        <ele>360.47</ele>
        <time>2017-05-28T07:32:46Z</time>
      </trkpt>
      <trkpt lat="47.10569" lon="4.67017">
        <ele>360.2</ele>
        <time>2017-05-28T07:33:26Z</time>
      </trkpt>
      <trkpt lat="47.10568" lon="4.6702">
        <ele>360.23</ele>
        <time>2017-05-28T07:33:42Z</time>
      </trkpt>
      <trkpt lat="47.10569" lon="4.6702">
        <ele>360</ele>
        <time>2017-05-28T07:34:07Z</time>
      </trkpt>
      <trkpt lat="47.10569" lon="4.6702">
        <ele>360.34</ele>
        <time>2017-05-28T07:34:37Z</time>
      </trkpt>
      <trkpt lat="47.10569" lon="4.67018">
        <ele>359.55</ele>
        <time>2017-05-28T07:34:55Z</time>
      </trkpt>
      <trkpt lat="47.1057" lon="4.67018">
        <ele>359.83</ele>
        <time>2017-05-28T07:35:29Z</time>
      </trkpt>
      <trkpt lat="47.10573" lon="4.67019">
        <ele>360.26</ele>
        <time>2017-05-28T07:35:58Z</time>
      </trkpt>
      <trkpt lat="47.10573" lon="4.67019">
        <ele>359.98</ele>
        <time>2017-05-28T07:36:16Z</time>
      </trkpt>
      <trkpt lat="47.10572" lon="4.67019">
        <ele>360.04</ele>
        <time>2017-05-28T07:36:40Z</time>
      </trkpt>
      <trkpt lat="47.10571" lon="4.6702">
        <ele>360.28</ele>
        <time>2017-05-28T07:37:01Z</time>
      </trkpt>
      <trkpt lat="47.10575" lon="4.6701">
        <ele>360.58</ele>
        <time>2017-05-28T07:37:17Z</time>
      </trkpt>
      <trkpt lat="47.10582" lon="4.66996">
        <ele>359.55</ele>
        <time>2017-05-28T07:37:34Z</time>
      </trkpt>
      <trkpt lat="47.10584" lon="4.66994">
        <ele>359.49</ele>
        <time>2017-05-28T07:37:37Z</time>
      </trkpt>
      <trkpt lat="47.10583" lon="4.66977">
        <ele>359.24</ele>
        <time>2017-05-28T07:37:48Z</time>
      </trkpt>
      <trkpt lat="47.10587" lon="4.66965">
        <ele>359.07</ele>
        <time>2017-05-28T07:37:58Z</time>
      </trkpt>
      <trkpt lat="47.10588" lon="4.66961">
        <ele>359.19</ele>
        <time>2017-05-28T07:38:00Z</time>
      </trkpt>
      <trkpt lat="47.10588" lon="4.66941">
        <ele>359.57</ele>
        <time>2017-05-28T07:38:12Z</time>
      </trkpt>
      <trkpt lat="47.10592" lon="4.66932">
        <ele>359.53</ele>
        <time>2017-05-28T07:38:19Z</time>
      </trkpt>
      <trkpt lat="47.10593" lon="4.66919">
        <ele>359.2</ele>
        <time>2017-05-28T07:38:30Z</time>
      </trkpt>
      <trkpt lat="47.10595" lon="4.66916">
        <ele>358.6</ele>
        <time>2017-05-28T07:38:34Z</time>
      </trkpt>
      <trkpt lat="47.10596" lon="4.66913">
        <ele>358.4</ele>
        <time>2017-05-28T07:38:38Z</time>
      </trkpt>
      <trkpt lat="47.10605" lon="4.66901">
        <ele>357.28</ele>
        <time>2017-05-28T07:38:54Z</time>
      </trkpt>
      <trkpt lat="47.10606" lon="4.66902">
        <ele>356.75</ele>
        <time>2017-05-28T07:39:16Z</time>
      </trkpt>
      <trkpt lat="47.10607" lon="4.66899">
        <ele>356.57</ele>
        <time>2017-05-28T07:39:20Z</time>
      </trkpt>
      <trkpt lat="47.10608" lon="4.66884">
        <ele>360.36</ele>
        <time>2017-05-28T07:39:27Z</time>
      </trkpt>
      <trkpt lat="47.10608" lon="4.6688">
        <ele>356.78</ele>
        <time>2017-05-28T07:39:29Z</time>
      </trkpt>
      <trkpt lat="47.10609" lon="4.66875">
        <ele>357.01</ele>
        <time>2017-05-28T07:39:32Z</time>
      </trkpt>
      <trkpt lat="47.10609" lon="4.66871">
        <ele>359.45</ele>
        <time>2017-05-28T07:39:34Z</time>
      </trkpt>
      <trkpt lat="47.10612" lon="4.66854">
        <ele>356.96</ele>
        <time>2017-05-28T07:39:42Z</time>
      </trkpt>
      <trkpt lat="47.10612" lon="4.66839">
        <ele>356.16</ele>
        <time>2017-05-28T07:39:51Z</time>
      </trkpt>
      <trkpt lat="47.10612" lon="4.66829">
        <ele>355.64</ele>
        <time>2017-05-28T07:39:56Z</time>
      </trkpt>
      <trkpt lat="47.1061" lon="4.66823">
        <ele>355.34</ele>
        <time>2017-05-28T07:39:59Z</time>
      </trkpt>
      <trkpt lat="47.10609" lon="4.66808">
        <ele>354.56</ele>
        <time>2017-05-28T07:40:06Z</time>
      </trkpt>
      <trkpt lat="47.10608" lon="4.66802">
        <ele>354.19</ele>
        <time>2017-05-28T07:40:09Z</time>
      </trkpt>
      <trkpt lat="47.10607" lon="4.66797">
        <ele>353.86</ele>
        <time>2017-05-28T07:40:13Z</time>
      </trkpt>
      <trkpt lat="47.10599" lon="4.66777">
        <ele>353.34</ele>
        <time>2017-05-28T07:40:25Z</time>
      </trkpt>
      <trkpt lat="47.10599" lon="4.66774">
        <ele>353.46</ele>
        <time>2017-05-28T07:40:27Z</time>
      </trkpt>
      <trkpt lat="47.10598" lon="4.66763">
        <ele>353.52</ele>
        <time>2017-05-28T07:40:34Z</time>
      </trkpt>
      <trkpt lat="47.10597" lon="4.66754">
        <ele>353.77</ele>
        <time>2017-05-28T07:40:42Z</time>
      </trkpt>
      <trkpt lat="47.10592" lon="4.66749">
        <ele>353.94</ele>
        <time>2017-05-28T07:40:56Z</time>
      </trkpt>
      <trkpt lat="47.10592" lon="4.66746">
        <ele>353.79</ele>
        <time>2017-05-28T07:41:05Z</time>
      </trkpt>
      <trkpt lat="47.10595" lon="4.6674">
        <ele>353.82</ele>
        <time>2017-05-28T07:41:09Z</time>
      </trkpt>
      <trkpt lat="47.10595" lon="4.6672">
        <ele>354.19</ele>
        <time>2017-05-28T07:41:21Z</time>
      </trkpt>
      <trkpt lat="47.10597" lon="4.66705">
        <ele>355.5</ele>
        <time>2017-05-28T07:41:32Z</time>
      </trkpt>
      <trkpt lat="47.10598" lon="4.66701">
        <ele>355.83</ele>
        <time>2017-05-28T07:41:36Z</time>
      </trkpt>
      <trkpt lat="47.10598" lon="4.66698">
        <ele>356.13</ele>
        <time>2017-05-28T07:41:38Z</time>
      </trkpt>
      <trkpt lat="47.10594" lon="4.66684">
        <ele>356.92</ele>
        <time>2017-05-28T07:41:47Z</time>
      </trkpt>
      <trkpt lat="47.10584" lon="4.66673">
        <ele>359.1</ele>
        <time>2017-05-28T07:42:00Z</time>
      </trkpt>
      <trkpt lat="47.10574" lon="4.6667">
        <ele>362.28</ele>
        <time>2017-05-28T07:42:14Z</time>
      </trkpt>
      <trkpt lat="47.10567" lon="4.66667">
        <ele>365.55</ele>
        <time>2017-05-28T07:42:22Z</time>
      </trkpt>
      <trkpt lat="47.10555" lon="4.66655">
        <ele>367.67</ele>
        <time>2017-05-28T07:42:39Z</time>
      </trkpt>
      <trkpt lat="47.10547" lon="4.66645">
        <ele>370.29</ele>
        <time>2017-05-28T07:42:54Z</time>
      </trkpt>
      <trkpt lat="47.10541" lon="4.66633">
        <ele>372.86</ele>
        <time>2017-05-28T07:43:08Z</time>
      </trkpt>
      <trkpt lat="47.10537" lon="4.66615">
        <ele>375.08</ele>
        <time>2017-05-28T07:43:23Z</time>
      </trkpt>
      <trkpt lat="47.10533" lon="4.666">
        <ele>377.15</ele>
        <time>2017-05-28T07:43:37Z</time>
      </trkpt>
      <trkpt lat="47.10531" lon="4.66589">
        <ele>378.61</ele>
        <time>2017-05-28T07:43:46Z</time>
      </trkpt>
      <trkpt lat="47.10525" lon="4.66565">
        <ele>381.42</ele>
        <time>2017-05-28T07:44:04Z</time>
      </trkpt>
      <trkpt lat="47.10523" lon="4.66553">
        <ele>383.12</ele>
        <time>2017-05-28T07:44:19Z</time>
      </trkpt>
      <trkpt lat="47.10517" lon="4.66534">
        <ele>385.67</ele>
        <time>2017-05-28T07:44:36Z</time>
      </trkpt>
      <trkpt lat="47.1051" lon="4.66514">
        <ele>387.23</ele>
        <time>2017-05-28T07:44:52Z</time>
      </trkpt>
      <trkpt lat="47.10502" lon="4.66495">
        <ele>389.84</ele>
        <time>2017-05-28T07:45:08Z</time>
      </trkpt>
      <trkpt lat="47.10492" lon="4.66475">
        <ele>391.8</ele>
        <time>2017-05-28T07:45:24Z</time>
      </trkpt>
      <trkpt lat="47.1049" lon="4.66469">
        <ele>391.6</ele>
        <time>2017-05-28T07:45:28Z</time>
      </trkpt>
      <trkpt lat="47.10487" lon="4.66463">
        <ele>392.83</ele>
        <time>2017-05-28T07:45:34Z</time>
      </trkpt>
      <trkpt lat="47.10485" lon="4.6646">
        <ele>393.43</ele>
        <time>2017-05-28T07:45:37Z</time>
      </trkpt>
      <trkpt lat="47.10483" lon="4.66457">
        <ele>393.72</ele>
        <time>2017-05-28T07:45:40Z</time>
      </trkpt>
      <trkpt lat="47.1048" lon="4.66454">
        <ele>394.14</ele>
        <time>2017-05-28T07:45:44Z</time>
      </trkpt>
      <trkpt lat="47.10479" lon="4.6644">
        <ele>394.6</ele>
        <time>2017-05-28T07:45:56Z</time>
      </trkpt>
      <trkpt lat="47.10479" lon="4.66439">
        <ele>394.52</ele>
        <time>2017-05-28T07:45:57Z</time>
      </trkpt>
      <trkpt lat="47.10478" lon="4.66434">
        <ele>394.56</ele>
        <time>2017-05-28T07:46:00Z</time>
      </trkpt>
      <trkpt lat="47.10477" lon="4.66426">
        <ele>395.08</ele>
        <time>2017-05-28T07:46:05Z</time>
      </trkpt>
      <trkpt lat="47.10474" lon="4.66417">
        <ele>395.05</ele>
        <time>2017-05-28T07:46:12Z</time>
      </trkpt>
      <trkpt lat="47.10473" lon="4.6641">
        <ele>394.98</ele>
        <time>2017-05-28T07:46:16Z</time>
      </trkpt>
      <trkpt lat="47.1047" lon="4.66397">
        <ele>395.31</ele>
        <time>2017-05-28T07:46:25Z</time>
      </trkpt>
      <trkpt lat="47.10469" lon="4.66394">
        <ele>395.19</ele>
        <time>2017-05-28T07:46:27Z</time>
      </trkpt>
      <trkpt lat="47.10466" lon="4.66384">
        <ele>395.55</ele>
        <time>2017-05-28T07:46:35Z</time>
      </trkpt>
      <trkpt lat="47.10464" lon="4.66378">
        <ele>395.71</ele>
        <time>2017-05-28T07:46:39Z</time>
      </trkpt>
      <trkpt lat="47.10462" lon="4.66373">
        <ele>395.87</ele>
        <time>2017-05-28T07:46:42Z</time>
      </trkpt>
      <trkpt lat="47.10462" lon="4.6637">
        <ele>396.08</ele>
        <time>2017-05-28T07:46:44Z</time>
      </trkpt>
      <trkpt lat="47.10457" lon="4.66356">
        <ele>396.37</ele>
        <time>2017-05-28T07:46:55Z</time>
      </trkpt>
      <trkpt lat="47.10449" lon="4.66334">
        <ele>396.87</ele>
        <time>2017-05-28T07:47:10Z</time>
      </trkpt>
      <trkpt lat="47.10445" lon="4.66326">
        <ele>396.8</ele>
        <time>2017-05-28T07:47:26Z</time>
      </trkpt>
      <trkpt lat="47.1044" lon="4.66317">
        <ele>397.21</ele>
        <time>2017-05-28T07:47:42Z</time>
      </trkpt>
      <trkpt lat="47.10438" lon="4.66313">
        <ele>397.22</ele>
        <time>2017-05-28T07:47:44Z</time>
      </trkpt>
      <trkpt lat="47.10437" lon="4.66309">
        <ele>397.22</ele>
        <time>2017-05-28T07:47:47Z</time>
      </trkpt>
      <trkpt lat="47.10435" lon="4.66301">
        <ele>397.21</ele>
        <time>2017-05-28T07:47:52Z</time>
      </trkpt>
      <trkpt lat="47.10428" lon="4.66283">
        <ele>397.34</ele>
        <time>2017-05-28T07:48:04Z</time>
      </trkpt>
      <trkpt lat="47.10426" lon="4.66274">
        <ele>397.43</ele>
        <time>2017-05-28T07:48:08Z</time>
      </trkpt>
      <trkpt lat="47.10425" lon="4.66271">
        <ele>397.56</ele>
        <time>2017-05-28T07:48:10Z</time>
      </trkpt>
      <trkpt lat="47.10423" lon="4.66267">
        <ele>397.4</ele>
        <time>2017-05-28T07:48:12Z</time>
      </trkpt>
      <trkpt lat="47.10422" lon="4.66265">
        <ele>397.28</ele>
        <time>2017-05-28T07:48:13Z</time>
      </trkpt>
      <trkpt lat="47.10421" lon="4.66263">
        <ele>397.29</ele>
        <time>2017-05-28T07:48:14Z</time>
      </trkpt>
      <trkpt lat="47.10421" lon="4.66261">
        <ele>397.3</ele>
        <time>2017-05-28T07:48:15Z</time>
      </trkpt>
      <trkpt lat="47.1042" lon="4.6626">
        <ele>397.35</ele>
        <time>2017-05-28T07:48:16Z</time>
      </trkpt>
      <trkpt lat="47.1042" lon="4.66258">
        <ele>397.31</ele>
        <time>2017-05-28T07:48:17Z</time>
      </trkpt>
      <trkpt lat="47.10419" lon="4.66256">
        <ele>397.43</ele>
        <time>2017-05-28T07:48:18Z</time>
      </trkpt>
      <trkpt lat="47.10418" lon="4.66253">
        <ele>397.35</ele>
        <time>2017-05-28T07:48:19Z</time>
      </trkpt>
      <trkpt lat="47.10418" lon="4.66252">
        <ele>397.42</ele>
        <time>2017-05-28T07:48:20Z</time>
      </trkpt>
      <trkpt lat="47.10409" lon="4.66232">
        <ele>397.39</ele>
        <time>2017-05-28T07:48:31Z</time>
      </trkpt>
      <trkpt lat="47.10399" lon="4.66212">
        <ele>397.57</ele>
        <time>2017-05-28T07:48:45Z</time>
      </trkpt>
      <trkpt lat="47.10392" lon="4.66199">
        <ele>397.36</ele>
        <time>2017-05-28T07:48:53Z</time>
      </trkpt>
      <trkpt lat="47.10392" lon="4.66197">
        <ele>397.47</ele>
        <time>2017-05-28T07:48:54Z</time>
      </trkpt>
      <trkpt lat="47.10382" lon="4.66178">
        <ele>397.79</ele>
        <time>2017-05-28T07:49:07Z</time>
      </trkpt>
      <trkpt lat="47.1037" lon="4.66159">
        <ele>397.54</ele>
        <time>2017-05-28T07:49:21Z</time>
      </trkpt>
      <trkpt lat="47.1036" lon="4.66142">
        <ele>397.88</ele>
        <time>2017-05-28T07:49:32Z</time>
      </trkpt>
      <trkpt lat="47.1036" lon="4.66141">
        <ele>397.85</ele>
        <time>2017-05-28T07:49:33Z</time>
      </trkpt>
      <trkpt lat="47.10358" lon="4.6614">
        <ele>397.73</ele>
        <time>2017-05-28T07:49:34Z</time>
      </trkpt>
      <trkpt lat="47.10357" lon="4.66139">
        <ele>397.68</ele>
        <time>2017-05-28T07:49:35Z</time>
      </trkpt>
      <trkpt lat="47.10356" lon="4.66138">
        <ele>397.56</ele>
        <time>2017-05-28T07:49:36Z</time>
      </trkpt>
      <trkpt lat="47.10354" lon="4.66137">
        <ele>397.57</ele>
        <time>2017-05-28T07:49:38Z</time>
      </trkpt>
      <trkpt lat="47.10352" lon="4.66136">
        <ele>397.51</ele>
        <time>2017-05-28T07:49:39Z</time>
      </trkpt>
      <trkpt lat="47.10351" lon="4.66135">
        <ele>397.35</ele>
        <time>2017-05-28T07:49:40Z</time>
      </trkpt>
      <trkpt lat="47.10349" lon="4.66133">
        <ele>397.47</ele>
        <time>2017-05-28T07:49:41Z</time>
      </trkpt>
      <trkpt lat="47.1034" lon="4.66119">
        <ele>397.48</ele>
        <time>2017-05-28T07:49:52Z</time>
      </trkpt>
      <trkpt lat="47.10337" lon="4.66114">
        <ele>397.42</ele>
        <time>2017-05-28T07:49:56Z</time>
      </trkpt>
      <trkpt lat="47.10336" lon="4.66112">
        <ele>397.53</ele>
        <time>2017-05-28T07:49:57Z</time>
      </trkpt>
      <trkpt lat="47.10335" lon="4.66111">
        <ele>397.43</ele>
        <time>2017-05-28T07:49:58Z</time>
      </trkpt>
      <trkpt lat="47.10334" lon="4.6611">
        <ele>397.6</ele>
        <time>2017-05-28T07:49:59Z</time>
      </trkpt>
      <trkpt lat="47.10332" lon="4.66109">
        <ele>397.61</ele>
        <time>2017-05-28T07:50:00Z</time>
      </trkpt>
      <trkpt lat="47.10329" lon="4.66105">
        <ele>397.48</ele>
        <time>2017-05-28T07:50:04Z</time>
      </trkpt>
      <trkpt lat="47.10328" lon="4.66104">
        <ele>397.45</ele>
        <time>2017-05-28T07:50:05Z</time>
      </trkpt>
      <trkpt lat="47.10327" lon="4.66103">
        <ele>397.48</ele>
        <time>2017-05-28T07:50:06Z</time>
      </trkpt>
      <trkpt lat="47.10326" lon="4.66102">
        <ele>397.66</ele>
        <time>2017-05-28T07:50:07Z</time>
      </trkpt>
      <trkpt lat="47.10312" lon="4.66084">
        <ele>397.39</ele>
        <time>2017-05-28T07:50:21Z</time>
      </trkpt>
      <trkpt lat="47.10305" lon="4.66076">
        <ele>397.41</ele>
        <time>2017-05-28T07:50:29Z</time>
      </trkpt>
      <trkpt lat="47.10304" lon="4.66075">
        <ele>397.46</ele>
        <time>2017-05-28T07:50:30Z</time>
      </trkpt>
      <trkpt lat="47.10291" lon="4.6606">
        <ele>397.49</ele>
        <time>2017-05-28T07:50:43Z</time>
      </trkpt>
      <trkpt lat="47.10281" lon="4.66047">
        <ele>397.92</ele>
        <time>2017-05-28T07:50:53Z</time>
      </trkpt>
      <trkpt lat="47.10281" lon="4.66046">
        <ele>397.91</ele>
        <time>2017-05-28T07:50:54Z</time>
      </trkpt>
      <trkpt lat="47.1028" lon="4.66044">
        <ele>397.82</ele>
        <time>2017-05-28T07:50:55Z</time>
      </trkpt>
      <trkpt lat="47.10276" lon="4.6604">
        <ele>397.74</ele>
        <time>2017-05-28T07:51:00Z</time>
      </trkpt>
      <trkpt lat="47.10275" lon="4.66038">
        <ele>397.82</ele>
        <time>2017-05-28T07:51:01Z</time>
      </trkpt>
      <trkpt lat="47.10274" lon="4.66037">
        <ele>398.25</ele>
        <time>2017-05-28T07:51:02Z</time>
      </trkpt>
      <trkpt lat="47.10273" lon="4.66036">
        <ele>397.9</ele>
        <time>2017-05-28T07:51:03Z</time>
      </trkpt>
      <trkpt lat="47.10272" lon="4.66035">
        <ele>397.71</ele>
        <time>2017-05-28T07:51:04Z</time>
      </trkpt>
      <trkpt lat="47.10272" lon="4.66034">
        <ele>397.68</ele>
        <time>2017-05-28T07:51:05Z</time>
      </trkpt>
      <trkpt lat="47.10271" lon="4.66033">
        <ele>397.7</ele>
        <time>2017-05-28T07:51:06Z</time>
      </trkpt>
      <trkpt lat="47.10269" lon="4.66031">
        <ele>397.6</ele>
        <time>2017-05-28T07:51:07Z</time>
      </trkpt>
      <trkpt lat="47.10268" lon="4.6603">
        <ele>397.71</ele>
        <time>2017-05-28T07:51:08Z</time>
      </trkpt>
      <trkpt lat="47.10257" lon="4.66011">
        <ele>397.69</ele>
        <time>2017-05-28T07:51:22Z</time>
      </trkpt>
      <trkpt lat="47.10248" lon="4.65995">
        <ele>397.38</ele>
        <time>2017-05-28T07:51:35Z</time>
      </trkpt>
      <trkpt lat="47.10246" lon="4.65991">
        <ele>397.25</ele>
        <time>2017-05-28T07:51:38Z</time>
      </trkpt>
      <trkpt lat="47.10241" lon="4.65972">
        <ele>396</ele>
        <time>2017-05-28T07:51:50Z</time>
      </trkpt>
      <trkpt lat="47.10239" lon="4.65966">
        <ele>395.62</ele>
        <time>2017-05-28T07:51:54Z</time>
      </trkpt>
      <trkpt lat="47.10237" lon="4.65958">
        <ele>394.99</ele>
        <time>2017-05-28T07:52:00Z</time>
      </trkpt>
      <trkpt lat="47.10236" lon="4.65955">
        <ele>394.61</ele>
        <time>2017-05-28T07:52:02Z</time>
      </trkpt>
      <trkpt lat="47.10233" lon="4.65949">
        <ele>394.31</ele>
        <time>2017-05-28T07:52:06Z</time>
      </trkpt>
      <trkpt lat="47.1023" lon="4.65944">
        <ele>394.41</ele>
        <time>2017-05-28T07:52:11Z</time>
      </trkpt>
      <trkpt lat="47.10229" lon="4.65942">
        <ele>394.52</ele>
        <time>2017-05-28T07:52:12Z</time>
      </trkpt>
      <trkpt lat="47.10228" lon="4.65941">
        <ele>394.47</ele>
        <time>2017-05-28T07:52:13Z</time>
      </trkpt>
      <trkpt lat="47.10227" lon="4.65939">
        <ele>394.25</ele>
        <time>2017-05-28T07:52:14Z</time>
      </trkpt>
      <trkpt lat="47.10217" lon="4.65929">
        <ele>393.45</ele>
        <time>2017-05-28T07:52:24Z</time>
      </trkpt>
      <trkpt lat="47.10214" lon="4.65927">
        <ele>393.16</ele>
        <time>2017-05-28T07:52:26Z</time>
      </trkpt>
      <trkpt lat="47.10213" lon="4.65927">
        <ele>393.56</ele>
        <time>2017-05-28T07:52:27Z</time>
      </trkpt>
      <trkpt lat="47.10212" lon="4.65927">
        <ele>393.48</ele>
        <time>2017-05-28T07:52:28Z</time>
      </trkpt>
      <trkpt lat="47.10199" lon="4.65941">
        <ele>395.58</ele>
        <time>2017-05-28T07:52:43Z</time>
      </trkpt>
      <trkpt lat="47.10185" lon="4.6595">
        <ele>397.3</ele>
        <time>2017-05-28T07:52:57Z</time>
      </trkpt>
      <trkpt lat="47.10184" lon="4.65949">
        <ele>397.42</ele>
        <time>2017-05-28T07:52:58Z</time>
      </trkpt>
      <trkpt lat="47.10173" lon="4.65951">
        <ele>400.73</ele>
        <time>2017-05-28T07:53:08Z</time>
      </trkpt>
      <trkpt lat="47.10153" lon="4.65954">
        <ele>400.99</ele>
        <time>2017-05-28T07:53:25Z</time>
      </trkpt>
      <trkpt lat="47.10139" lon="4.65958">
        <ele>403.47</ele>
        <time>2017-05-28T07:53:39Z</time>
      </trkpt>
      <trkpt lat="47.10127" lon="4.65957">
        <ele>404.83</ele>
        <time>2017-05-28T07:53:51Z</time>
      </trkpt>
      <trkpt lat="47.10111" lon="4.65955">
        <ele>406.58</ele>
        <time>2017-05-28T07:54:06Z</time>
      </trkpt>
      <trkpt lat="47.10096" lon="4.65951">
        <ele>407.68</ele>
        <time>2017-05-28T07:54:20Z</time>
      </trkpt>
      <trkpt lat="47.10092" lon="4.65949">
        <ele>408.19</ele>
        <time>2017-05-28T07:54:24Z</time>
      </trkpt>
      <trkpt lat="47.10091" lon="4.65949">
        <ele>408.19</ele>
        <time>2017-05-28T07:54:25Z</time>
      </trkpt>
      <trkpt lat="47.10073" lon="4.65942">
        <ele>409.74</ele>
        <time>2017-05-28T07:54:41Z</time>
      </trkpt>
      <trkpt lat="47.10069" lon="4.65941">
        <ele>410.3</ele>
        <time>2017-05-28T07:54:45Z</time>
      </trkpt>
      <trkpt lat="47.10059" lon="4.65936">
        <ele>411.48</ele>
        <time>2017-05-28T07:54:57Z</time>
      </trkpt>
      <trkpt lat="47.10058" lon="4.65935">
        <ele>411.63</ele>
        <time>2017-05-28T07:54:58Z</time>
      </trkpt>
      <trkpt lat="47.10043" lon="4.65927">
        <ele>413.24</ele>
        <time>2017-05-28T07:55:13Z</time>
      </trkpt>
      <trkpt lat="47.10029" lon="4.65917">
        <ele>414.3</ele>
        <time>2017-05-28T07:55:28Z</time>
      </trkpt>
      <trkpt lat="47.10014" lon="4.65908">
        <ele>415.92</ele>
        <time>2017-05-28T07:55:43Z</time>
      </trkpt>
      <trkpt lat="47.10001" lon="4.65905">
        <ele>417.31</ele>
        <time>2017-05-28T07:55:56Z</time>
      </trkpt>
      <trkpt lat="47.09986" lon="4.65907">
        <ele>419.47</ele>
        <time>2017-05-28T07:56:12Z</time>
      </trkpt>
      <trkpt lat="47.09972" lon="4.65914">
        <ele>422.04</ele>
        <time>2017-05-28T07:56:32Z</time>
      </trkpt>
      <trkpt lat="47.09961" lon="4.65921">
        <ele>424.47</ele>
        <time>2017-05-28T07:56:46Z</time>
      </trkpt>
      <trkpt lat="47.09951" lon="4.65927">
        <ele>429.5</ele>
        <time>2017-05-28T07:57:01Z</time>
      </trkpt>
      <trkpt lat="47.0994" lon="4.65938">
        <ele>429.93</ele>
        <time>2017-05-28T07:57:17Z</time>
      </trkpt>
      <trkpt lat="47.09926" lon="4.65947">
        <ele>432.54</ele>
        <time>2017-05-28T07:57:34Z</time>
      </trkpt>
      <trkpt lat="47.09925" lon="4.65947">
        <ele>432.59</ele>
        <time>2017-05-28T07:57:35Z</time>
      </trkpt>
      <trkpt lat="47.09914" lon="4.65954">
        <ele>433.57</ele>
        <time>2017-05-28T07:57:50Z</time>
      </trkpt>
      <trkpt lat="47.09911" lon="4.65956">
        <ele>434.94</ele>
        <time>2017-05-28T07:57:53Z</time>
      </trkpt>
      <trkpt lat="47.09897" lon="4.65965">
        <ele>437.12</ele>
        <time>2017-05-28T07:58:08Z</time>
      </trkpt>
      <trkpt lat="47.0989" lon="4.65968">
        <ele>437.62</ele>
        <time>2017-05-28T07:58:14Z</time>
      </trkpt>
      <trkpt lat="47.09873" lon="4.6597">
        <ele>438.92</ele>
        <time>2017-05-28T07:58:29Z</time>
      </trkpt>
      <trkpt lat="47.09856" lon="4.65976">
        <ele>441.09</ele>
        <time>2017-05-28T07:58:47Z</time>
      </trkpt>
      <trkpt lat="47.0985" lon="4.65981">
        <ele>442.12</ele>
        <time>2017-05-28T07:58:54Z</time>
      </trkpt>
      <trkpt lat="47.09839" lon="4.6599">
        <ele>445.15</ele>
        <time>2017-05-28T07:59:09Z</time>
      </trkpt>
      <trkpt lat="47.09826" lon="4.66">
        <ele>448.15</ele>
        <time>2017-05-28T07:59:28Z</time>
      </trkpt>
      <trkpt lat="47.09816" lon="4.66007">
        <ele>451.39</ele>
        <time>2017-05-28T07:59:45Z</time>
      </trkpt>
      <trkpt lat="47.09802" lon="4.66013">
        <ele>454.27</ele>
        <time>2017-05-28T08:00:02Z</time>
      </trkpt>
      <trkpt lat="47.09795" lon="4.66013">
        <ele>454.92</ele>
        <time>2017-05-28T08:00:16Z</time>
      </trkpt>
      <trkpt lat="47.09786" lon="4.66013">
        <ele>455.84</ele>
        <time>2017-05-28T08:00:39Z</time>
      </trkpt>
      <trkpt lat="47.0978" lon="4.66011">
        <ele>456.87</ele>
        <time>2017-05-28T08:01:02Z</time>
      </trkpt>
      <trkpt lat="47.09765" lon="4.66008">
        <ele>457.32</ele>
        <time>2017-05-28T08:01:24Z</time>
      </trkpt>
      <trkpt lat="47.09761" lon="4.66007">
        <ele>459.86</ele>
        <time>2017-05-28T08:01:30Z</time>
      </trkpt>
      <trkpt lat="47.09751" lon="4.66003">
        <ele>461.94</ele>
        <time>2017-05-28T08:01:46Z</time>
      </trkpt>
      <trkpt lat="47.09738" lon="4.66">
        <ele>464.82</ele>
        <time>2017-05-28T08:02:02Z</time>
      </trkpt>
      <trkpt lat="47.09728" lon="4.65996">
        <ele>465.91</ele>
        <time>2017-05-28T08:02:12Z</time>
      </trkpt>
      <trkpt lat="47.09719" lon="4.65991">
        <ele>467.38</ele>
        <time>2017-05-28T08:02:21Z</time>
      </trkpt>
      <trkpt lat="47.09711" lon="4.65987">
        <ele>469.31</ele>
        <time>2017-05-28T08:02:32Z</time>
      </trkpt>
      <trkpt lat="47.09701" lon="4.65988">
        <ele>470.94</ele>
        <time>2017-05-28T08:02:44Z</time>
      </trkpt>
      <trkpt lat="47.09691" lon="4.65989">
        <ele>471.63</ele>
        <time>2017-05-28T08:02:53Z</time>
      </trkpt>
      <trkpt lat="47.0969" lon="4.65986">
        <ele>470.61</ele>
        <time>2017-05-28T08:03:07Z</time>
      </trkpt>
      <trkpt lat="47.09687" lon="4.65984">
        <ele>470.62</ele>
        <time>2017-05-28T08:03:47Z</time>
      </trkpt>
      <trkpt lat="47.09688" lon="4.65981">
        <ele>470.69</ele>
        <time>2017-05-28T08:04:29Z</time>
      </trkpt>
      <trkpt lat="47.09689" lon="4.65978">
        <ele>471.86</ele>
        <time>2017-05-28T08:04:43Z</time>
      </trkpt>
      <trkpt lat="47.09682" lon="4.6597">
        <ele>472.01</ele>
        <time>2017-05-28T08:04:55Z</time>
      </trkpt>
      <trkpt lat="47.09681" lon="4.65969">
        <ele>471.96</ele>
        <time>2017-05-28T08:04:56Z</time>
      </trkpt>
      <trkpt lat="47.0967" lon="4.65958">
        <ele>472.7</ele>
        <time>2017-05-28T08:05:13Z</time>
      </trkpt>
      <trkpt lat="47.09652" lon="4.65937">
        <ele>473.66</ele>
        <time>2017-05-28T08:05:37Z</time>
      </trkpt>
      <trkpt lat="47.09639" lon="4.65925">
        <ele>474.13</ele>
        <time>2017-05-28T08:05:52Z</time>
      </trkpt>
      <trkpt lat="47.09623" lon="4.65912">
        <ele>475.14</ele>
        <time>2017-05-28T08:06:10Z</time>
      </trkpt>
      <trkpt lat="47.09606" lon="4.65899">
        <ele>475.67</ele>
        <time>2017-05-28T08:06:27Z</time>
      </trkpt>
      <trkpt lat="47.09604" lon="4.65897">
        <ele>475.71</ele>
        <time>2017-05-28T08:06:29Z</time>
      </trkpt>
      <trkpt lat="47.09603" lon="4.65897">
        <ele>475.83</ele>
        <time>2017-05-28T08:06:30Z</time>
      </trkpt>
      <trkpt lat="47.09601" lon="4.65896">
        <ele>475.7</ele>
        <time>2017-05-28T08:06:32Z</time>
      </trkpt>
      <trkpt lat="47.096" lon="4.65895">
        <ele>475.64</ele>
        <time>2017-05-28T08:06:33Z</time>
      </trkpt>
      <trkpt lat="47.09595" lon="4.65892">
        <ele>476.02</ele>
        <time>2017-05-28T08:06:38Z</time>
      </trkpt>
      <trkpt lat="47.09594" lon="4.65891">
        <ele>476.03</ele>
        <time>2017-05-28T08:06:39Z</time>
      </trkpt>
      <trkpt lat="47.09587" lon="4.65884">
        <ele>476.19</ele>
        <time>2017-05-28T08:06:46Z</time>
      </trkpt>
      <trkpt lat="47.09578" lon="4.65874">
        <ele>476.09</ele>
        <time>2017-05-28T08:06:58Z</time>
      </trkpt>
      <trkpt lat="47.09576" lon="4.65872">
        <ele>475.99</ele>
        <time>2017-05-28T08:07:00Z</time>
      </trkpt>
      <trkpt lat="47.09574" lon="4.65871">
        <ele>476.11</ele>
        <time>2017-05-28T08:07:02Z</time>
      </trkpt>
      <trkpt lat="47.09573" lon="4.6587">
        <ele>476.29</ele>
        <time>2017-05-28T08:07:03Z</time>
      </trkpt>
      <trkpt lat="47.09572" lon="4.65869">
        <ele>476.36</ele>
        <time>2017-05-28T08:07:04Z</time>
      </trkpt>
      <trkpt lat="47.0956" lon="4.65859">
        <ele>476.78</ele>
        <time>2017-05-28T08:07:17Z</time>
      </trkpt>
      <trkpt lat="47.09559" lon="4.65858">
        <ele>476.84</ele>
        <time>2017-05-28T08:07:18Z</time>
      </trkpt>
      <trkpt lat="47.09558" lon="4.65858">
        <ele>476.86</ele>
        <time>2017-05-28T08:07:19Z</time>
      </trkpt>
      <trkpt lat="47.09556" lon="4.65857">
        <ele>476.63</ele>
        <time>2017-05-28T08:07:20Z</time>
      </trkpt>
      <trkpt lat="47.09543" lon="4.65846">
        <ele>476.91</ele>
        <time>2017-05-28T08:07:34Z</time>
      </trkpt>
      <trkpt lat="47.09537" lon="4.65841">
        <ele>477.01</ele>
        <time>2017-05-28T08:07:42Z</time>
      </trkpt>
      <trkpt lat="47.09534" lon="4.65837">
        <ele>477.09</ele>
        <time>2017-05-28T08:07:45Z</time>
      </trkpt>
      <trkpt lat="47.09533" lon="4.65836">
        <ele>477.23</ele>
        <time>2017-05-28T08:07:46Z</time>
      </trkpt>
      <trkpt lat="47.09532" lon="4.65835">
        <ele>477.22</ele>
        <time>2017-05-28T08:07:47Z</time>
      </trkpt>
      <trkpt lat="47.09528" lon="4.65831">
        <ele>477.32</ele>
        <time>2017-05-28T08:07:57Z</time>
      </trkpt>
      <trkpt lat="47.09526" lon="4.65828">
        <ele>477.37</ele>
        <time>2017-05-28T08:07:59Z</time>
      </trkpt>
      <trkpt lat="47.09525" lon="4.65827">
        <ele>477.5</ele>
        <time>2017-05-28T08:08:00Z</time>
      </trkpt>
      <trkpt lat="47.09524" lon="4.65826">
        <ele>477.57</ele>
        <time>2017-05-28T08:08:01Z</time>
      </trkpt>
      <trkpt lat="47.09522" lon="4.65824">
        <ele>477.63</ele>
        <time>2017-05-28T08:08:03Z</time>
      </trkpt>
      <trkpt lat="47.09515" lon="4.6581">
        <ele>477.95</ele>
        <time>2017-05-28T08:08:15Z</time>
      </trkpt>
      <trkpt lat="47.09505" lon="4.65801">
        <ele>478.76</ele>
        <time>2017-05-28T08:08:25Z</time>
      </trkpt>
      <trkpt lat="47.09504" lon="4.658">
        <ele>478.91</ele>
        <time>2017-05-28T08:08:26Z</time>
      </trkpt>
      <trkpt lat="47.09503" lon="4.65799">
        <ele>479.1</ele>
        <time>2017-05-28T08:08:27Z</time>
      </trkpt>
      <trkpt lat="47.09496" lon="4.65791">
        <ele>479.77</ele>
        <time>2017-05-28T08:08:34Z</time>
      </trkpt>
      <trkpt lat="47.09485" lon="4.65782">
        <ele>481.78</ele>
        <time>2017-05-28T08:08:47Z</time>
      </trkpt>
      <trkpt lat="47.09473" lon="4.65771">
        <ele>483.11</ele>
        <time>2017-05-28T08:09:01Z</time>
      </trkpt>
      <trkpt lat="47.09465" lon="4.65764">
        <ele>484.1</ele>
        <time>2017-05-28T08:09:10Z</time>
      </trkpt>
      <trkpt lat="47.09461" lon="4.65762">
        <ele>484.24</ele>
        <time>2017-05-28T08:09:14Z</time>
      </trkpt>
      <trkpt lat="47.09458" lon="4.6576">
        <ele>484.75</ele>
        <time>2017-05-28T08:09:17Z</time>
      </trkpt>
      <trkpt lat="47.09443" lon="4.65747">
        <ele>486.08</ele>
        <time>2017-05-28T08:09:32Z</time>
      </trkpt>
      <trkpt lat="47.09429" lon="4.65734">
        <ele>486.79</ele>
        <time>2017-05-28T08:09:48Z</time>
      </trkpt>
      <trkpt lat="47.09428" lon="4.65733">
        <ele>486.93</ele>
        <time>2017-05-28T08:09:49Z</time>
      </trkpt>
      <trkpt lat="47.09427" lon="4.65732">
        <ele>486.85</ele>
        <time>2017-05-28T08:09:50Z</time>
      </trkpt>
      <trkpt lat="47.09425" lon="4.65731">
        <ele>486.84</ele>
        <time>2017-05-28T08:09:51Z</time>
      </trkpt>
      <trkpt lat="47.09424" lon="4.6573">
        <ele>487.09</ele>
        <time>2017-05-28T08:09:52Z</time>
      </trkpt>
      <trkpt lat="47.09423" lon="4.65729">
        <ele>487.13</ele>
        <time>2017-05-28T08:09:53Z</time>
      </trkpt>
      <trkpt lat="47.09406" lon="4.65708">
        <ele>488.44</ele>
        <time>2017-05-28T08:10:12Z</time>
      </trkpt>
      <trkpt lat="47.09398" lon="4.65696">
        <ele>489.65</ele>
        <time>2017-05-28T08:10:27Z</time>
      </trkpt>
      <trkpt lat="47.09396" lon="4.65693">
        <ele>489.73</ele>
        <time>2017-05-28T08:10:30Z</time>
      </trkpt>
      <trkpt lat="47.09395" lon="4.65692">
        <ele>489.59</ele>
        <time>2017-05-28T08:10:31Z</time>
      </trkpt>
      <trkpt lat="47.09395" lon="4.6569">
        <ele>489.52</ele>
        <time>2017-05-28T08:10:32Z</time>
      </trkpt>
      <trkpt lat="47.09394" lon="4.65689">
        <ele>489.7</ele>
        <time>2017-05-28T08:10:33Z</time>
      </trkpt>
      <trkpt lat="47.09393" lon="4.65688">
        <ele>489.71</ele>
        <time>2017-05-28T08:10:34Z</time>
      </trkpt>
      <trkpt lat="47.09384" lon="4.65674">
        <ele>491.06</ele>
        <time>2017-05-28T08:10:50Z</time>
      </trkpt>
      <trkpt lat="47.09379" lon="4.65673">
        <ele>490.93</ele>
        <time>2017-05-28T08:10:58Z</time>
      </trkpt>
      <trkpt lat="47.09378" lon="4.65674">
        <ele>490.93</ele>
        <time>2017-05-28T08:10:59Z</time>
      </trkpt>
      <trkpt lat="47.09378" lon="4.65673">
        <ele>491.3</ele>
        <time>2017-05-28T08:11:10Z</time>
      </trkpt>
      <trkpt lat="47.09376" lon="4.65673">
        <ele>491.23</ele>
        <time>2017-05-28T08:11:18Z</time>
      </trkpt>
      <trkpt lat="47.09367" lon="4.65674">
        <ele>491.97</ele>
        <time>2017-05-28T08:11:33Z</time>
      </trkpt>
      <trkpt lat="47.09364" lon="4.65674">
        <ele>492</ele>
        <time>2017-05-28T08:11:44Z</time>
      </trkpt>
      <trkpt lat="47.09353" lon="4.65675">
        <ele>491.88</ele>
        <time>2017-05-28T08:11:59Z</time>
      </trkpt>
      <trkpt lat="47.09352" lon="4.65675">
        <ele>492.11</ele>
        <time>2017-05-28T08:12:05Z</time>
      </trkpt>
      <trkpt lat="47.09349" lon="4.65677">
        <ele>491.91</ele>
        <time>2017-05-28T08:12:08Z</time>
      </trkpt>
      <trkpt lat="47.09347" lon="4.65678">
        <ele>492.21</ele>
        <time>2017-05-28T08:12:09Z</time>
      </trkpt>
      <trkpt lat="47.09346" lon="4.65678">
        <ele>492.09</ele>
        <time>2017-05-28T08:12:10Z</time>
      </trkpt>
      <trkpt lat="47.09345" lon="4.65679">
        <ele>492.07</ele>
        <time>2017-05-28T08:12:11Z</time>
      </trkpt>
      <trkpt lat="47.09344" lon="4.65679">
        <ele>491.96</ele>
        <time>2017-05-28T08:12:12Z</time>
      </trkpt>
      <trkpt lat="47.09343" lon="4.6568">
        <ele>491.86</ele>
        <time>2017-05-28T08:12:13Z</time>
      </trkpt>
      <trkpt lat="47.09341" lon="4.65681">
        <ele>492.07</ele>
        <time>2017-05-28T08:12:24Z</time>
      </trkpt>
      <trkpt lat="47.09341" lon="4.65681">
        <ele>492.13</ele>
        <time>2017-05-28T08:12:51Z</time>
      </trkpt>
      <trkpt lat="47.09338" lon="4.65682">
        <ele>492.29</ele>
        <time>2017-05-28T08:13:08Z</time>
      </trkpt>
      <trkpt lat="47.09337" lon="4.65682">
        <ele>492.29</ele>
        <time>2017-05-28T08:13:09Z</time>
      </trkpt>
      <trkpt lat="47.09325" lon="4.65685">
        <ele>491.8</ele>
        <time>2017-05-28T08:13:20Z</time>
      </trkpt>
      <trkpt lat="47.09323" lon="4.65685">
        <ele>491.68</ele>
        <time>2017-05-28T08:13:21Z</time>
      </trkpt>
      <trkpt lat="47.09322" lon="4.65686">
        <ele>491.72</ele>
        <time>2017-05-28T08:13:22Z</time>
      </trkpt>
      <trkpt lat="47.09321" lon="4.65687">
        <ele>491.66</ele>
        <time>2017-05-28T08:13:23Z</time>
      </trkpt>
      <trkpt lat="47.0932" lon="4.65687">
        <ele>491.78</ele>
        <time>2017-05-28T08:13:24Z</time>
      </trkpt>
      <trkpt lat="47.09293" lon="4.65693">
        <ele>490.79</ele>
        <time>2017-05-28T08:13:45Z</time>
      </trkpt>
      <trkpt lat="47.0927" lon="4.65696">
        <ele>489.46</ele>
        <time>2017-05-28T08:14:02Z</time>
      </trkpt>
      <trkpt lat="47.09241" lon="4.65702">
        <ele>488.07</ele>
        <time>2017-05-28T08:14:25Z</time>
      </trkpt>
      <trkpt lat="47.0922" lon="4.65719">
        <ele>485.15</ele>
        <time>2017-05-28T08:14:45Z</time>
      </trkpt>
      <trkpt lat="47.0922" lon="4.65729">
        <ele>484.45</ele>
        <time>2017-05-28T08:14:50Z</time>
      </trkpt>
      <trkpt lat="47.09221" lon="4.65732">
        <ele>484.24</ele>
        <time>2017-05-28T08:14:52Z</time>
      </trkpt>
      <trkpt lat="47.09221" lon="4.65733">
        <ele>484.02</ele>
        <time>2017-05-28T08:14:53Z</time>
      </trkpt>
      <trkpt lat="47.0922" lon="4.65735">
        <ele>483.79</ele>
        <time>2017-05-28T08:14:54Z</time>
      </trkpt>
      <trkpt lat="47.09216" lon="4.65754">
        <ele>480.68</ele>
        <time>2017-05-28T08:15:05Z</time>
      </trkpt>
      <trkpt lat="47.09205" lon="4.65776">
        <ele>477.52</ele>
        <time>2017-05-28T08:15:20Z</time>
      </trkpt>
      <trkpt lat="47.09198" lon="4.65803">
        <ele>474.68</ele>
        <time>2017-05-28T08:15:36Z</time>
      </trkpt>
      <trkpt lat="47.09193" lon="4.65832">
        <ele>472.34</ele>
        <time>2017-05-28T08:15:53Z</time>
      </trkpt>
      <trkpt lat="47.09193" lon="4.65836">
        <ele>472.23</ele>
        <time>2017-05-28T08:16:01Z</time>
      </trkpt>
      <trkpt lat="47.09193" lon="4.65841">
        <ele>471.69</ele>
        <time>2017-05-28T08:16:04Z</time>
      </trkpt>
      <trkpt lat="47.09193" lon="4.65843">
        <ele>471.52</ele>
        <time>2017-05-28T08:16:05Z</time>
      </trkpt>
      <trkpt lat="47.09193" lon="4.65845">
        <ele>471.38</ele>
        <time>2017-05-28T08:16:06Z</time>
      </trkpt>
      <trkpt lat="47.09193" lon="4.65847">
        <ele>471.29</ele>
        <time>2017-05-28T08:16:07Z</time>
      </trkpt>
      <trkpt lat="47.09193" lon="4.65849">
        <ele>471.09</ele>
        <time>2017-05-28T08:16:08Z</time>
      </trkpt>
      <trkpt lat="47.09193" lon="4.6585">
        <ele>470.94</ele>
        <time>2017-05-28T08:16:09Z</time>
      </trkpt>
      <trkpt lat="47.09193" lon="4.65852">
        <ele>470.88</ele>
        <time>2017-05-28T08:16:10Z</time>
      </trkpt>
      <trkpt lat="47.09195" lon="4.65878">
        <ele>467.91</ele>
        <time>2017-05-28T08:16:25Z</time>
      </trkpt>
      <trkpt lat="47.09197" lon="4.65915">
        <ele>464.7</ele>
        <time>2017-05-28T08:16:45Z</time>
      </trkpt>
      <trkpt lat="47.09201" lon="4.65948">
        <ele>462.53</ele>
        <time>2017-05-28T08:17:03Z</time>
      </trkpt>
      <trkpt lat="47.09206" lon="4.65973">
        <ele>461.1</ele>
        <time>2017-05-28T08:17:17Z</time>
      </trkpt>
      <trkpt lat="47.09206" lon="4.65975">
        <ele>460.85</ele>
        <time>2017-05-28T08:17:18Z</time>
      </trkpt>
      <trkpt lat="47.09207" lon="4.65976">
        <ele>460.8</ele>
        <time>2017-05-28T08:17:19Z</time>
      </trkpt>
      <trkpt lat="47.09208" lon="4.65978">
        <ele>460.83</ele>
        <time>2017-05-28T08:17:20Z</time>
      </trkpt>
      <trkpt lat="47.09208" lon="4.6598">
        <ele>460.83</ele>
        <time>2017-05-28T08:17:21Z</time>
      </trkpt>
      <trkpt lat="47.09209" lon="4.65981">
        <ele>460.76</ele>
        <time>2017-05-28T08:17:22Z</time>
      </trkpt>
      <trkpt lat="47.09209" lon="4.65983">
        <ele>460.76</ele>
        <time>2017-05-28T08:17:23Z</time>
      </trkpt>
      <trkpt lat="47.0921" lon="4.65985">
        <ele>460.64</ele>
        <time>2017-05-28T08:17:24Z</time>
      </trkpt>
      <trkpt lat="47.09215" lon="4.66006">
        <ele>458.63</ele>
        <time>2017-05-28T08:17:37Z</time>
      </trkpt>
      <trkpt lat="47.09216" lon="4.66008">
        <ele>458.53</ele>
        <time>2017-05-28T08:17:38Z</time>
      </trkpt>
      <trkpt lat="47.09216" lon="4.6601">
        <ele>458.32</ele>
        <time>2017-05-28T08:17:39Z</time>
      </trkpt>
      <trkpt lat="47.09217" lon="4.66011">
        <ele>458.25</ele>
        <time>2017-05-28T08:17:40Z</time>
      </trkpt>
      <trkpt lat="47.09217" lon="4.66013">
        <ele>458</ele>
        <time>2017-05-28T08:17:41Z</time>
      </trkpt>
      <trkpt lat="47.09218" lon="4.66014">
        <ele>457.7</ele>
        <time>2017-05-28T08:17:42Z</time>
      </trkpt>
      <trkpt lat="47.09218" lon="4.66016">
        <ele>457.41</ele>
        <time>2017-05-28T08:17:43Z</time>
      </trkpt>
      <trkpt lat="47.09219" lon="4.66018">
        <ele>457.25</ele>
        <time>2017-05-28T08:17:44Z</time>
      </trkpt>
      <trkpt lat="47.09228" lon="4.66042">
        <ele>454.15</ele>
        <time>2017-05-28T08:17:59Z</time>
      </trkpt>
      <trkpt lat="47.09232" lon="4.66074">
        <ele>451.11</ele>
        <time>2017-05-28T08:18:16Z</time>
      </trkpt>
      <trkpt lat="47.09241" lon="4.66108">
        <ele>448.64</ele>
        <time>2017-05-28T08:18:36Z</time>
      </trkpt>
      <trkpt lat="47.09243" lon="4.66113">
        <ele>448.03</ele>
        <time>2017-05-28T08:18:40Z</time>
      </trkpt>
      <trkpt lat="47.09244" lon="4.66115">
        <ele>447.91</ele>
        <time>2017-05-28T08:18:41Z</time>
      </trkpt>
      <trkpt lat="47.09244" lon="4.66117">
        <ele>447.65</ele>
        <time>2017-05-28T08:18:42Z</time>
      </trkpt>
      <trkpt lat="47.09245" lon="4.66118">
        <ele>447.46</ele>
        <time>2017-05-28T08:18:43Z</time>
      </trkpt>
      <trkpt lat="47.09246" lon="4.66119">
        <ele>447.29</ele>
        <time>2017-05-28T08:18:44Z</time>
      </trkpt>
      <trkpt lat="47.09246" lon="4.66121">
        <ele>447.29</ele>
        <time>2017-05-28T08:18:45Z</time>
      </trkpt>
      <trkpt lat="47.09247" lon="4.66123">
        <ele>447.14</ele>
        <time>2017-05-28T08:18:46Z</time>
      </trkpt>
      <trkpt lat="47.09247" lon="4.66125">
        <ele>446.74</ele>
        <time>2017-05-28T08:18:47Z</time>
      </trkpt>
      <trkpt lat="47.09248" lon="4.66126">
        <ele>446.69</ele>
        <time>2017-05-28T08:18:48Z</time>
      </trkpt>
      <trkpt lat="47.09248" lon="4.66128">
        <ele>446.59</ele>
        <time>2017-05-28T08:18:49Z</time>
      </trkpt>
      <trkpt lat="47.0925" lon="4.66135">
        <ele>446.13</ele>
        <time>2017-05-28T08:18:53Z</time>
      </trkpt>
      <trkpt lat="47.0925" lon="4.66137">
        <ele>446.18</ele>
        <time>2017-05-28T08:18:54Z</time>
      </trkpt>
      <trkpt lat="47.09257" lon="4.66158">
        <ele>444.92</ele>
        <time>2017-05-28T08:19:07Z</time>
      </trkpt>
      <trkpt lat="47.09257" lon="4.6616">
        <ele>444.79</ele>
        <time>2017-05-28T08:19:08Z</time>
      </trkpt>
      <trkpt lat="47.09258" lon="4.66162">
        <ele>444.63</ele>
        <time>2017-05-28T08:19:09Z</time>
      </trkpt>
      <trkpt lat="47.09258" lon="4.66164">
        <ele>444.61</ele>
        <time>2017-05-28T08:19:10Z</time>
      </trkpt>
      <trkpt lat="47.09259" lon="4.66166">
        <ele>444.58</ele>
        <time>2017-05-28T08:19:11Z</time>
      </trkpt>
      <trkpt lat="47.0926" lon="4.66168">
        <ele>444.59</ele>
        <time>2017-05-28T08:19:12Z</time>
      </trkpt>
      <trkpt lat="47.09261" lon="4.66169">
        <ele>444.46</ele>
        <time>2017-05-28T08:19:13Z</time>
      </trkpt>
      <trkpt lat="47.09272" lon="4.66192">
        <ele>442.67</ele>
        <time>2017-05-28T08:19:28Z</time>
      </trkpt>
      <trkpt lat="47.09276" lon="4.66198">
        <ele>444.1</ele>
        <time>2017-05-28T08:19:32Z</time>
      </trkpt>
      <trkpt lat="47.09277" lon="4.66201">
        <ele>442.81</ele>
        <time>2017-05-28T08:19:34Z</time>
      </trkpt>
      <trkpt lat="47.09293" lon="4.6624">
        <ele>441.51</ele>
        <time>2017-05-28T08:19:58Z</time>
      </trkpt>
      <trkpt lat="47.09297" lon="4.6627">
        <ele>439.99</ele>
        <time>2017-05-28T08:20:15Z</time>
      </trkpt>
      <trkpt lat="47.09299" lon="4.66302">
        <ele>436.91</ele>
        <time>2017-05-28T08:20:33Z</time>
      </trkpt>
      <trkpt lat="47.09301" lon="4.66336">
        <ele>434.02</ele>
        <time>2017-05-28T08:20:52Z</time>
      </trkpt>
      <trkpt lat="47.09305" lon="4.66368">
        <ele>431.1</ele>
        <time>2017-05-28T08:21:11Z</time>
      </trkpt>
      <trkpt lat="47.09311" lon="4.66399">
        <ele>428.02</ele>
        <time>2017-05-28T08:21:29Z</time>
      </trkpt>
      <trkpt lat="47.09317" lon="4.66434">
        <ele>424.81</ele>
        <time>2017-05-28T08:21:50Z</time>
      </trkpt>
      <trkpt lat="47.09315" lon="4.66472">
        <ele>421.68</ele>
        <time>2017-05-28T08:22:12Z</time>
      </trkpt>
      <trkpt lat="47.09313" lon="4.66496">
        <ele>418.48</ele>
        <time>2017-05-28T08:22:26Z</time>
      </trkpt>
      <trkpt lat="47.0931" lon="4.66525">
        <ele>415.17</ele>
        <time>2017-05-28T08:22:42Z</time>
      </trkpt>
      <trkpt lat="47.0931" lon="4.66559">
        <ele>412.45</ele>
        <time>2017-05-28T08:23:02Z</time>
      </trkpt>
      <trkpt lat="47.09309" lon="4.6658">
        <ele>410.3</ele>
        <time>2017-05-28T08:23:14Z</time>
      </trkpt>
      <trkpt lat="47.09309" lon="4.66582">
        <ele>410.31</ele>
        <time>2017-05-28T08:23:15Z</time>
      </trkpt>
      <trkpt lat="47.09309" lon="4.66584">
        <ele>410.02</ele>
        <time>2017-05-28T08:23:16Z</time>
      </trkpt>
      <trkpt lat="47.09308" lon="4.66617">
        <ele>406.98</ele>
        <time>2017-05-28T08:23:34Z</time>
      </trkpt>
      <trkpt lat="47.09306" lon="4.66654">
        <ele>403.86</ele>
        <time>2017-05-28T08:23:54Z</time>
      </trkpt>
      <trkpt lat="47.09304" lon="4.66674">
        <ele>402.07</ele>
        <time>2017-05-28T08:24:05Z</time>
      </trkpt>
      <trkpt lat="47.09305" lon="4.66676">
        <ele>402.03</ele>
        <time>2017-05-28T08:24:06Z</time>
      </trkpt>
      <trkpt lat="47.09305" lon="4.66677">
        <ele>401.77</ele>
        <time>2017-05-28T08:24:07Z</time>
      </trkpt>
      <trkpt lat="47.09304" lon="4.66679">
        <ele>401.68</ele>
        <time>2017-05-28T08:24:08Z</time>
      </trkpt>
      <trkpt lat="47.09304" lon="4.66681">
        <ele>401.38</ele>
        <time>2017-05-28T08:24:09Z</time>
      </trkpt>
      <trkpt lat="47.09304" lon="4.66683">
        <ele>401.31</ele>
        <time>2017-05-28T08:24:10Z</time>
      </trkpt>
      <trkpt lat="47.09304" lon="4.66685">
        <ele>400.97</ele>
        <time>2017-05-28T08:24:11Z</time>
      </trkpt>
      <trkpt lat="47.09304" lon="4.66687">
        <ele>400.78</ele>
        <time>2017-05-28T08:24:12Z</time>
      </trkpt>
      <trkpt lat="47.09303" lon="4.66689">
        <ele>400.7</ele>
        <time>2017-05-28T08:24:13Z</time>
      </trkpt>
      <trkpt lat="47.09303" lon="4.6669">
        <ele>400.66</ele>
        <time>2017-05-28T08:24:14Z</time>
      </trkpt>
      <trkpt lat="47.09303" lon="4.66692">
        <ele>400.44</ele>
        <time>2017-05-28T08:24:15Z</time>
      </trkpt>
      <trkpt lat="47.09303" lon="4.66694">
        <ele>400.49</ele>
        <time>2017-05-28T08:24:16Z</time>
      </trkpt>
      <trkpt lat="47.09303" lon="4.66696">
        <ele>400.6</ele>
        <time>2017-05-28T08:24:17Z</time>
      </trkpt>
      <trkpt lat="47.093" lon="4.66733">
        <ele>398.29</ele>
        <time>2017-05-28T08:24:37Z</time>
      </trkpt>
      <trkpt lat="47.09297" lon="4.6677">
        <ele>396.48</ele>
        <time>2017-05-28T08:24:57Z</time>
      </trkpt>
      <trkpt lat="47.09296" lon="4.66801">
        <ele>394.21</ele>
        <time>2017-05-28T08:25:14Z</time>
      </trkpt>
      <trkpt lat="47.09295" lon="4.66822">
        <ele>392.56</ele>
        <time>2017-05-28T08:25:26Z</time>
      </trkpt>
      <trkpt lat="47.09295" lon="4.66858">
        <ele>392.19</ele>
        <time>2017-05-28T08:25:45Z</time>
      </trkpt>
      <trkpt lat="47.09295" lon="4.66891">
        <ele>390.2</ele>
        <time>2017-05-28T08:26:04Z</time>
      </trkpt>
      <trkpt lat="47.09295" lon="4.6693">
        <ele>388.17</ele>
        <time>2017-05-28T08:26:24Z</time>
      </trkpt>
      <trkpt lat="47.09284" lon="4.66966">
        <ele>384.88</ele>
        <time>2017-05-28T08:26:45Z</time>
      </trkpt>
      <trkpt lat="47.09277" lon="4.66985">
        <ele>383.76</ele>
        <time>2017-05-28T08:26:57Z</time>
      </trkpt>
      <trkpt lat="47.09276" lon="4.66986">
        <ele>383.46</ele>
        <time>2017-05-28T08:26:58Z</time>
      </trkpt>
      <trkpt lat="47.09262" lon="4.67021">
        <ele>380.46</ele>
        <time>2017-05-28T08:27:20Z</time>
      </trkpt>
      <trkpt lat="47.09254" lon="4.67058">
        <ele>378.91</ele>
        <time>2017-05-28T08:27:40Z</time>
      </trkpt>
      <trkpt lat="47.09255" lon="4.67094">
        <ele>379.13</ele>
        <time>2017-05-28T08:27:59Z</time>
      </trkpt>
      <trkpt lat="47.09254" lon="4.67125">
        <ele>378.66</ele>
        <time>2017-05-28T08:28:18Z</time>
      </trkpt>
      <trkpt lat="47.09252" lon="4.67141">
        <ele>376.67</ele>
        <time>2017-05-28T08:28:27Z</time>
      </trkpt>
      <trkpt lat="47.09251" lon="4.67144">
        <ele>377.03</ele>
        <time>2017-05-28T08:28:28Z</time>
      </trkpt>
      <trkpt lat="47.09251" lon="4.67146">
        <ele>376.93</ele>
        <time>2017-05-28T08:28:29Z</time>
      </trkpt>
      <trkpt lat="47.09251" lon="4.67147">
        <ele>375.99</ele>
        <time>2017-05-28T08:28:30Z</time>
      </trkpt>
      <trkpt lat="47.0925" lon="4.67149">
        <ele>375.8</ele>
        <time>2017-05-28T08:28:31Z</time>
      </trkpt>
      <trkpt lat="47.0925" lon="4.67151">
        <ele>375.73</ele>
        <time>2017-05-28T08:28:32Z</time>
      </trkpt>
      <trkpt lat="47.09249" lon="4.67153">
        <ele>375.62</ele>
        <time>2017-05-28T08:28:33Z</time>
      </trkpt>
      <trkpt lat="47.09243" lon="4.67168">
        <ele>374.38</ele>
        <time>2017-05-28T08:28:47Z</time>
      </trkpt>
      <trkpt lat="47.09242" lon="4.67169">
        <ele>374.18</ele>
        <time>2017-05-28T08:28:48Z</time>
      </trkpt>
      <trkpt lat="47.09242" lon="4.67171">
        <ele>373.91</ele>
        <time>2017-05-28T08:28:49Z</time>
      </trkpt>
      <trkpt lat="47.09241" lon="4.67173">
        <ele>373.66</ele>
        <time>2017-05-28T08:28:50Z</time>
      </trkpt>
      <trkpt lat="47.0924" lon="4.67174">
        <ele>373.56</ele>
        <time>2017-05-28T08:28:51Z</time>
      </trkpt>
      <trkpt lat="47.09238" lon="4.6718">
        <ele>372.89</ele>
        <time>2017-05-28T08:28:55Z</time>
      </trkpt>
      <trkpt lat="47.09237" lon="4.67183">
        <ele>372.74</ele>
        <time>2017-05-28T08:28:56Z</time>
      </trkpt>
      <trkpt lat="47.09237" lon="4.67185">
        <ele>372.66</ele>
        <time>2017-05-28T08:28:57Z</time>
      </trkpt>
      <trkpt lat="47.09237" lon="4.67187">
        <ele>372.32</ele>
        <time>2017-05-28T08:28:58Z</time>
      </trkpt>
      <trkpt lat="47.09237" lon="4.67189">
        <ele>372.15</ele>
        <time>2017-05-28T08:28:59Z</time>
      </trkpt>
      <trkpt lat="47.09237" lon="4.67191">
        <ele>372.15</ele>
        <time>2017-05-28T08:29:00Z</time>
      </trkpt>
      <trkpt lat="47.09229" lon="4.67213">
        <ele>370.53</ele>
        <time>2017-05-28T08:29:14Z</time>
      </trkpt>
      <trkpt lat="47.09224" lon="4.67213">
        <ele>370.13</ele>
        <time>2017-05-28T08:29:18Z</time>
      </trkpt>
      <trkpt lat="47.09223" lon="4.67212">
        <ele>370.41</ele>
        <time>2017-05-28T08:29:19Z</time>
      </trkpt>
      <trkpt lat="47.09218" lon="4.6721">
        <ele>369.04</ele>
        <time>2017-05-28T08:29:23Z</time>
      </trkpt>
      <trkpt lat="47.09215" lon="4.6721">
        <ele>368.56</ele>
        <time>2017-05-28T08:29:27Z</time>
      </trkpt>
      <trkpt lat="47.09212" lon="4.67211">
        <ele>368.55</ele>
        <time>2017-05-28T08:29:29Z</time>
      </trkpt>
      <trkpt lat="47.09211" lon="4.67211">
        <ele>368.63</ele>
        <time>2017-05-28T08:29:30Z</time>
      </trkpt>
      <trkpt lat="47.09209" lon="4.67212">
        <ele>368.52</ele>
        <time>2017-05-28T08:29:31Z</time>
      </trkpt>
      <trkpt lat="47.09208" lon="4.67212">
        <ele>368.74</ele>
        <time>2017-05-28T08:29:32Z</time>
      </trkpt>
      <trkpt lat="47.09207" lon="4.67212">
        <ele>368.77</ele>
        <time>2017-05-28T08:29:33Z</time>
      </trkpt>
      <trkpt lat="47.09205" lon="4.67212">
        <ele>368.91</ele>
        <time>2017-05-28T08:29:34Z</time>
      </trkpt>
      <trkpt lat="47.09203" lon="4.67213">
        <ele>369.06</ele>
        <time>2017-05-28T08:29:35Z</time>
      </trkpt>
      <trkpt lat="47.09202" lon="4.67214">
        <ele>369.16</ele>
        <time>2017-05-28T08:29:36Z</time>
      </trkpt>
      <trkpt lat="47.09188" lon="4.67221">
        <ele>369.37</ele>
        <time>2017-05-28T08:29:50Z</time>
      </trkpt>
      <trkpt lat="47.09181" lon="4.67225">
        <ele>369.67</ele>
        <time>2017-05-28T08:29:56Z</time>
      </trkpt>
      <trkpt lat="47.0918" lon="4.67227">
        <ele>369.86</ele>
        <time>2017-05-28T08:29:57Z</time>
      </trkpt>
      <trkpt lat="47.09175" lon="4.67232">
        <ele>369.59</ele>
        <time>2017-05-28T08:30:02Z</time>
      </trkpt>
      <trkpt lat="47.09174" lon="4.67234">
        <ele>369.71</ele>
        <time>2017-05-28T08:30:03Z</time>
      </trkpt>
      <trkpt lat="47.09171" lon="4.67237">
        <ele>369.68</ele>
        <time>2017-05-28T08:30:06Z</time>
      </trkpt>
      <trkpt lat="47.09171" lon="4.67239">
        <ele>369.78</ele>
        <time>2017-05-28T08:30:07Z</time>
      </trkpt>
      <trkpt lat="47.09171" lon="4.67243">
        <ele>369.73</ele>
        <time>2017-05-28T08:30:19Z</time>
      </trkpt>
      <trkpt lat="47.09172" lon="4.67243">
        <ele>369.47</ele>
        <time>2017-05-28T08:30:35Z</time>
      </trkpt>
      <trkpt lat="47.09172" lon="4.67247">
        <ele>368.53</ele>
        <time>2017-05-28T08:30:49Z</time>
      </trkpt>
      <trkpt lat="47.09173" lon="4.67246">
        <ele>369.07</ele>
        <time>2017-05-28T08:31:34Z</time>
      </trkpt>
      <trkpt lat="47.09173" lon="4.67247">
        <ele>368.88</ele>
        <time>2017-05-28T08:32:31Z</time>
      </trkpt>
      <trkpt lat="47.09173" lon="4.67246">
        <ele>369.24</ele>
        <time>2017-05-28T08:33:23Z</time>
      </trkpt>
      <trkpt lat="47.09172" lon="4.67245">
        <ele>369.08</ele>
        <time>2017-05-28T08:34:20Z</time>
      </trkpt>
      <trkpt lat="47.09172" lon="4.67246">
        <ele>369.3</ele>
        <time>2017-05-28T08:35:10Z</time>
      </trkpt>
      <trkpt lat="47.09171" lon="4.67245">
        <ele>370.6</ele>
        <time>2017-05-28T08:35:41Z</time>
      </trkpt>
      <trkpt lat="47.09171" lon="4.67246">
        <ele>369.63</ele>
        <time>2017-05-28T08:35:59Z</time>
      </trkpt>
      <trkpt lat="47.0917" lon="4.67239">
        <ele>370.09</ele>
        <time>2017-05-28T08:36:17Z</time>
      </trkpt>
      <trkpt lat="47.0917" lon="4.67237">
        <ele>369.83</ele>
        <time>2017-05-28T08:36:20Z</time>
      </trkpt>
      <trkpt lat="47.0917" lon="4.67235">
        <ele>370.05</ele>
        <time>2017-05-28T08:36:21Z</time>
      </trkpt>
      <trkpt lat="47.09169" lon="4.67228">
        <ele>370.06</ele>
        <time>2017-05-28T08:36:26Z</time>
      </trkpt>
      <trkpt lat="47.09169" lon="4.67226">
        <ele>368</ele>
        <time>2017-05-28T08:36:27Z</time>
      </trkpt>
      <trkpt lat="47.09168" lon="4.67225">
        <ele>373.14</ele>
        <time>2017-05-28T08:36:28Z</time>
      </trkpt>
      <trkpt lat="47.09168" lon="4.67222">
        <ele>370.92</ele>
        <time>2017-05-28T08:36:30Z</time>
      </trkpt>
      <trkpt lat="47.0916" lon="4.67203">
        <ele>372.86</ele>
        <time>2017-05-28T08:36:45Z</time>
      </trkpt>
      <trkpt lat="47.09155" lon="4.67172">
        <ele>375.22</ele>
        <time>2017-05-28T08:37:06Z</time>
      </trkpt>
      <trkpt lat="47.09157" lon="4.67142">
        <ele>377.2</ele>
        <time>2017-05-28T08:37:25Z</time>
      </trkpt>
      <trkpt lat="47.09157" lon="4.67117">
        <ele>379.09</ele>
        <time>2017-05-28T08:37:42Z</time>
      </trkpt>
      <trkpt lat="47.09156" lon="4.67092">
        <ele>381.18</ele>
        <time>2017-05-28T08:37:59Z</time>
      </trkpt>
      <trkpt lat="47.09152" lon="4.67069">
        <ele>383.31</ele>
        <time>2017-05-28T08:38:16Z</time>
      </trkpt>
      <trkpt lat="47.09141" lon="4.67053">
        <ele>385.11</ele>
        <time>2017-05-28T08:38:31Z</time>
      </trkpt>
      <trkpt lat="47.09122" lon="4.67042">
        <ele>386.95</ele>
        <time>2017-05-28T08:38:50Z</time>
      </trkpt>
      <trkpt lat="47.09104" lon="4.67038">
        <ele>389.49</ele>
        <time>2017-05-28T08:39:08Z</time>
      </trkpt>
      <trkpt lat="47.09086" lon="4.67037">
        <ele>391.06</ele>
        <time>2017-05-28T08:39:26Z</time>
      </trkpt>
      <trkpt lat="47.09068" lon="4.67038">
        <ele>392.93</ele>
        <time>2017-05-28T08:39:43Z</time>
      </trkpt>
      <trkpt lat="47.09047" lon="4.67038">
        <ele>394.81</ele>
        <time>2017-05-28T08:40:02Z</time>
      </trkpt>
      <trkpt lat="47.09025" lon="4.67037">
        <ele>397.58</ele>
        <time>2017-05-28T08:40:22Z</time>
      </trkpt>
      <trkpt lat="47.09007" lon="4.67038">
        <ele>400.9</ele>
        <time>2017-05-28T08:40:40Z</time>
      </trkpt>
      <trkpt lat="47.08987" lon="4.6704">
        <ele>402.93</ele>
        <time>2017-05-28T08:40:58Z</time>
      </trkpt>
      <trkpt lat="47.08968" lon="4.67041">
        <ele>404.87</ele>
        <time>2017-05-28T08:41:16Z</time>
      </trkpt>
      <trkpt lat="47.08949" lon="4.6704">
        <ele>406.85</ele>
        <time>2017-05-28T08:41:33Z</time>
      </trkpt>
      <trkpt lat="47.08932" lon="4.6703">
        <ele>409.55</ele>
        <time>2017-05-28T08:41:53Z</time>
      </trkpt>
      <trkpt lat="47.08918" lon="4.67022">
        <ele>411.78</ele>
        <time>2017-05-28T08:42:08Z</time>
      </trkpt>
      <trkpt lat="47.08909" lon="4.67019">
        <ele>413.58</ele>
        <time>2017-05-28T08:42:16Z</time>
      </trkpt>
      <trkpt lat="47.08894" lon="4.67016">
        <ele>414.7</ele>
        <time>2017-05-28T08:42:28Z</time>
      </trkpt>
      <trkpt lat="47.08882" lon="4.67011">
        <ele>416.57</ele>
        <time>2017-05-28T08:42:39Z</time>
      </trkpt>
      <trkpt lat="47.08869" lon="4.67003">
        <ele>418.12</ele>
        <time>2017-05-28T08:42:53Z</time>
      </trkpt>
      <trkpt lat="47.08868" lon="4.67002">
        <ele>418.2</ele>
        <time>2017-05-28T08:42:54Z</time>
      </trkpt>
      <trkpt lat="47.08853" lon="4.66997">
        <ele>420.51</ele>
        <time>2017-05-28T08:43:09Z</time>
      </trkpt>
      <trkpt lat="47.08845" lon="4.66996">
        <ele>421.7</ele>
        <time>2017-05-28T08:43:19Z</time>
      </trkpt>
      <trkpt lat="47.08836" lon="4.66994">
        <ele>422.81</ele>
        <time>2017-05-28T08:43:28Z</time>
      </trkpt>
      <trkpt lat="47.08817" lon="4.6699">
        <ele>424.96</ele>
        <time>2017-05-28T08:43:47Z</time>
      </trkpt>
      <trkpt lat="47.08804" lon="4.66984">
        <ele>426.06</ele>
        <time>2017-05-28T08:44:00Z</time>
      </trkpt>
      <trkpt lat="47.08786" lon="4.66974">
        <ele>427.45</ele>
        <time>2017-05-28T08:44:16Z</time>
      </trkpt>
      <trkpt lat="47.08766" lon="4.66962">
        <ele>428.28</ele>
        <time>2017-05-28T08:44:34Z</time>
      </trkpt>
      <trkpt lat="47.08765" lon="4.66962">
        <ele>428.4</ele>
        <time>2017-05-28T08:44:35Z</time>
      </trkpt>
      <trkpt lat="47.08763" lon="4.66961">
        <ele>428.6</ele>
        <time>2017-05-28T08:44:36Z</time>
      </trkpt>
      <trkpt lat="47.08762" lon="4.6696">
        <ele>428.68</ele>
        <time>2017-05-28T08:44:37Z</time>
      </trkpt>
      <trkpt lat="47.08761" lon="4.66959">
        <ele>428.65</ele>
        <time>2017-05-28T08:44:38Z</time>
      </trkpt>
      <trkpt lat="47.08757" lon="4.66957">
        <ele>428.77</ele>
        <time>2017-05-28T08:44:42Z</time>
      </trkpt>
      <trkpt lat="47.08742" lon="4.66948">
        <ele>430.44</ele>
        <time>2017-05-28T08:44:57Z</time>
      </trkpt>
      <trkpt lat="47.08744" lon="4.66941">
        <ele>431.52</ele>
        <time>2017-05-28T08:45:03Z</time>
      </trkpt>
      <trkpt lat="47.08748" lon="4.66938">
        <ele>432.26</ele>
        <time>2017-05-28T08:45:07Z</time>
      </trkpt>
      <trkpt lat="47.08749" lon="4.66938">
        <ele>432.16</ele>
        <time>2017-05-28T08:45:08Z</time>
      </trkpt>
      <trkpt lat="47.08756" lon="4.66937">
        <ele>432.94</ele>
        <time>2017-05-28T08:45:14Z</time>
      </trkpt>
      <trkpt lat="47.08757" lon="4.66937">
        <ele>433</ele>
        <time>2017-05-28T08:45:15Z</time>
      </trkpt>
      <trkpt lat="47.08776" lon="4.66937">
        <ele>434.3</ele>
        <time>2017-05-28T08:45:30Z</time>
      </trkpt>
      <trkpt lat="47.08789" lon="4.66934">
        <ele>434.79</ele>
        <time>2017-05-28T08:45:43Z</time>
      </trkpt>
      <trkpt lat="47.08809" lon="4.66923">
        <ele>436.47</ele>
        <time>2017-05-28T08:46:00Z</time>
      </trkpt>
      <trkpt lat="47.08821" lon="4.66908">
        <ele>438.1</ele>
        <time>2017-05-28T08:46:12Z</time>
      </trkpt>
      <trkpt lat="47.0882" lon="4.66904">
        <ele>438.51</ele>
        <time>2017-05-28T08:46:15Z</time>
      </trkpt>
      <trkpt lat="47.08815" lon="4.66898">
        <ele>439.68</ele>
        <time>2017-05-28T08:46:20Z</time>
      </trkpt>
      <trkpt lat="47.08814" lon="4.66898">
        <ele>439.77</ele>
        <time>2017-05-28T08:46:21Z</time>
      </trkpt>
      <trkpt lat="47.08813" lon="4.66898">
        <ele>439.87</ele>
        <time>2017-05-28T08:46:22Z</time>
      </trkpt>
      <trkpt lat="47.08799" lon="4.66902">
        <ele>442.08</ele>
        <time>2017-05-28T08:46:40Z</time>
      </trkpt>
      <trkpt lat="47.08783" lon="4.66904">
        <ele>444.67</ele>
        <time>2017-05-28T08:46:53Z</time>
      </trkpt>
      <trkpt lat="47.08769" lon="4.66901">
        <ele>446.62</ele>
        <time>2017-05-28T08:47:08Z</time>
      </trkpt>
      <trkpt lat="47.08756" lon="4.66891">
        <ele>448.34</ele>
        <time>2017-05-28T08:47:23Z</time>
      </trkpt>
      <trkpt lat="47.08742" lon="4.66879">
        <ele>449.32</ele>
        <time>2017-05-28T08:47:39Z</time>
      </trkpt>
      <trkpt lat="47.08726" lon="4.66868">
        <ele>450.7</ele>
        <time>2017-05-28T08:47:56Z</time>
      </trkpt>
      <trkpt lat="47.08711" lon="4.66859">
        <ele>452.27</ele>
        <time>2017-05-28T08:48:11Z</time>
      </trkpt>
      <trkpt lat="47.08698" lon="4.66851">
        <ele>453.66</ele>
        <time>2017-05-28T08:48:26Z</time>
      </trkpt>
      <trkpt lat="47.08684" lon="4.66843">
        <ele>455.69</ele>
        <time>2017-05-28T08:48:41Z</time>
      </trkpt>
      <trkpt lat="47.08671" lon="4.66838">
        <ele>457.57</ele>
        <time>2017-05-28T08:48:57Z</time>
      </trkpt>
      <trkpt lat="47.08658" lon="4.66834">
        <ele>459.51</ele>
        <time>2017-05-28T08:49:12Z</time>
      </trkpt>
      <trkpt lat="47.08647" lon="4.66829">
        <ele>461.21</ele>
        <time>2017-05-28T08:49:24Z</time>
      </trkpt>
      <trkpt lat="47.08636" lon="4.66817">
        <ele>463.1</ele>
        <time>2017-05-28T08:49:39Z</time>
      </trkpt>
      <trkpt lat="47.08624" lon="4.66803">
        <ele>464.6</ele>
        <time>2017-05-28T08:49:55Z</time>
      </trkpt>
      <trkpt lat="47.0861" lon="4.66788">
        <ele>466.22</ele>
        <time>2017-05-28T08:50:13Z</time>
      </trkpt>
      <trkpt lat="47.08598" lon="4.66778">
        <ele>467.37</ele>
        <time>2017-05-28T08:50:29Z</time>
      </trkpt>
      <trkpt lat="47.08585" lon="4.66768">
        <ele>468.66</ele>
        <time>2017-05-28T08:50:48Z</time>
      </trkpt>
      <trkpt lat="47.08575" lon="4.66764">
        <ele>469.1</ele>
        <time>2017-05-28T08:51:02Z</time>
      </trkpt>
      <trkpt lat="47.08568" lon="4.66759">
        <ele>468.76</ele>
        <time>2017-05-28T08:51:16Z</time>
      </trkpt>
      <trkpt lat="47.08565" lon="4.66758">
        <ele>468.98</ele>
        <time>2017-05-28T08:51:32Z</time>
      </trkpt>
      <trkpt lat="47.08561" lon="4.66753">
        <ele>469.11</ele>
        <time>2017-05-28T08:51:48Z</time>
      </trkpt>
      <trkpt lat="47.08561" lon="4.66754">
        <ele>468.73</ele>
        <time>2017-05-28T08:52:09Z</time>
      </trkpt>
      <trkpt lat="47.08561" lon="4.66754">
        <ele>469.15</ele>
        <time>2017-05-28T08:52:40Z</time>
      </trkpt>
      <trkpt lat="47.08562" lon="4.66755">
        <ele>469.37</ele>
        <time>2017-05-28T08:53:17Z</time>
      </trkpt>
      <trkpt lat="47.08563" lon="4.66755">
        <ele>469.49</ele>
        <time>2017-05-28T08:53:57Z</time>
      </trkpt>
      <trkpt lat="47.08563" lon="4.66756">
        <ele>469.73</ele>
        <time>2017-05-28T08:54:35Z</time>
      </trkpt>
      <trkpt lat="47.08561" lon="4.66757">
        <ele>470.51</ele>
        <time>2017-05-28T08:54:48Z</time>
      </trkpt>
      <trkpt lat="47.08559" lon="4.66758">
        <ele>470.09</ele>
        <time>2017-05-28T08:54:50Z</time>
      </trkpt>
      <trkpt lat="47.08558" lon="4.66757">
        <ele>469.95</ele>
        <time>2017-05-28T08:54:51Z</time>
      </trkpt>
      <trkpt lat="47.08554" lon="4.66755">
        <ele>470.14</ele>
        <time>2017-05-28T08:54:55Z</time>
      </trkpt>
      <trkpt lat="47.08542" lon="4.66748">
        <ele>470.2</ele>
        <time>2017-05-28T08:55:07Z</time>
      </trkpt>
      <trkpt lat="47.08541" lon="4.66748">
        <ele>470.27</ele>
        <time>2017-05-28T08:55:08Z</time>
      </trkpt>
      <trkpt lat="47.08538" lon="4.66746">
        <ele>470.01</ele>
        <time>2017-05-28T08:55:11Z</time>
      </trkpt>
      <trkpt lat="47.08537" lon="4.66745">
        <ele>470.36</ele>
        <time>2017-05-28T08:55:12Z</time>
      </trkpt>
      <trkpt lat="47.08523" lon="4.66738">
        <ele>470.76</ele>
        <time>2017-05-28T08:55:26Z</time>
      </trkpt>
      <trkpt lat="47.08508" lon="4.66731">
        <ele>471.19</ele>
        <time>2017-05-28T08:55:41Z</time>
      </trkpt>
      <trkpt lat="47.08493" lon="4.66726">
        <ele>472.08</ele>
        <time>2017-05-28T08:55:56Z</time>
      </trkpt>
      <trkpt lat="47.08482" lon="4.66725">
        <ele>472.33</ele>
        <time>2017-05-28T08:56:05Z</time>
      </trkpt>
      <trkpt lat="47.08475" lon="4.66725">
        <ele>472.64</ele>
        <time>2017-05-28T08:56:11Z</time>
      </trkpt>
      <trkpt lat="47.08472" lon="4.66726">
        <ele>472.63</ele>
        <time>2017-05-28T08:56:14Z</time>
      </trkpt>
      <trkpt lat="47.0847" lon="4.66726">
        <ele>472.59</ele>
        <time>2017-05-28T08:56:15Z</time>
      </trkpt>
      <trkpt lat="47.08459" lon="4.66728">
        <ele>473.33</ele>
        <time>2017-05-28T08:56:26Z</time>
      </trkpt>
      <trkpt lat="47.08443" lon="4.66732">
        <ele>474.11</ele>
        <time>2017-05-28T08:56:40Z</time>
      </trkpt>
      <trkpt lat="47.08442" lon="4.66732">
        <ele>474.06</ele>
        <time>2017-05-28T08:56:41Z</time>
      </trkpt>
      <trkpt lat="47.0844" lon="4.66732">
        <ele>474.26</ele>
        <time>2017-05-28T08:56:42Z</time>
      </trkpt>
      <trkpt lat="47.0843" lon="4.6673">
        <ele>475.18</ele>
        <time>2017-05-28T08:56:55Z</time>
      </trkpt>
      <trkpt lat="47.08409" lon="4.66733">
        <ele>476.8</ele>
        <time>2017-05-28T08:57:13Z</time>
      </trkpt>
      <trkpt lat="47.08399" lon="4.6673">
        <ele>480.39</ele>
        <time>2017-05-28T08:57:20Z</time>
      </trkpt>
      <trkpt lat="47.08377" lon="4.66733">
        <ele>480</ele>
        <time>2017-05-28T08:57:36Z</time>
      </trkpt>
      <trkpt lat="47.08373" lon="4.66733">
        <ele>480.23</ele>
        <time>2017-05-28T08:57:39Z</time>
      </trkpt>
      <trkpt lat="47.08372" lon="4.66733">
        <ele>480.33</ele>
        <time>2017-05-28T08:57:40Z</time>
      </trkpt>
      <trkpt lat="47.08371" lon="4.66732">
        <ele>480.57</ele>
        <time>2017-05-28T08:57:41Z</time>
      </trkpt>
      <trkpt lat="47.0837" lon="4.66732">
        <ele>480.62</ele>
        <time>2017-05-28T08:57:42Z</time>
      </trkpt>
      <trkpt lat="47.08368" lon="4.66732">
        <ele>480.69</ele>
        <time>2017-05-28T08:57:43Z</time>
      </trkpt>
      <trkpt lat="47.08367" lon="4.66731">
        <ele>480.86</ele>
        <time>2017-05-28T08:57:44Z</time>
      </trkpt>
      <trkpt lat="47.08365" lon="4.66731">
        <ele>480.92</ele>
        <time>2017-05-28T08:57:45Z</time>
      </trkpt>
      <trkpt lat="47.08364" lon="4.66731">
        <ele>481.07</ele>
        <time>2017-05-28T08:57:46Z</time>
      </trkpt>
      <trkpt lat="47.08363" lon="4.66731">
        <ele>481.17</ele>
        <time>2017-05-28T08:57:47Z</time>
      </trkpt>
      <trkpt lat="47.08361" lon="4.66732">
        <ele>481.19</ele>
        <time>2017-05-28T08:57:48Z</time>
      </trkpt>
      <trkpt lat="47.08358" lon="4.66732">
        <ele>481.67</ele>
        <time>2017-05-28T08:57:51Z</time>
      </trkpt>
      <trkpt lat="47.08357" lon="4.66732">
        <ele>481.83</ele>
        <time>2017-05-28T08:57:52Z</time>
      </trkpt>
      <trkpt lat="47.08356" lon="4.66732">
        <ele>481.99</ele>
        <time>2017-05-28T08:57:53Z</time>
      </trkpt>
      <trkpt lat="47.08336" lon="4.66728">
        <ele>483.33</ele>
        <time>2017-05-28T08:58:10Z</time>
      </trkpt>
      <trkpt lat="47.08316" lon="4.66721">
        <ele>485.07</ele>
        <time>2017-05-28T08:58:28Z</time>
      </trkpt>
      <trkpt lat="47.08313" lon="4.6672">
        <ele>485.75</ele>
        <time>2017-05-28T08:58:31Z</time>
      </trkpt>
      <trkpt lat="47.08311" lon="4.66719">
        <ele>485.81</ele>
        <time>2017-05-28T08:58:32Z</time>
      </trkpt>
      <trkpt lat="47.08308" lon="4.66716">
        <ele>486.57</ele>
        <time>2017-05-28T08:58:36Z</time>
      </trkpt>
      <trkpt lat="47.08303" lon="4.66716">
        <ele>486.93</ele>
        <time>2017-05-28T08:58:40Z</time>
      </trkpt>
      <trkpt lat="47.08299" lon="4.66715">
        <ele>486.97</ele>
        <time>2017-05-28T08:58:44Z</time>
      </trkpt>
      <trkpt lat="47.08289" lon="4.66712">
        <ele>487.73</ele>
        <time>2017-05-28T08:58:53Z</time>
      </trkpt>
      <trkpt lat="47.08286" lon="4.66712">
        <ele>488.2</ele>
        <time>2017-05-28T08:58:56Z</time>
      </trkpt>
      <trkpt lat="47.08285" lon="4.66712">
        <ele>488.47</ele>
        <time>2017-05-28T08:58:57Z</time>
      </trkpt>
      <trkpt lat="47.08283" lon="4.66712">
        <ele>488.6</ele>
        <time>2017-05-28T08:58:58Z</time>
      </trkpt>
      <trkpt lat="47.08281" lon="4.66713">
        <ele>487.89</ele>
        <time>2017-05-28T08:59:00Z</time>
      </trkpt>
      <trkpt lat="47.08279" lon="4.66714">
        <ele>487.74</ele>
        <time>2017-05-28T08:59:01Z</time>
      </trkpt>
      <trkpt lat="47.08277" lon="4.66714">
        <ele>487.63</ele>
        <time>2017-05-28T08:59:02Z</time>
      </trkpt>
      <trkpt lat="47.0827" lon="4.66713">
        <ele>487.79</ele>
        <time>2017-05-28T08:59:07Z</time>
      </trkpt>
      <trkpt lat="47.08269" lon="4.66713">
        <ele>488</ele>
        <time>2017-05-28T08:59:08Z</time>
      </trkpt>
      <trkpt lat="47.08267" lon="4.66713">
        <ele>488.21</ele>
        <time>2017-05-28T08:59:09Z</time>
      </trkpt>
      <trkpt lat="47.08252" lon="4.66712">
        <ele>488.78</ele>
        <time>2017-05-28T08:59:19Z</time>
      </trkpt>
      <trkpt lat="47.08251" lon="4.66713">
        <ele>488.91</ele>
        <time>2017-05-28T08:59:20Z</time>
      </trkpt>
      <trkpt lat="47.0825" lon="4.66713">
        <ele>488.99</ele>
        <time>2017-05-28T08:59:21Z</time>
      </trkpt>
      <trkpt lat="47.08248" lon="4.66712">
        <ele>489.07</ele>
        <time>2017-05-28T08:59:22Z</time>
      </trkpt>
      <trkpt lat="47.08247" lon="4.66711">
        <ele>489.08</ele>
        <time>2017-05-28T08:59:23Z</time>
      </trkpt>
      <trkpt lat="47.08245" lon="4.66711">
        <ele>489.06</ele>
        <time>2017-05-28T08:59:24Z</time>
      </trkpt>
      <trkpt lat="47.08243" lon="4.66711">
        <ele>488.82</ele>
        <time>2017-05-28T08:59:25Z</time>
      </trkpt>
      <trkpt lat="47.08242" lon="4.6671">
        <ele>488.9</ele>
        <time>2017-05-28T08:59:26Z</time>
      </trkpt>
      <trkpt lat="47.08231" lon="4.66707">
        <ele>488.76</ele>
        <time>2017-05-28T08:59:35Z</time>
      </trkpt>
      <trkpt lat="47.08224" lon="4.66705">
        <ele>488.99</ele>
        <time>2017-05-28T08:59:41Z</time>
      </trkpt>
      <trkpt lat="47.08223" lon="4.66705">
        <ele>488.94</ele>
        <time>2017-05-28T08:59:42Z</time>
      </trkpt>
      <trkpt lat="47.08213" lon="4.66696">
        <ele>489.14</ele>
        <time>2017-05-28T08:59:52Z</time>
      </trkpt>
      <trkpt lat="47.08208" lon="4.66697">
        <ele>489.34</ele>
        <time>2017-05-28T09:00:08Z</time>
      </trkpt>
      <trkpt lat="47.08207" lon="4.66699">
        <ele>489.32</ele>
        <time>2017-05-28T09:00:09Z</time>
      </trkpt>
      <trkpt lat="47.08205" lon="4.66699">
        <ele>489.25</ele>
        <time>2017-05-28T09:00:10Z</time>
      </trkpt>
      <trkpt lat="47.08205" lon="4.667">
        <ele>489.31</ele>
        <time>2017-05-28T09:00:11Z</time>
      </trkpt>
      <trkpt lat="47.08204" lon="4.66701">
        <ele>489.29</ele>
        <time>2017-05-28T09:00:12Z</time>
      </trkpt>
      <trkpt lat="47.08203" lon="4.66702">
        <ele>489.31</ele>
        <time>2017-05-28T09:00:13Z</time>
      </trkpt>
      <trkpt lat="47.08202" lon="4.66702">
        <ele>489.17</ele>
        <time>2017-05-28T09:00:14Z</time>
      </trkpt>
      <trkpt lat="47.08201" lon="4.66702">
        <ele>489.14</ele>
        <time>2017-05-28T09:00:15Z</time>
      </trkpt>
      <trkpt lat="47.08197" lon="4.667">
        <ele>489.55</ele>
        <time>2017-05-28T09:00:19Z</time>
      </trkpt>
      <trkpt lat="47.08196" lon="4.66699">
        <ele>489.58</ele>
        <time>2017-05-28T09:00:20Z</time>
      </trkpt>
      <trkpt lat="47.08195" lon="4.66698">
        <ele>489.5</ele>
        <time>2017-05-28T09:00:21Z</time>
      </trkpt>
      <trkpt lat="47.08185" lon="4.66697">
        <ele>488.99</ele>
        <time>2017-05-28T09:00:31Z</time>
      </trkpt>
      <trkpt lat="47.08183" lon="4.66695">
        <ele>488.93</ele>
        <time>2017-05-28T09:00:34Z</time>
      </trkpt>
      <trkpt lat="47.08168" lon="4.66691">
        <ele>488.55</ele>
        <time>2017-05-28T09:00:46Z</time>
      </trkpt>
      <trkpt lat="47.08167" lon="4.66691">
        <ele>488.43</ele>
        <time>2017-05-28T09:00:47Z</time>
      </trkpt>
      <trkpt lat="47.08165" lon="4.66691">
        <ele>488.38</ele>
        <time>2017-05-28T09:00:48Z</time>
      </trkpt>
      <trkpt lat="47.08164" lon="4.66691">
        <ele>488.3</ele>
        <time>2017-05-28T09:00:49Z</time>
      </trkpt>
      <trkpt lat="47.08163" lon="4.66691">
        <ele>488.23</ele>
        <time>2017-05-28T09:00:50Z</time>
      </trkpt>
      <trkpt lat="47.08161" lon="4.66691">
        <ele>487.78</ele>
        <time>2017-05-28T09:00:51Z</time>
      </trkpt>
      <trkpt lat="47.0816" lon="4.66691">
        <ele>489.11</ele>
        <time>2017-05-28T09:00:52Z</time>
      </trkpt>
      <trkpt lat="47.08159" lon="4.66691">
        <ele>489.23</ele>
        <time>2017-05-28T09:00:53Z</time>
      </trkpt>
      <trkpt lat="47.08157" lon="4.66691">
        <ele>488.79</ele>
        <time>2017-05-28T09:00:54Z</time>
      </trkpt>
      <trkpt lat="47.08156" lon="4.6669">
        <ele>488.71</ele>
        <time>2017-05-28T09:00:55Z</time>
      </trkpt>
      <trkpt lat="47.08149" lon="4.6669">
        <ele>488.68</ele>
        <time>2017-05-28T09:01:03Z</time>
      </trkpt>
      <trkpt lat="47.08146" lon="4.6669">
        <ele>488.54</ele>
        <time>2017-05-28T09:01:05Z</time>
      </trkpt>
      <trkpt lat="47.08144" lon="4.6669">
        <ele>488.42</ele>
        <time>2017-05-28T09:01:06Z</time>
      </trkpt>
      <trkpt lat="47.08121" lon="4.66696">
        <ele>487.04</ele>
        <time>2017-05-28T09:01:25Z</time>
      </trkpt>
      <trkpt lat="47.08098" lon="4.66702">
        <ele>485.78</ele>
        <time>2017-05-28T09:01:43Z</time>
      </trkpt>
      <trkpt lat="47.08078" lon="4.66705">
        <ele>484.54</ele>
        <time>2017-05-28T09:01:59Z</time>
      </trkpt>
      <trkpt lat="47.08064" lon="4.66707">
        <ele>483.49</ele>
        <time>2017-05-28T09:02:10Z</time>
      </trkpt>
      <trkpt lat="47.08063" lon="4.66706">
        <ele>483.58</ele>
        <time>2017-05-28T09:02:11Z</time>
      </trkpt>
      <trkpt lat="47.08061" lon="4.66706">
        <ele>483.48</ele>
        <time>2017-05-28T09:02:12Z</time>
      </trkpt>
      <trkpt lat="47.08055" lon="4.66707">
        <ele>483.14</ele>
        <time>2017-05-28T09:02:17Z</time>
      </trkpt>
      <trkpt lat="47.08054" lon="4.66708">
        <ele>482.9</ele>
        <time>2017-05-28T09:02:18Z</time>
      </trkpt>
      <trkpt lat="47.08053" lon="4.66708">
        <ele>482.87</ele>
        <time>2017-05-28T09:02:19Z</time>
      </trkpt>
      <trkpt lat="47.0805" lon="4.66708">
        <ele>482.76</ele>
        <time>2017-05-28T09:02:22Z</time>
      </trkpt>
      <trkpt lat="47.08049" lon="4.66709">
        <ele>482.44</ele>
        <time>2017-05-28T09:02:23Z</time>
      </trkpt>
      <trkpt lat="47.08048" lon="4.6671">
        <ele>482.32</ele>
        <time>2017-05-28T09:02:24Z</time>
      </trkpt>
      <trkpt lat="47.08029" lon="4.66726">
        <ele>480.36</ele>
        <time>2017-05-28T09:02:41Z</time>
      </trkpt>
      <trkpt lat="47.08009" lon="4.66737">
        <ele>478.53</ele>
        <time>2017-05-28T09:02:57Z</time>
      </trkpt>
      <trkpt lat="47.08006" lon="4.6674">
        <ele>478.3</ele>
        <time>2017-05-28T09:02:59Z</time>
      </trkpt>
      <trkpt lat="47.08005" lon="4.6674">
        <ele>478.18</ele>
        <time>2017-05-28T09:03:00Z</time>
      </trkpt>
      <trkpt lat="47.08003" lon="4.66741">
        <ele>477.91</ele>
        <time>2017-05-28T09:03:02Z</time>
      </trkpt>
      <trkpt lat="47.08002" lon="4.66742">
        <ele>477.83</ele>
        <time>2017-05-28T09:03:03Z</time>
      </trkpt>
      <trkpt lat="47.08" lon="4.66742">
        <ele>477.77</ele>
        <time>2017-05-28T09:03:04Z</time>
      </trkpt>
      <trkpt lat="47.07999" lon="4.66742">
        <ele>477.76</ele>
        <time>2017-05-28T09:03:05Z</time>
      </trkpt>
      <trkpt lat="47.07997" lon="4.66742">
        <ele>477.63</ele>
        <time>2017-05-28T09:03:06Z</time>
      </trkpt>
      <trkpt lat="47.07978" lon="4.6674">
        <ele>477.05</ele>
        <time>2017-05-28T09:03:22Z</time>
      </trkpt>
      <trkpt lat="47.07956" lon="4.66729">
        <ele>476.77</ele>
        <time>2017-05-28T09:03:40Z</time>
      </trkpt>
      <trkpt lat="47.07939" lon="4.66723">
        <ele>476.71</ele>
        <time>2017-05-28T09:03:54Z</time>
      </trkpt>
      <trkpt lat="47.07919" lon="4.66716">
        <ele>476</ele>
        <time>2017-05-28T09:04:10Z</time>
      </trkpt>
      <trkpt lat="47.07899" lon="4.66708">
        <ele>476.52</ele>
        <time>2017-05-28T09:04:26Z</time>
      </trkpt>
      <trkpt lat="47.0789" lon="4.66704">
        <ele>476.53</ele>
        <time>2017-05-28T09:04:34Z</time>
      </trkpt>
      <trkpt lat="47.07889" lon="4.66703">
        <ele>476.47</ele>
        <time>2017-05-28T09:04:35Z</time>
      </trkpt>
      <trkpt lat="47.07887" lon="4.66703">
        <ele>476.44</ele>
        <time>2017-05-28T09:04:36Z</time>
      </trkpt>
      <trkpt lat="47.07886" lon="4.66702">
        <ele>476.51</ele>
        <time>2017-05-28T09:04:37Z</time>
      </trkpt>
      <trkpt lat="47.07885" lon="4.66702">
        <ele>476.54</ele>
        <time>2017-05-28T09:04:38Z</time>
      </trkpt>
      <trkpt lat="47.07865" lon="4.66695">
        <ele>476.86</ele>
        <time>2017-05-28T09:04:54Z</time>
      </trkpt>
      <trkpt lat="47.07849" lon="4.66694">
        <ele>476.1</ele>
        <time>2017-05-28T09:05:06Z</time>
      </trkpt>
      <trkpt lat="47.07832" lon="4.66692">
        <ele>475.84</ele>
        <time>2017-05-28T09:05:19Z</time>
      </trkpt>
      <trkpt lat="47.07829" lon="4.66692">
        <ele>475.75</ele>
        <time>2017-05-28T09:05:21Z</time>
      </trkpt>
      <trkpt lat="47.07828" lon="4.66691">
        <ele>475.86</ele>
        <time>2017-05-28T09:05:22Z</time>
      </trkpt>
      <trkpt lat="47.07826" lon="4.66691">
        <ele>475.78</ele>
        <time>2017-05-28T09:05:23Z</time>
      </trkpt>
      <trkpt lat="47.07823" lon="4.66691">
        <ele>475.58</ele>
        <time>2017-05-28T09:05:26Z</time>
      </trkpt>
      <trkpt lat="47.07821" lon="4.66691">
        <ele>475.37</ele>
        <time>2017-05-28T09:05:27Z</time>
      </trkpt>
      <trkpt lat="47.0782" lon="4.66691">
        <ele>475.73</ele>
        <time>2017-05-28T09:05:28Z</time>
      </trkpt>
      <trkpt lat="47.07818" lon="4.6669">
        <ele>475.73</ele>
        <time>2017-05-28T09:05:29Z</time>
      </trkpt>
      <trkpt lat="47.07817" lon="4.66689">
        <ele>475.78</ele>
        <time>2017-05-28T09:05:30Z</time>
      </trkpt>
      <trkpt lat="47.07815" lon="4.66689">
        <ele>475.78</ele>
        <time>2017-05-28T09:05:31Z</time>
      </trkpt>
      <trkpt lat="47.07814" lon="4.66689">
        <ele>475.78</ele>
        <time>2017-05-28T09:05:32Z</time>
      </trkpt>
      <trkpt lat="47.07812" lon="4.66689">
        <ele>475.65</ele>
        <time>2017-05-28T09:05:33Z</time>
      </trkpt>
      <trkpt lat="47.0781" lon="4.66688">
        <ele>475.95</ele>
        <time>2017-05-28T09:05:34Z</time>
      </trkpt>
      <trkpt lat="47.07809" lon="4.66688">
        <ele>475.74</ele>
        <time>2017-05-28T09:05:35Z</time>
      </trkpt>
      <trkpt lat="47.07807" lon="4.66687">
        <ele>475.85</ele>
        <time>2017-05-28T09:05:36Z</time>
      </trkpt>
      <trkpt lat="47.07801" lon="4.66685">
        <ele>475.69</ele>
        <time>2017-05-28T09:05:41Z</time>
      </trkpt>
      <trkpt lat="47.078" lon="4.66685">
        <ele>475.65</ele>
        <time>2017-05-28T09:05:42Z</time>
      </trkpt>
      <trkpt lat="47.07781" lon="4.66681">
        <ele>475.35</ele>
        <time>2017-05-28T09:05:57Z</time>
      </trkpt>
      <trkpt lat="47.07773" lon="4.6668">
        <ele>475.25</ele>
        <time>2017-05-28T09:06:03Z</time>
      </trkpt>
      <trkpt lat="47.07771" lon="4.6668">
        <ele>475.35</ele>
        <time>2017-05-28T09:06:04Z</time>
      </trkpt>
      <trkpt lat="47.0777" lon="4.66679">
        <ele>475.37</ele>
        <time>2017-05-28T09:06:05Z</time>
      </trkpt>
      <trkpt lat="47.0775" lon="4.66673">
        <ele>474.92</ele>
        <time>2017-05-28T09:06:18Z</time>
      </trkpt>
      <trkpt lat="47.07727" lon="4.66667">
        <ele>474.24</ele>
        <time>2017-05-28T09:06:34Z</time>
      </trkpt>
      <trkpt lat="47.07708" lon="4.66662">
        <ele>473.7</ele>
        <time>2017-05-28T09:06:48Z</time>
      </trkpt>
      <trkpt lat="47.07685" lon="4.66656">
        <ele>473.17</ele>
        <time>2017-05-28T09:07:05Z</time>
      </trkpt>
      <trkpt lat="47.07659" lon="4.6665">
        <ele>471.81</ele>
        <time>2017-05-28T09:07:23Z</time>
      </trkpt>
      <trkpt lat="47.07633" lon="4.66642">
        <ele>471.23</ele>
        <time>2017-05-28T09:07:42Z</time>
      </trkpt>
      <trkpt lat="47.0761" lon="4.66633">
        <ele>470.41</ele>
        <time>2017-05-28T09:08:00Z</time>
      </trkpt>
      <trkpt lat="47.07593" lon="4.66631">
        <ele>470.15</ele>
        <time>2017-05-28T09:08:16Z</time>
      </trkpt>
      <trkpt lat="47.07592" lon="4.66631">
        <ele>470.21</ele>
        <time>2017-05-28T09:08:34Z</time>
      </trkpt>
      <trkpt lat="47.07592" lon="4.66631">
        <ele>470.17</ele>
        <time>2017-05-28T09:08:53Z</time>
      </trkpt>
      <trkpt lat="47.07591" lon="4.66629">
        <ele>470.32</ele>
        <time>2017-05-28T09:09:15Z</time>
      </trkpt>
      <trkpt lat="47.07582" lon="4.66628">
        <ele>470.7</ele>
        <time>2017-05-28T09:09:30Z</time>
      </trkpt>
      <trkpt lat="47.07581" lon="4.66628">
        <ele>470.53</ele>
        <time>2017-05-28T09:09:31Z</time>
      </trkpt>
      <trkpt lat="47.0758" lon="4.66628">
        <ele>470.52</ele>
        <time>2017-05-28T09:09:32Z</time>
      </trkpt>
      <trkpt lat="47.07579" lon="4.66628">
        <ele>470.56</ele>
        <time>2017-05-28T09:09:33Z</time>
      </trkpt>
      <trkpt lat="47.07578" lon="4.66628">
        <ele>470.67</ele>
        <time>2017-05-28T09:09:34Z</time>
      </trkpt>
      <trkpt lat="47.07577" lon="4.66628">
        <ele>470.72</ele>
        <time>2017-05-28T09:09:35Z</time>
      </trkpt>
      <trkpt lat="47.0756" lon="4.66626">
        <ele>472.49</ele>
        <time>2017-05-28T09:09:49Z</time>
      </trkpt>
      <trkpt lat="47.07544" lon="4.66621">
        <ele>474.56</ele>
        <time>2017-05-28T09:10:03Z</time>
      </trkpt>
      <trkpt lat="47.07538" lon="4.66618">
        <ele>475.37</ele>
        <time>2017-05-28T09:10:09Z</time>
      </trkpt>
      <trkpt lat="47.07537" lon="4.66618">
        <ele>475.62</ele>
        <time>2017-05-28T09:10:10Z</time>
      </trkpt>
      <trkpt lat="47.07536" lon="4.66618">
        <ele>475.8</ele>
        <time>2017-05-28T09:10:11Z</time>
      </trkpt>
      <trkpt lat="47.07535" lon="4.66617">
        <ele>475.91</ele>
        <time>2017-05-28T09:10:12Z</time>
      </trkpt>
      <trkpt lat="47.07532" lon="4.66617">
        <ele>476.11</ele>
        <time>2017-05-28T09:10:14Z</time>
      </trkpt>
      <trkpt lat="47.07531" lon="4.66617">
        <ele>476.28</ele>
        <time>2017-05-28T09:10:15Z</time>
      </trkpt>
      <trkpt lat="47.0753" lon="4.66616">
        <ele>476.34</ele>
        <time>2017-05-28T09:10:16Z</time>
      </trkpt>
      <trkpt lat="47.07526" lon="4.66615">
        <ele>476.87</ele>
        <time>2017-05-28T09:10:20Z</time>
      </trkpt>
      <trkpt lat="47.07519" lon="4.66613">
        <ele>477.89</ele>
        <time>2017-05-28T09:10:27Z</time>
      </trkpt>
      <trkpt lat="47.07516" lon="4.66613">
        <ele>478.08</ele>
        <time>2017-05-28T09:10:30Z</time>
      </trkpt>
      <trkpt lat="47.07514" lon="4.66612">
        <ele>478.44</ele>
        <time>2017-05-28T09:10:32Z</time>
      </trkpt>
      <trkpt lat="47.07513" lon="4.66611">
        <ele>478.52</ele>
        <time>2017-05-28T09:10:33Z</time>
      </trkpt>
      <trkpt lat="47.07512" lon="4.6661">
        <ele>478.63</ele>
        <time>2017-05-28T09:10:34Z</time>
      </trkpt>
      <trkpt lat="47.07511" lon="4.66609">
        <ele>478.65</ele>
        <time>2017-05-28T09:10:35Z</time>
      </trkpt>
      <trkpt lat="47.07508" lon="4.66608">
        <ele>479</ele>
        <time>2017-05-28T09:10:37Z</time>
      </trkpt>
      <trkpt lat="47.07507" lon="4.66608">
        <ele>479.13</ele>
        <time>2017-05-28T09:10:38Z</time>
      </trkpt>
      <trkpt lat="47.07494" lon="4.66605">
        <ele>480.91</ele>
        <time>2017-05-28T09:10:51Z</time>
      </trkpt>
      <trkpt lat="47.07478" lon="4.666">
        <ele>482.22</ele>
        <time>2017-05-28T09:11:06Z</time>
      </trkpt>
      <trkpt lat="47.07469" lon="4.66597">
        <ele>483.58</ele>
        <time>2017-05-28T09:11:15Z</time>
      </trkpt>
      <trkpt lat="47.07455" lon="4.66592">
        <ele>485.26</ele>
        <time>2017-05-28T09:11:31Z</time>
      </trkpt>
      <trkpt lat="47.07451" lon="4.66592">
        <ele>485.7</ele>
        <time>2017-05-28T09:11:34Z</time>
      </trkpt>
      <trkpt lat="47.07436" lon="4.66596">
        <ele>486.99</ele>
        <time>2017-05-28T09:11:47Z</time>
      </trkpt>
      <trkpt lat="47.07428" lon="4.66605">
        <ele>488.17</ele>
        <time>2017-05-28T09:11:56Z</time>
      </trkpt>
      <trkpt lat="47.07427" lon="4.66606">
        <ele>488.26</ele>
        <time>2017-05-28T09:11:57Z</time>
      </trkpt>
      <trkpt lat="47.07426" lon="4.66607">
        <ele>488.24</ele>
        <time>2017-05-28T09:11:58Z</time>
      </trkpt>
      <trkpt lat="47.07425" lon="4.66608">
        <ele>488.38</ele>
        <time>2017-05-28T09:11:59Z</time>
      </trkpt>
      <trkpt lat="47.07424" lon="4.6661">
        <ele>488.28</ele>
        <time>2017-05-28T09:12:00Z</time>
      </trkpt>
      <trkpt lat="47.07423" lon="4.66611">
        <ele>488.56</ele>
        <time>2017-05-28T09:12:01Z</time>
      </trkpt>
      <trkpt lat="47.07423" lon="4.66612">
        <ele>488.46</ele>
        <time>2017-05-28T09:12:02Z</time>
      </trkpt>
      <trkpt lat="47.07411" lon="4.66626">
        <ele>488.41</ele>
        <time>2017-05-28T09:12:15Z</time>
      </trkpt>
      <trkpt lat="47.07395" lon="4.66636">
        <ele>488.65</ele>
        <time>2017-05-28T09:12:29Z</time>
      </trkpt>
      <trkpt lat="47.07394" lon="4.66636">
        <ele>488.66</ele>
        <time>2017-05-28T09:12:30Z</time>
      </trkpt>
      <trkpt lat="47.07388" lon="4.66639">
        <ele>488.68</ele>
        <time>2017-05-28T09:12:34Z</time>
      </trkpt>
      <trkpt lat="47.07385" lon="4.6664">
        <ele>488.48</ele>
        <time>2017-05-28T09:12:36Z</time>
      </trkpt>
      <trkpt lat="47.07384" lon="4.6664">
        <ele>488.91</ele>
        <time>2017-05-28T09:12:37Z</time>
      </trkpt>
      <trkpt lat="47.07383" lon="4.66641">
        <ele>489.36</ele>
        <time>2017-05-28T09:12:38Z</time>
      </trkpt>
      <trkpt lat="47.07381" lon="4.66641">
        <ele>489</ele>
        <time>2017-05-28T09:12:39Z</time>
      </trkpt>
      <trkpt lat="47.07381" lon="4.66642">
        <ele>488.96</ele>
        <time>2017-05-28T09:12:40Z</time>
      </trkpt>
      <trkpt lat="47.07362" lon="4.66645">
        <ele>489.08</ele>
        <time>2017-05-28T09:12:56Z</time>
      </trkpt>
      <trkpt lat="47.07337" lon="4.66646">
        <ele>489.11</ele>
        <time>2017-05-28T09:13:15Z</time>
      </trkpt>
      <trkpt lat="47.07314" lon="4.66645">
        <ele>488.4</ele>
        <time>2017-05-28T09:13:34Z</time>
      </trkpt>
      <trkpt lat="47.07293" lon="4.66643">
        <ele>487.87</ele>
        <time>2017-05-28T09:13:50Z</time>
      </trkpt>
      <trkpt lat="47.0727" lon="4.6664">
        <ele>486.99</ele>
        <time>2017-05-28T09:14:09Z</time>
      </trkpt>
      <trkpt lat="47.07248" lon="4.66639">
        <ele>487.16</ele>
        <time>2017-05-28T09:14:26Z</time>
      </trkpt>
      <trkpt lat="47.07236" lon="4.66634">
        <ele>487.47</ele>
        <time>2017-05-28T09:14:36Z</time>
      </trkpt>
      <trkpt lat="47.07235" lon="4.66633">
        <ele>487.46</ele>
        <time>2017-05-28T09:14:37Z</time>
      </trkpt>
      <trkpt lat="47.07233" lon="4.66633">
        <ele>487.5</ele>
        <time>2017-05-28T09:14:38Z</time>
      </trkpt>
      <trkpt lat="47.07213" lon="4.66622">
        <ele>487.64</ele>
        <time>2017-05-28T09:14:54Z</time>
      </trkpt>
      <trkpt lat="47.07193" lon="4.66609">
        <ele>488.14</ele>
        <time>2017-05-28T09:15:10Z</time>
      </trkpt>
      <trkpt lat="47.07177" lon="4.66596">
        <ele>488.72</ele>
        <time>2017-05-28T09:15:25Z</time>
      </trkpt>
      <trkpt lat="47.07159" lon="4.66583">
        <ele>489.24</ele>
        <time>2017-05-28T09:15:41Z</time>
      </trkpt>
      <trkpt lat="47.07148" lon="4.66578">
        <ele>489.92</ele>
        <time>2017-05-28T09:15:50Z</time>
      </trkpt>
      <trkpt lat="47.07147" lon="4.66577">
        <ele>489.99</ele>
        <time>2017-05-28T09:15:51Z</time>
      </trkpt>
      <trkpt lat="47.07145" lon="4.66577">
        <ele>489.94</ele>
        <time>2017-05-28T09:15:52Z</time>
      </trkpt>
      <trkpt lat="47.07144" lon="4.66577">
        <ele>489.86</ele>
        <time>2017-05-28T09:15:53Z</time>
      </trkpt>
      <trkpt lat="47.07143" lon="4.66577">
        <ele>489.9</ele>
        <time>2017-05-28T09:15:54Z</time>
      </trkpt>
      <trkpt lat="47.07142" lon="4.66578">
        <ele>490.01</ele>
        <time>2017-05-28T09:16:02Z</time>
      </trkpt>
      <trkpt lat="47.07152" lon="4.66591">
        <ele>489.43</ele>
        <time>2017-05-28T09:16:12Z</time>
      </trkpt>
      <trkpt lat="47.07162" lon="4.66609">
        <ele>487.76</ele>
        <time>2017-05-28T09:16:25Z</time>
      </trkpt>
      <trkpt lat="47.07171" lon="4.66623">
        <ele>486.71</ele>
        <time>2017-05-28T09:16:35Z</time>
      </trkpt>
      <trkpt lat="47.07176" lon="4.66636">
        <ele>486.12</ele>
        <time>2017-05-28T09:16:43Z</time>
      </trkpt>
      <trkpt lat="47.07177" lon="4.66638">
        <ele>486.08</ele>
        <time>2017-05-28T09:16:44Z</time>
      </trkpt>
      <trkpt lat="47.07177" lon="4.6664">
        <ele>486.09</ele>
        <time>2017-05-28T09:16:45Z</time>
      </trkpt>
      <trkpt lat="47.07182" lon="4.66662">
        <ele>484.93</ele>
        <time>2017-05-28T09:16:58Z</time>
      </trkpt>
      <trkpt lat="47.07184" lon="4.66684">
        <ele>483.43</ele>
        <time>2017-05-28T09:17:10Z</time>
      </trkpt>
      <trkpt lat="47.07184" lon="4.66686">
        <ele>483.61</ele>
        <time>2017-05-28T09:17:11Z</time>
      </trkpt>
      <trkpt lat="47.07192" lon="4.66705">
        <ele>482.82</ele>
        <time>2017-05-28T09:17:23Z</time>
      </trkpt>
      <trkpt lat="47.07201" lon="4.6673">
        <ele>480.51</ele>
        <time>2017-05-28T09:17:40Z</time>
      </trkpt>
      <trkpt lat="47.07207" lon="4.66757">
        <ele>479.21</ele>
        <time>2017-05-28T09:17:56Z</time>
      </trkpt>
      <trkpt lat="47.07201" lon="4.6678">
        <ele>477.6</ele>
        <time>2017-05-28T09:18:11Z</time>
      </trkpt>
      <trkpt lat="47.07196" lon="4.668">
        <ele>476.87</ele>
        <time>2017-05-28T09:18:24Z</time>
      </trkpt>
      <trkpt lat="47.07192" lon="4.66812">
        <ele>476.48</ele>
        <time>2017-05-28T09:18:31Z</time>
      </trkpt>
      <trkpt lat="47.07183" lon="4.66834">
        <ele>475.54</ele>
        <time>2017-05-28T09:18:43Z</time>
      </trkpt>
      <trkpt lat="47.07172" lon="4.6686">
        <ele>474.7</ele>
        <time>2017-05-28T09:18:58Z</time>
      </trkpt>
      <trkpt lat="47.07169" lon="4.66871">
        <ele>474.16</ele>
        <time>2017-05-28T09:19:05Z</time>
      </trkpt>
      <trkpt lat="47.07162" lon="4.66884">
        <ele>473.64</ele>
        <time>2017-05-28T09:19:14Z</time>
      </trkpt>
      <trkpt lat="47.07154" lon="4.66908">
        <ele>472.1</ele>
        <time>2017-05-28T09:19:29Z</time>
      </trkpt>
      <trkpt lat="47.07147" lon="4.66935">
        <ele>470.49</ele>
        <time>2017-05-28T09:19:43Z</time>
      </trkpt>
      <trkpt lat="47.07139" lon="4.66957">
        <ele>468.55</ele>
        <time>2017-05-28T09:19:57Z</time>
      </trkpt>
      <trkpt lat="47.07128" lon="4.66971">
        <ele>467.13</ele>
        <time>2017-05-28T09:20:10Z</time>
      </trkpt>
      <trkpt lat="47.07116" lon="4.66995">
        <ele>466.53</ele>
        <time>2017-05-28T09:20:24Z</time>
      </trkpt>
      <trkpt lat="47.07115" lon="4.66997">
        <ele>466.5</ele>
        <time>2017-05-28T09:20:26Z</time>
      </trkpt>
      <trkpt lat="47.07114" lon="4.67007">
        <ele>466.3</ele>
        <time>2017-05-28T09:20:31Z</time>
      </trkpt>
      <trkpt lat="47.07115" lon="4.67018">
        <ele>462.93</ele>
        <time>2017-05-28T09:20:37Z</time>
      </trkpt>
      <trkpt lat="47.07114" lon="4.67023">
        <ele>468.83</ele>
        <time>2017-05-28T09:20:38Z</time>
      </trkpt>
      <trkpt lat="47.07115" lon="4.6704">
        <ele>465.97</ele>
        <time>2017-05-28T09:20:48Z</time>
      </trkpt>
      <trkpt lat="47.07117" lon="4.67068">
        <ele>465.73</ele>
        <time>2017-05-28T09:21:02Z</time>
      </trkpt>
      <trkpt lat="47.07118" lon="4.67084">
        <ele>465.48</ele>
        <time>2017-05-28T09:21:11Z</time>
      </trkpt>
      <trkpt lat="47.07117" lon="4.67095">
        <ele>466.1</ele>
        <time>2017-05-28T09:21:18Z</time>
      </trkpt>
      <trkpt lat="47.07118" lon="4.6711">
        <ele>466.9</ele>
        <time>2017-05-28T09:21:27Z</time>
      </trkpt>
      <trkpt lat="47.07119" lon="4.67115">
        <ele>467.14</ele>
        <time>2017-05-28T09:21:30Z</time>
      </trkpt>
      <trkpt lat="47.0711" lon="4.67139">
        <ele>467.75</ele>
        <time>2017-05-28T09:21:47Z</time>
      </trkpt>
      <trkpt lat="47.07104" lon="4.67163">
        <ele>469.05</ele>
        <time>2017-05-28T09:22:01Z</time>
      </trkpt>
      <trkpt lat="47.07102" lon="4.67186">
        <ele>470.68</ele>
        <time>2017-05-28T09:22:15Z</time>
      </trkpt>
      <trkpt lat="47.07097" lon="4.67207">
        <ele>471.44</ele>
        <time>2017-05-28T09:22:30Z</time>
      </trkpt>
      <trkpt lat="47.07094" lon="4.67221">
        <ele>471.68</ele>
        <time>2017-05-28T09:22:46Z</time>
      </trkpt>
      <trkpt lat="47.07094" lon="4.6725">
        <ele>472.35</ele>
        <time>2017-05-28T09:23:04Z</time>
      </trkpt>
      <trkpt lat="47.07095" lon="4.67285">
        <ele>473.19</ele>
        <time>2017-05-28T09:23:26Z</time>
      </trkpt>
      <trkpt lat="47.07094" lon="4.67296">
        <ele>473.27</ele>
        <time>2017-05-28T09:23:33Z</time>
      </trkpt>
      <trkpt lat="47.07097" lon="4.67316">
        <ele>472.99</ele>
        <time>2017-05-28T09:23:44Z</time>
      </trkpt>
      <trkpt lat="47.07098" lon="4.67319">
        <ele>473.02</ele>
        <time>2017-05-28T09:23:46Z</time>
      </trkpt>
      <trkpt lat="47.07102" lon="4.6734">
        <ele>471.89</ele>
        <time>2017-05-28T09:23:57Z</time>
      </trkpt>
      <trkpt lat="47.07099" lon="4.67356">
        <ele>470.57</ele>
        <time>2017-05-28T09:24:10Z</time>
      </trkpt>
      <trkpt lat="47.07096" lon="4.6736">
        <ele>470.47</ele>
        <time>2017-05-28T09:24:13Z</time>
      </trkpt>
      <trkpt lat="47.07084" lon="4.67379">
        <ele>470.06</ele>
        <time>2017-05-28T09:24:28Z</time>
      </trkpt>
      <trkpt lat="47.07078" lon="4.67384">
        <ele>469.82</ele>
        <time>2017-05-28T09:24:39Z</time>
      </trkpt>
      <trkpt lat="47.07077" lon="4.67391">
        <ele>469.76</ele>
        <time>2017-05-28T09:24:56Z</time>
      </trkpt>
      <trkpt lat="47.07075" lon="4.67395">
        <ele>469.11</ele>
        <time>2017-05-28T09:25:10Z</time>
      </trkpt>
      <trkpt lat="47.07073" lon="4.67397">
        <ele>467.63</ele>
        <time>2017-05-28T09:25:31Z</time>
      </trkpt>
      <trkpt lat="47.07068" lon="4.67402">
        <ele>467.87</ele>
        <time>2017-05-28T09:26:03Z</time>
      </trkpt>
      <trkpt lat="47.07067" lon="4.67405">
        <ele>467.79</ele>
        <time>2017-05-28T09:26:28Z</time>
      </trkpt>
      <trkpt lat="47.07064" lon="4.67409">
        <ele>467.92</ele>
        <time>2017-05-28T09:26:53Z</time>
      </trkpt>
      <trkpt lat="47.07065" lon="4.67412">
        <ele>467.82</ele>
        <time>2017-05-28T09:27:19Z</time>
      </trkpt>
      <trkpt lat="47.07058" lon="4.67418">
        <ele>469.18</ele>
        <time>2017-05-28T09:27:40Z</time>
      </trkpt>
      <trkpt lat="47.07056" lon="4.67419">
        <ele>469.72</ele>
        <time>2017-05-28T09:27:43Z</time>
      </trkpt>
      <trkpt lat="47.07053" lon="4.67422">
        <ele>468.32</ele>
        <time>2017-05-28T09:27:47Z</time>
      </trkpt>
      <trkpt lat="47.07045" lon="4.67434">
        <ele>468.27</ele>
        <time>2017-05-28T09:28:01Z</time>
      </trkpt>
      <trkpt lat="47.07037" lon="4.6745">
        <ele>469.76</ele>
        <time>2017-05-28T09:28:22Z</time>
      </trkpt>
      <trkpt lat="47.07035" lon="4.67452">
        <ele>468.31</ele>
        <time>2017-05-28T09:28:24Z</time>
      </trkpt>
      <trkpt lat="47.07022" lon="4.6747">
        <ele>467.62</ele>
        <time>2017-05-28T09:28:37Z</time>
      </trkpt>
      <trkpt lat="47.07021" lon="4.67473">
        <ele>467.46</ele>
        <time>2017-05-28T09:28:39Z</time>
      </trkpt>
      <trkpt lat="47.07003" lon="4.67501">
        <ele>465.51</ele>
        <time>2017-05-28T09:28:55Z</time>
      </trkpt>
      <trkpt lat="47.06989" lon="4.67522">
        <ele>464.19</ele>
        <time>2017-05-28T09:29:09Z</time>
      </trkpt>
      <trkpt lat="47.06975" lon="4.67545">
        <ele>462.87</ele>
        <time>2017-05-28T09:29:24Z</time>
      </trkpt>
      <trkpt lat="47.06961" lon="4.67566">
        <ele>460.87</ele>
        <time>2017-05-28T09:29:38Z</time>
      </trkpt>
      <trkpt lat="47.06947" lon="4.67586">
        <ele>458.89</ele>
        <time>2017-05-28T09:29:53Z</time>
      </trkpt>
      <trkpt lat="47.06941" lon="4.67597">
        <ele>457.31</ele>
        <time>2017-05-28T09:30:02Z</time>
      </trkpt>
      <trkpt lat="47.06936" lon="4.67604">
        <ele>456.53</ele>
        <time>2017-05-28T09:30:07Z</time>
      </trkpt>
      <trkpt lat="47.0693" lon="4.67611">
        <ele>455.15</ele>
        <time>2017-05-28T09:30:13Z</time>
      </trkpt>
      <trkpt lat="47.06923" lon="4.6762">
        <ele>453.44</ele>
        <time>2017-05-28T09:30:21Z</time>
      </trkpt>
      <trkpt lat="47.06914" lon="4.67631">
        <ele>451.67</ele>
        <time>2017-05-28T09:30:34Z</time>
      </trkpt>
      <trkpt lat="47.069" lon="4.6765">
        <ele>449.95</ele>
        <time>2017-05-28T09:30:51Z</time>
      </trkpt>
      <trkpt lat="47.06895" lon="4.67657">
        <ele>450.12</ele>
        <time>2017-05-28T09:30:57Z</time>
      </trkpt>
      <trkpt lat="47.06883" lon="4.67671">
        <ele>450.02</ele>
        <time>2017-05-28T09:31:10Z</time>
      </trkpt>
      <trkpt lat="47.0687" lon="4.67688">
        <ele>449.97</ele>
        <time>2017-05-28T09:31:25Z</time>
      </trkpt>
      <trkpt lat="47.06868" lon="4.67694">
        <ele>450.04</ele>
        <time>2017-05-28T09:31:29Z</time>
      </trkpt>
      <trkpt lat="47.06867" lon="4.67695">
        <ele>450.03</ele>
        <time>2017-05-28T09:31:31Z</time>
      </trkpt>
      <trkpt lat="47.06859" lon="4.67705">
        <ele>449.84</ele>
        <time>2017-05-28T09:31:44Z</time>
      </trkpt>
      <trkpt lat="47.06842" lon="4.6773">
        <ele>449.64</ele>
        <time>2017-05-28T09:32:04Z</time>
      </trkpt>
      <trkpt lat="47.06838" lon="4.67736">
        <ele>449.62</ele>
        <time>2017-05-28T09:32:09Z</time>
      </trkpt>
      <trkpt lat="47.06836" lon="4.67747">
        <ele>451.84</ele>
        <time>2017-05-28T09:32:24Z</time>
      </trkpt>
      <trkpt lat="47.06839" lon="4.67752">
        <ele>449.5</ele>
        <time>2017-05-28T09:32:27Z</time>
      </trkpt>
      <trkpt lat="47.06853" lon="4.67779">
        <ele>448.91</ele>
        <time>2017-05-28T09:32:44Z</time>
      </trkpt>
      <trkpt lat="47.06864" lon="4.67795">
        <ele>448.44</ele>
        <time>2017-05-28T09:32:57Z</time>
      </trkpt>
      <trkpt lat="47.06866" lon="4.67798">
        <ele>448.41</ele>
        <time>2017-05-28T09:33:00Z</time>
      </trkpt>
      <trkpt lat="47.06878" lon="4.67815">
        <ele>447.98</ele>
        <time>2017-05-28T09:33:14Z</time>
      </trkpt>
      <trkpt lat="47.06888" lon="4.67828">
        <ele>447.76</ele>
        <time>2017-05-28T09:33:24Z</time>
      </trkpt>
      <trkpt lat="47.06895" lon="4.67839">
        <ele>447.58</ele>
        <time>2017-05-28T09:33:31Z</time>
      </trkpt>
      <trkpt lat="47.06911" lon="4.67859">
        <ele>447.15</ele>
        <time>2017-05-28T09:33:46Z</time>
      </trkpt>
      <trkpt lat="47.06917" lon="4.6787">
        <ele>446.79</ele>
        <time>2017-05-28T09:33:53Z</time>
      </trkpt>
      <trkpt lat="47.06919" lon="4.67879">
        <ele>446.76</ele>
        <time>2017-05-28T09:33:57Z</time>
      </trkpt>
      <trkpt lat="47.06923" lon="4.67884">
        <ele>446.87</ele>
        <time>2017-05-28T09:34:02Z</time>
      </trkpt>
      <trkpt lat="47.06939" lon="4.67904">
        <ele>446.32</ele>
        <time>2017-05-28T09:34:18Z</time>
      </trkpt>
      <trkpt lat="47.06952" lon="4.67923">
        <ele>445.34</ele>
        <time>2017-05-28T09:34:32Z</time>
      </trkpt>
      <trkpt lat="47.06963" lon="4.6794">
        <ele>444.51</ele>
        <time>2017-05-28T09:34:45Z</time>
      </trkpt>
      <trkpt lat="47.06973" lon="4.67951">
        <ele>443.68</ele>
        <time>2017-05-28T09:34:54Z</time>
      </trkpt>
      <trkpt lat="47.06975" lon="4.67954">
        <ele>443.73</ele>
        <time>2017-05-28T09:34:56Z</time>
      </trkpt>
      <trkpt lat="47.06979" lon="4.67959">
        <ele>443.45</ele>
        <time>2017-05-28T09:35:00Z</time>
      </trkpt>
      <trkpt lat="47.06991" lon="4.6798">
        <ele>442.19</ele>
        <time>2017-05-28T09:35:15Z</time>
      </trkpt>
      <trkpt lat="47.06992" lon="4.67981">
        <ele>442.03</ele>
        <time>2017-05-28T09:35:16Z</time>
      </trkpt>
      <trkpt lat="47.06994" lon="4.67985">
        <ele>441.75</ele>
        <time>2017-05-28T09:35:19Z</time>
      </trkpt>
      <trkpt lat="47.06997" lon="4.6799">
        <ele>441.19</ele>
        <time>2017-05-28T09:35:23Z</time>
      </trkpt>
      <trkpt lat="47.07012" lon="4.6801">
        <ele>439.49</ele>
        <time>2017-05-28T09:35:37Z</time>
      </trkpt>
      <trkpt lat="47.07017" lon="4.68015">
        <ele>438.26</ele>
        <time>2017-05-28T09:35:43Z</time>
      </trkpt>
      <trkpt lat="47.07026" lon="4.68023">
        <ele>436.43</ele>
        <time>2017-05-28T09:35:51Z</time>
      </trkpt>
      <trkpt lat="47.07031" lon="4.68031">
        <ele>435.35</ele>
        <time>2017-05-28T09:35:56Z</time>
      </trkpt>
      <trkpt lat="47.07043" lon="4.68055">
        <ele>433.3</ele>
        <time>2017-05-28T09:36:11Z</time>
      </trkpt>
      <trkpt lat="47.07053" lon="4.68076">
        <ele>433.33</ele>
        <time>2017-05-28T09:36:24Z</time>
      </trkpt>
      <trkpt lat="47.07058" lon="4.68083">
        <ele>433.27</ele>
        <time>2017-05-28T09:36:29Z</time>
      </trkpt>
      <trkpt lat="47.0706" lon="4.68086">
        <ele>433.24</ele>
        <time>2017-05-28T09:36:32Z</time>
      </trkpt>
      <trkpt lat="47.07075" lon="4.68104">
        <ele>433.17</ele>
        <time>2017-05-28T09:36:46Z</time>
      </trkpt>
      <trkpt lat="47.07085" lon="4.68122">
        <ele>432.39</ele>
        <time>2017-05-28T09:36:58Z</time>
      </trkpt>
      <trkpt lat="47.07087" lon="4.68128">
        <ele>432.09</ele>
        <time>2017-05-28T09:37:01Z</time>
      </trkpt>
      <trkpt lat="47.07095" lon="4.68139">
        <ele>431.63</ele>
        <time>2017-05-28T09:37:10Z</time>
      </trkpt>
      <trkpt lat="47.07111" lon="4.68159">
        <ele>430.23</ele>
        <time>2017-05-28T09:37:28Z</time>
      </trkpt>
      <trkpt lat="47.07127" lon="4.68173">
        <ele>427.22</ele>
        <time>2017-05-28T09:37:44Z</time>
      </trkpt>
      <trkpt lat="47.07136" lon="4.68183">
        <ele>424.1</ele>
        <time>2017-05-28T09:37:59Z</time>
      </trkpt>
      <trkpt lat="47.07141" lon="4.68194">
        <ele>421.08</ele>
        <time>2017-05-28T09:38:10Z</time>
      </trkpt>
      <trkpt lat="47.07149" lon="4.682">
        <ele>417.85</ele>
        <time>2017-05-28T09:38:25Z</time>
      </trkpt>
      <trkpt lat="47.07154" lon="4.68211">
        <ele>414.7</ele>
        <time>2017-05-28T09:38:40Z</time>
      </trkpt>
      <trkpt lat="47.07157" lon="4.68224">
        <ele>409.96</ele>
        <time>2017-05-28T09:38:53Z</time>
      </trkpt>
      <trkpt lat="47.07157" lon="4.68225">
        <ele>409.96</ele>
        <time>2017-05-28T09:38:54Z</time>
      </trkpt>
      <trkpt lat="47.07157" lon="4.68227">
        <ele>413.76</ele>
        <time>2017-05-28T09:38:55Z</time>
      </trkpt>
      <trkpt lat="47.07157" lon="4.68228">
        <ele>411.69</ele>
        <time>2017-05-28T09:38:56Z</time>
      </trkpt>
      <trkpt lat="47.07155" lon="4.68244">
        <ele>408.51</ele>
        <time>2017-05-28T09:39:08Z</time>
      </trkpt>
      <trkpt lat="47.07153" lon="4.68262">
        <ele>405.44</ele>
        <time>2017-05-28T09:39:19Z</time>
      </trkpt>
      <trkpt lat="47.07155" lon="4.68281">
        <ele>402.34</ele>
        <time>2017-05-28T09:39:34Z</time>
      </trkpt>
      <trkpt lat="47.0716" lon="4.68295">
        <ele>399.05</ele>
        <time>2017-05-28T09:39:47Z</time>
      </trkpt>
      <trkpt lat="47.07166" lon="4.68308">
        <ele>395.89</ele>
        <time>2017-05-28T09:40:01Z</time>
      </trkpt>
      <trkpt lat="47.0717" lon="4.68316">
        <ele>392.87</ele>
        <time>2017-05-28T09:40:14Z</time>
      </trkpt>
      <trkpt lat="47.07175" lon="4.68322">
        <ele>390.68</ele>
        <time>2017-05-28T09:40:28Z</time>
      </trkpt>
      <trkpt lat="47.07181" lon="4.68334">
        <ele>387.43</ele>
        <time>2017-05-28T09:40:42Z</time>
      </trkpt>
      <trkpt lat="47.07188" lon="4.68348">
        <ele>384.23</ele>
        <time>2017-05-28T09:40:55Z</time>
      </trkpt>
      <trkpt lat="47.07193" lon="4.68355">
        <ele>379.85</ele>
        <time>2017-05-28T09:41:05Z</time>
      </trkpt>
      <trkpt lat="47.07195" lon="4.68353">
        <ele>386.57</ele>
        <time>2017-05-28T09:41:06Z</time>
      </trkpt>
      <trkpt lat="47.07197" lon="4.68353">
        <ele>383.37</ele>
        <time>2017-05-28T09:41:08Z</time>
      </trkpt>
      <trkpt lat="47.07204" lon="4.68344">
        <ele>383.6</ele>
        <time>2017-05-28T09:41:24Z</time>
      </trkpt>
      <trkpt lat="47.07209" lon="4.68334">
        <ele>383.58</ele>
        <time>2017-05-28T09:41:33Z</time>
      </trkpt>
      <trkpt lat="47.07221" lon="4.68317">
        <ele>383.7</ele>
        <time>2017-05-28T09:41:48Z</time>
      </trkpt>
      <trkpt lat="47.0723" lon="4.68308">
        <ele>383.8</ele>
        <time>2017-05-28T09:41:56Z</time>
      </trkpt>
      <trkpt lat="47.07244" lon="4.68288">
        <ele>383.55</ele>
        <time>2017-05-28T09:42:12Z</time>
      </trkpt>
      <trkpt lat="47.07255" lon="4.6827">
        <ele>383.1</ele>
        <time>2017-05-28T09:42:25Z</time>
      </trkpt>
      <trkpt lat="47.07259" lon="4.68258">
        <ele>383</ele>
        <time>2017-05-28T09:42:34Z</time>
      </trkpt>
      <trkpt lat="47.07265" lon="4.68235">
        <ele>383.11</ele>
        <time>2017-05-28T09:42:50Z</time>
      </trkpt>
      <trkpt lat="47.07267" lon="4.6823">
        <ele>383.06</ele>
        <time>2017-05-28T09:43:07Z</time>
      </trkpt>
      <trkpt lat="47.07264" lon="4.68232">
        <ele>383.52</ele>
        <time>2017-05-28T09:43:27Z</time>
      </trkpt>
      <trkpt lat="47.07262" lon="4.68234">
        <ele>382.04</ele>
        <time>2017-05-28T09:43:46Z</time>
      </trkpt>
      <trkpt lat="47.07264" lon="4.68224">
        <ele>383.44</ele>
        <time>2017-05-28T09:44:15Z</time>
      </trkpt>
      <trkpt lat="47.07276" lon="4.68203">
        <ele>382.08</ele>
        <time>2017-05-28T09:44:33Z</time>
      </trkpt>
      <trkpt lat="47.07281" lon="4.68197">
        <ele>381.98</ele>
        <time>2017-05-28T09:44:37Z</time>
      </trkpt>
      <trkpt lat="47.07289" lon="4.68182">
        <ele>380.48</ele>
        <time>2017-05-28T09:44:52Z</time>
      </trkpt>
      <trkpt lat="47.07292" lon="4.68171">
        <ele>379.66</ele>
        <time>2017-05-28T09:45:03Z</time>
      </trkpt>
      <trkpt lat="47.07296" lon="4.68169">
        <ele>379.33</ele>
        <time>2017-05-28T09:45:18Z</time>
      </trkpt>
      <trkpt lat="47.07313" lon="4.68158">
        <ele>379.54</ele>
        <time>2017-05-28T09:45:34Z</time>
      </trkpt>
      <trkpt lat="47.07326" lon="4.68142">
        <ele>380.05</ele>
        <time>2017-05-28T09:45:51Z</time>
      </trkpt>
      <trkpt lat="47.07338" lon="4.68128">
        <ele>380.34</ele>
        <time>2017-05-28T09:46:08Z</time>
      </trkpt>
      <trkpt lat="47.07354" lon="4.68103">
        <ele>380.47</ele>
        <time>2017-05-28T09:46:28Z</time>
      </trkpt>
      <trkpt lat="47.07361" lon="4.68095">
        <ele>380.45</ele>
        <time>2017-05-28T09:46:36Z</time>
      </trkpt>
      <trkpt lat="47.07372" lon="4.68077">
        <ele>380.41</ele>
        <time>2017-05-28T09:46:49Z</time>
      </trkpt>
      <trkpt lat="47.0738" lon="4.68069">
        <ele>380.54</ele>
        <time>2017-05-28T09:46:57Z</time>
      </trkpt>
      <trkpt lat="47.07394" lon="4.68053">
        <ele>380.26</ele>
        <time>2017-05-28T09:47:10Z</time>
      </trkpt>
      <trkpt lat="47.07412" lon="4.68039">
        <ele>379.76</ele>
        <time>2017-05-28T09:47:24Z</time>
      </trkpt>
      <trkpt lat="47.07422" lon="4.68032">
        <ele>379.36</ele>
        <time>2017-05-28T09:47:35Z</time>
      </trkpt>
      <trkpt lat="47.07424" lon="4.68031">
        <ele>379.44</ele>
        <time>2017-05-28T09:47:37Z</time>
      </trkpt>
      <trkpt lat="47.07427" lon="4.6803">
        <ele>380.38</ele>
        <time>2017-05-28T09:47:39Z</time>
      </trkpt>
      <trkpt lat="47.07442" lon="4.68026">
        <ele>380.31</ele>
        <time>2017-05-28T09:47:51Z</time>
      </trkpt>
      <trkpt lat="47.07447" lon="4.68024">
        <ele>380.35</ele>
        <time>2017-05-28T09:47:55Z</time>
      </trkpt>
      <trkpt lat="47.07461" lon="4.68009">
        <ele>380.47</ele>
        <time>2017-05-28T09:48:09Z</time>
      </trkpt>
      <trkpt lat="47.07463" lon="4.68007">
        <ele>380.49</ele>
        <time>2017-05-28T09:48:11Z</time>
      </trkpt>
      <trkpt lat="47.07471" lon="4.67999">
        <ele>380.58</ele>
        <time>2017-05-28T09:48:19Z</time>
      </trkpt>
      <trkpt lat="47.07478" lon="4.67993">
        <ele>380.63</ele>
        <time>2017-05-28T09:48:25Z</time>
      </trkpt>
      <trkpt lat="47.07492" lon="4.67984">
        <ele>381.09</ele>
        <time>2017-05-28T09:48:40Z</time>
      </trkpt>
      <trkpt lat="47.07512" lon="4.67969">
        <ele>381.64</ele>
        <time>2017-05-28T09:48:56Z</time>
      </trkpt>
      <trkpt lat="47.07514" lon="4.67967">
        <ele>381.45</ele>
        <time>2017-05-28T09:48:58Z</time>
      </trkpt>
      <trkpt lat="47.07519" lon="4.67962">
        <ele>381.31</ele>
        <time>2017-05-28T09:49:03Z</time>
      </trkpt>
      <trkpt lat="47.07533" lon="4.67961">
        <ele>382.56</ele>
        <time>2017-05-28T09:49:17Z</time>
      </trkpt>
      <trkpt lat="47.07538" lon="4.67961">
        <ele>382.9</ele>
        <time>2017-05-28T09:49:20Z</time>
      </trkpt>
      <trkpt lat="47.07558" lon="4.67956">
        <ele>384.16</ele>
        <time>2017-05-28T09:49:37Z</time>
      </trkpt>
      <trkpt lat="47.07567" lon="4.67952">
        <ele>383.92</ele>
        <time>2017-05-28T09:49:46Z</time>
      </trkpt>
      <trkpt lat="47.07577" lon="4.67946">
        <ele>383.57</ele>
        <time>2017-05-28T09:49:53Z</time>
      </trkpt>
      <trkpt lat="47.07591" lon="4.6794">
        <ele>382.98</ele>
        <time>2017-05-28T09:50:07Z</time>
      </trkpt>
      <trkpt lat="47.07593" lon="4.67939">
        <ele>382.73</ele>
        <time>2017-05-28T09:50:09Z</time>
      </trkpt>
      <trkpt lat="47.07596" lon="4.67938">
        <ele>382.61</ele>
        <time>2017-05-28T09:50:11Z</time>
      </trkpt>
      <trkpt lat="47.0761" lon="4.67932">
        <ele>381.81</ele>
        <time>2017-05-28T09:50:24Z</time>
      </trkpt>
      <trkpt lat="47.07631" lon="4.67926">
        <ele>381.85</ele>
        <time>2017-05-28T09:50:40Z</time>
      </trkpt>
      <trkpt lat="47.07646" lon="4.67926">
        <ele>381.53</ele>
        <time>2017-05-28T09:50:53Z</time>
      </trkpt>
      <trkpt lat="47.07656" lon="4.67926">
        <ele>381.35</ele>
        <time>2017-05-28T09:51:02Z</time>
      </trkpt>
      <trkpt lat="47.07675" lon="4.67925">
        <ele>381.23</ele>
        <time>2017-05-28T09:51:17Z</time>
      </trkpt>
      <trkpt lat="47.07692" lon="4.67923">
        <ele>381.54</ele>
        <time>2017-05-28T09:51:29Z</time>
      </trkpt>
      <trkpt lat="47.07709" lon="4.67923">
        <ele>381.46</ele>
        <time>2017-05-28T09:51:43Z</time>
      </trkpt>
      <trkpt lat="47.07729" lon="4.67919">
        <ele>381.05</ele>
        <time>2017-05-28T09:51:58Z</time>
      </trkpt>
      <trkpt lat="47.07747" lon="4.67915">
        <ele>380.76</ele>
        <time>2017-05-28T09:52:13Z</time>
      </trkpt>
      <trkpt lat="47.07763" lon="4.67913">
        <ele>379.63</ele>
        <time>2017-05-28T09:52:26Z</time>
      </trkpt>
      <trkpt lat="47.07775" lon="4.67918">
        <ele>379.45</ele>
        <time>2017-05-28T09:52:35Z</time>
      </trkpt>
      <trkpt lat="47.07785" lon="4.67925">
        <ele>379.34</ele>
        <time>2017-05-28T09:52:43Z</time>
      </trkpt>
      <trkpt lat="47.07791" lon="4.67924">
        <ele>379.38</ele>
        <time>2017-05-28T09:52:49Z</time>
      </trkpt>
      <trkpt lat="47.07813" lon="4.67909">
        <ele>379.94</ele>
        <time>2017-05-28T09:53:07Z</time>
      </trkpt>
      <trkpt lat="47.07828" lon="4.67898">
        <ele>381.03</ele>
        <time>2017-05-28T09:53:21Z</time>
      </trkpt>
      <trkpt lat="47.07843" lon="4.67891">
        <ele>382.72</ele>
        <time>2017-05-28T09:53:34Z</time>
      </trkpt>
      <trkpt lat="47.07856" lon="4.67881">
        <ele>383.59</ele>
        <time>2017-05-28T09:53:46Z</time>
      </trkpt>
      <trkpt lat="47.07865" lon="4.67877">
        <ele>383.92</ele>
        <time>2017-05-28T09:53:54Z</time>
      </trkpt>
      <trkpt lat="47.07877" lon="4.67868">
        <ele>384.23</ele>
        <time>2017-05-28T09:54:08Z</time>
      </trkpt>
      <trkpt lat="47.07888" lon="4.67855">
        <ele>383.24</ele>
        <time>2017-05-28T09:54:23Z</time>
      </trkpt>
      <trkpt lat="47.07893" lon="4.67846">
        <ele>382.37</ele>
        <time>2017-05-28T09:54:38Z</time>
      </trkpt>
      <trkpt lat="47.07896" lon="4.67839">
        <ele>382.58</ele>
        <time>2017-05-28T09:54:56Z</time>
      </trkpt>
      <trkpt lat="47.07896" lon="4.67834">
        <ele>382.22</ele>
        <time>2017-05-28T09:55:22Z</time>
      </trkpt>
      <trkpt lat="47.07897" lon="4.67838">
        <ele>382.21</ele>
        <time>2017-05-28T09:56:02Z</time>
      </trkpt>
      <trkpt lat="47.07897" lon="4.67843">
        <ele>382.54</ele>
        <time>2017-05-28T09:56:50Z</time>
      </trkpt>
      <trkpt lat="47.079" lon="4.67842">
        <ele>382.51</ele>
        <time>2017-05-28T09:57:36Z</time>
      </trkpt>
      <trkpt lat="47.07898" lon="4.6784">
        <ele>382.93</ele>
        <time>2017-05-28T09:58:12Z</time>
      </trkpt>
      <trkpt lat="47.07897" lon="4.6784">
        <ele>382.65</ele>
        <time>2017-05-28T09:58:46Z</time>
      </trkpt>
      <trkpt lat="47.07898" lon="4.67841">
        <ele>382.87</ele>
        <time>2017-05-28T09:59:21Z</time>
      </trkpt>
      <trkpt lat="47.07896" lon="4.67839">
        <ele>382.98</ele>
        <time>2017-05-28T09:59:59Z</time>
      </trkpt>
      <trkpt lat="47.07896" lon="4.67838">
        <ele>383.3</ele>
        <time>2017-05-28T10:00:37Z</time>
      </trkpt>
      <trkpt lat="47.07892" lon="4.67839">
        <ele>382.3</ele>
        <time>2017-05-28T10:01:00Z</time>
      </trkpt>
      <trkpt lat="47.07886" lon="4.67837">
        <ele>381.38</ele>
        <time>2017-05-28T10:01:06Z</time>
      </trkpt>
      <trkpt lat="47.07884" lon="4.67835">
        <ele>379.66</ele>
        <time>2017-05-28T10:01:08Z</time>
      </trkpt>
      <trkpt lat="47.07883" lon="4.67833">
        <ele>379.46</ele>
        <time>2017-05-28T10:01:10Z</time>
      </trkpt>
      <trkpt lat="47.07882" lon="4.67832">
        <ele>383</ele>
        <time>2017-05-28T10:01:11Z</time>
      </trkpt>
      <trkpt lat="47.07881" lon="4.6783">
        <ele>381.08</ele>
        <time>2017-05-28T10:01:13Z</time>
      </trkpt>
      <trkpt lat="47.07873" lon="4.67812">
        <ele>377.53</ele>
        <time>2017-05-28T10:01:29Z</time>
      </trkpt>
      <trkpt lat="47.07867" lon="4.67793">
        <ele>374.46</ele>
        <time>2017-05-28T10:01:43Z</time>
      </trkpt>
      <trkpt lat="47.07862" lon="4.67775">
        <ele>371.69</ele>
        <time>2017-05-28T10:01:57Z</time>
      </trkpt>
      <trkpt lat="47.07864" lon="4.67771">
        <ele>371.16</ele>
        <time>2017-05-28T10:02:04Z</time>
      </trkpt>
      <trkpt lat="47.07868" lon="4.67765">
        <ele>370.84</ele>
        <time>2017-05-28T10:02:14Z</time>
      </trkpt>
      <trkpt lat="47.07881" lon="4.6776">
        <ele>370.64</ele>
        <time>2017-05-28T10:02:28Z</time>
      </trkpt>
      <trkpt lat="47.0789" lon="4.67759">
        <ele>370.2</ele>
        <time>2017-05-28T10:02:46Z</time>
      </trkpt>
      <trkpt lat="47.07887" lon="4.67755">
        <ele>370.51</ele>
        <time>2017-05-28T10:02:59Z</time>
      </trkpt>
      <trkpt lat="47.07883" lon="4.67751">
        <ele>370.41</ele>
        <time>2017-05-28T10:03:17Z</time>
      </trkpt>
      <trkpt lat="47.07881" lon="4.67752">
        <ele>370.59</ele>
        <time>2017-05-28T10:03:19Z</time>
      </trkpt>
      <trkpt lat="47.07875" lon="4.67766">
        <ele>370.6</ele>
        <time>2017-05-28T10:03:35Z</time>
      </trkpt>
      <trkpt lat="47.07878" lon="4.67767">
        <ele>369.72</ele>
        <time>2017-05-28T10:03:52Z</time>
      </trkpt>
      <trkpt lat="47.07879" lon="4.67765">
        <ele>369.46</ele>
        <time>2017-05-28T10:04:20Z</time>
      </trkpt>
      <trkpt lat="47.07878" lon="4.67769">
        <ele>369.31</ele>
        <time>2017-05-28T10:04:54Z</time>
      </trkpt>
      <trkpt lat="47.07879" lon="4.67766">
        <ele>370.04</ele>
        <time>2017-05-28T10:05:38Z</time>
      </trkpt>
      <trkpt lat="47.07878" lon="4.67766">
        <ele>370.64</ele>
        <time>2017-05-28T10:06:27Z</time>
      </trkpt>
      <trkpt lat="47.0788" lon="4.67765">
        <ele>367.54</ele>
        <time>2017-05-28T10:06:48Z</time>
      </trkpt>
      <trkpt lat="47.0788" lon="4.67765">
        <ele>371.83</ele>
        <time>2017-05-28T10:06:49Z</time>
      </trkpt>
      <trkpt lat="47.07881" lon="4.67763">
        <ele>371.93</ele>
        <time>2017-05-28T10:06:59Z</time>
      </trkpt>
      <trkpt lat="47.07881" lon="4.67761">
        <ele>371.97</ele>
        <time>2017-05-28T10:07:01Z</time>
      </trkpt>
      <trkpt lat="47.0787" lon="4.67764">
        <ele>372.64</ele>
        <time>2017-05-28T10:07:15Z</time>
      </trkpt>
      <trkpt lat="47.07867" lon="4.67769">
        <ele>373.45</ele>
        <time>2017-05-28T10:07:35Z</time>
      </trkpt>
      <trkpt lat="47.07866" lon="4.67785">
        <ele>374.64</ele>
        <time>2017-05-28T10:07:49Z</time>
      </trkpt>
      <trkpt lat="47.07868" lon="4.67803">
        <ele>377.2</ele>
        <time>2017-05-28T10:08:07Z</time>
      </trkpt>
      <trkpt lat="47.07875" lon="4.67819">
        <ele>380.23</ele>
        <time>2017-05-28T10:08:24Z</time>
      </trkpt>
      <trkpt lat="47.07885" lon="4.67834">
        <ele>382.77</ele>
        <time>2017-05-28T10:08:41Z</time>
      </trkpt>
      <trkpt lat="47.07899" lon="4.6784">
        <ele>384.88</ele>
        <time>2017-05-28T10:09:00Z</time>
      </trkpt>
      <trkpt lat="47.07903" lon="4.67833">
        <ele>384.67</ele>
        <time>2017-05-28T10:09:07Z</time>
      </trkpt>
      <trkpt lat="47.07909" lon="4.67826">
        <ele>384.29</ele>
        <time>2017-05-28T10:09:14Z</time>
      </trkpt>
      <trkpt lat="47.07924" lon="4.67813">
        <ele>382.43</ele>
        <time>2017-05-28T10:09:30Z</time>
      </trkpt>
      <trkpt lat="47.0793" lon="4.67805">
        <ele>381.35</ele>
        <time>2017-05-28T10:09:40Z</time>
      </trkpt>
      <trkpt lat="47.07937" lon="4.6781">
        <ele>383.08</ele>
        <time>2017-05-28T10:09:54Z</time>
      </trkpt>
      <trkpt lat="47.07938" lon="4.67812">
        <ele>383.37</ele>
        <time>2017-05-28T10:09:56Z</time>
      </trkpt>
      <trkpt lat="47.07944" lon="4.67823">
        <ele>384.44</ele>
        <time>2017-05-28T10:10:11Z</time>
      </trkpt>
      <trkpt lat="47.07942" lon="4.6782">
        <ele>384.39</ele>
        <time>2017-05-28T10:10:37Z</time>
      </trkpt>
      <trkpt lat="47.0794" lon="4.67816">
        <ele>384.83</ele>
        <time>2017-05-28T10:11:10Z</time>
      </trkpt>
      <trkpt lat="47.07937" lon="4.67809">
        <ele>384.21</ele>
        <time>2017-05-28T10:11:30Z</time>
      </trkpt>
      <trkpt lat="47.07939" lon="4.67811">
        <ele>383.58</ele>
        <time>2017-05-28T10:11:45Z</time>
      </trkpt>
      <trkpt lat="47.0794" lon="4.67812">
        <ele>383.53</ele>
        <time>2017-05-28T10:12:06Z</time>
      </trkpt>
      <trkpt lat="47.07945" lon="4.67812">
        <ele>383.4</ele>
        <time>2017-05-28T10:12:34Z</time>
      </trkpt>
      <trkpt lat="47.07944" lon="4.67811">
        <ele>382.98</ele>
        <time>2017-05-28T10:13:05Z</time>
      </trkpt>
      <trkpt lat="47.07945" lon="4.6781">
        <ele>383.55</ele>
        <time>2017-05-28T10:13:38Z</time>
      </trkpt>
      <trkpt lat="47.07939" lon="4.67809">
        <ele>383.41</ele>
        <time>2017-05-28T10:14:10Z</time>
      </trkpt>
      <trkpt lat="47.07942" lon="4.67813">
        <ele>383.78</ele>
        <time>2017-05-28T10:14:40Z</time>
      </trkpt>
      <trkpt lat="47.07937" lon="4.67809">
        <ele>384.07</ele>
        <time>2017-05-28T10:15:14Z</time>
      </trkpt>
      <trkpt lat="47.07938" lon="4.67811">
        <ele>384.53</ele>
        <time>2017-05-28T10:15:41Z</time>
      </trkpt>
      <trkpt lat="47.07934" lon="4.6781">
        <ele>384.62</ele>
        <time>2017-05-28T10:16:08Z</time>
      </trkpt>
      <trkpt lat="47.07938" lon="4.67806">
        <ele>385.08</ele>
        <time>2017-05-28T10:16:41Z</time>
      </trkpt>
      <trkpt lat="47.07937" lon="4.6781">
        <ele>385.45</ele>
        <time>2017-05-28T10:17:12Z</time>
      </trkpt>
      <trkpt lat="47.07936" lon="4.67809">
        <ele>385.81</ele>
        <time>2017-05-28T10:17:41Z</time>
      </trkpt>
      <trkpt lat="47.07937" lon="4.67809">
        <ele>386.26</ele>
        <time>2017-05-28T10:18:09Z</time>
      </trkpt>
      <trkpt lat="47.07942" lon="4.67803">
        <ele>386.29</ele>
        <time>2017-05-28T10:18:42Z</time>
      </trkpt>
      <trkpt lat="47.07939" lon="4.67805">
        <ele>386.58</ele>
        <time>2017-05-28T10:19:16Z</time>
      </trkpt>
      <trkpt lat="47.07945" lon="4.67809">
        <ele>386.9</ele>
        <time>2017-05-28T10:19:51Z</time>
      </trkpt>
      <trkpt lat="47.07947" lon="4.6781">
        <ele>386.94</ele>
        <time>2017-05-28T10:20:29Z</time>
      </trkpt>
      <trkpt lat="47.07943" lon="4.67812">
        <ele>387.01</ele>
        <time>2017-05-28T10:20:59Z</time>
      </trkpt>
      <trkpt lat="47.07941" lon="4.67809">
        <ele>387.31</ele>
        <time>2017-05-28T10:21:28Z</time>
      </trkpt>
      <trkpt lat="47.07938" lon="4.67806">
        <ele>387.42</ele>
        <time>2017-05-28T10:21:58Z</time>
      </trkpt>
      <trkpt lat="47.07939" lon="4.6781">
        <ele>387.51</ele>
        <time>2017-05-28T10:22:26Z</time>
      </trkpt>
      <trkpt lat="47.07942" lon="4.67811">
        <ele>387.85</ele>
        <time>2017-05-28T10:22:55Z</time>
      </trkpt>
      <trkpt lat="47.07946" lon="4.67809">
        <ele>387.83</ele>
        <time>2017-05-28T10:23:26Z</time>
      </trkpt>
      <trkpt lat="47.07944" lon="4.67808">
        <ele>387.81</ele>
        <time>2017-05-28T10:23:53Z</time>
      </trkpt>
      <trkpt lat="47.07945" lon="4.67808">
        <ele>387.9</ele>
        <time>2017-05-28T10:24:36Z</time>
      </trkpt>
      <trkpt lat="47.07947" lon="4.67809">
        <ele>388.12</ele>
        <time>2017-05-28T10:25:05Z</time>
      </trkpt>
      <trkpt lat="47.07947" lon="4.67809">
        <ele>388.23</ele>
        <time>2017-05-28T10:25:30Z</time>
      </trkpt>
      <trkpt lat="47.07944" lon="4.6781">
        <ele>388.45</ele>
        <time>2017-05-28T10:26:13Z</time>
      </trkpt>
      <trkpt lat="47.07944" lon="4.67811">
        <ele>388.45</ele>
        <time>2017-05-28T10:26:46Z</time>
      </trkpt>
      <trkpt lat="47.07949" lon="4.6781">
        <ele>388.92</ele>
        <time>2017-05-28T10:27:21Z</time>
      </trkpt>
      <trkpt lat="47.07951" lon="4.6781">
        <ele>389.01</ele>
        <time>2017-05-28T10:28:02Z</time>
      </trkpt>
      <trkpt lat="47.07949" lon="4.6781">
        <ele>388.63</ele>
        <time>2017-05-28T10:28:46Z</time>
      </trkpt>
      <trkpt lat="47.07946" lon="4.67812">
        <ele>389.19</ele>
        <time>2017-05-28T10:29:15Z</time>
      </trkpt>
      <trkpt lat="47.07947" lon="4.67813">
        <ele>389.35</ele>
        <time>2017-05-28T10:29:46Z</time>
      </trkpt>
      <trkpt lat="47.07949" lon="4.67811">
        <ele>389.82</ele>
        <time>2017-05-28T10:30:33Z</time>
      </trkpt>
      <trkpt lat="47.07948" lon="4.6781">
        <ele>389.86</ele>
        <time>2017-05-28T10:31:04Z</time>
      </trkpt>
      <trkpt lat="47.07945" lon="4.67813">
        <ele>389.86</ele>
        <time>2017-05-28T10:31:49Z</time>
      </trkpt>
      <trkpt lat="47.07947" lon="4.67813">
        <ele>390.34</ele>
        <time>2017-05-28T10:32:38Z</time>
      </trkpt>
      <trkpt lat="47.07947" lon="4.67812">
        <ele>389.97</ele>
        <time>2017-05-28T10:33:11Z</time>
      </trkpt>
      <trkpt lat="47.07948" lon="4.6781">
        <ele>390.28</ele>
        <time>2017-05-28T10:33:49Z</time>
      </trkpt>
      <trkpt lat="47.0795" lon="4.6781">
        <ele>389.92</ele>
        <time>2017-05-28T10:34:26Z</time>
      </trkpt>
      <trkpt lat="47.07953" lon="4.67811">
        <ele>390.31</ele>
        <time>2017-05-28T10:34:56Z</time>
      </trkpt>
      <trkpt lat="47.07951" lon="4.67813">
        <ele>390.09</ele>
        <time>2017-05-28T10:35:39Z</time>
      </trkpt>
      <trkpt lat="47.07944" lon="4.67815">
        <ele>390.29</ele>
        <time>2017-05-28T10:36:12Z</time>
      </trkpt>
      <trkpt lat="47.07942" lon="4.67815">
        <ele>390.17</ele>
        <time>2017-05-28T10:37:04Z</time>
      </trkpt>
      <trkpt lat="47.07948" lon="4.67814">
        <ele>390.27</ele>
        <time>2017-05-28T10:37:47Z</time>
      </trkpt>
      <trkpt lat="47.0795" lon="4.67815">
        <ele>390.49</ele>
        <time>2017-05-28T10:38:12Z</time>
      </trkpt>
      <trkpt lat="47.07949" lon="4.67815">
        <ele>390.64</ele>
        <time>2017-05-28T10:38:41Z</time>
      </trkpt>
      <trkpt lat="47.07948" lon="4.67819">
        <ele>390.25</ele>
        <time>2017-05-28T10:39:11Z</time>
      </trkpt>
      <trkpt lat="47.07944" lon="4.67817">
        <ele>390.65</ele>
        <time>2017-05-28T10:39:36Z</time>
      </trkpt>
      <trkpt lat="47.07947" lon="4.67821">
        <ele>390.2</ele>
        <time>2017-05-28T10:40:13Z</time>
      </trkpt>
      <trkpt lat="47.07947" lon="4.67823">
        <ele>390.13</ele>
        <time>2017-05-28T10:41:06Z</time>
      </trkpt>
      <trkpt lat="47.07947" lon="4.67821">
        <ele>390.37</ele>
        <time>2017-05-28T10:41:53Z</time>
      </trkpt>
      <trkpt lat="47.07945" lon="4.67822">
        <ele>390.18</ele>
        <time>2017-05-28T10:42:50Z</time>
      </trkpt>
      <trkpt lat="47.07946" lon="4.67824">
        <ele>390.9</ele>
        <time>2017-05-28T10:43:31Z</time>
      </trkpt>
      <trkpt lat="47.07943" lon="4.67821">
        <ele>390.79</ele>
        <time>2017-05-28T10:44:05Z</time>
      </trkpt>
      <trkpt lat="47.07942" lon="4.67817">
        <ele>390.58</ele>
        <time>2017-05-28T10:44:34Z</time>
      </trkpt>
      <trkpt lat="47.07941" lon="4.67818">
        <ele>390.49</ele>
        <time>2017-05-28T10:45:23Z</time>
      </trkpt>
      <trkpt lat="47.07943" lon="4.67819">
        <ele>390.35</ele>
        <time>2017-05-28T10:45:52Z</time>
      </trkpt>
      <trkpt lat="47.07943" lon="4.67819">
        <ele>389.83</ele>
        <time>2017-05-28T10:46:26Z</time>
      </trkpt>
      <trkpt lat="47.07944" lon="4.67819">
        <ele>389.43</ele>
        <time>2017-05-28T10:47:13Z</time>
      </trkpt>
      <trkpt lat="47.07944" lon="4.67818">
        <ele>389.51</ele>
        <time>2017-05-28T10:47:50Z</time>
      </trkpt>
      <trkpt lat="47.07943" lon="4.67816">
        <ele>388.19</ele>
        <time>2017-05-28T10:48:43Z</time>
      </trkpt>
      <trkpt lat="47.07944" lon="4.67814">
        <ele>388.98</ele>
        <time>2017-05-28T10:49:12Z</time>
      </trkpt>
      <trkpt lat="47.07943" lon="4.67812">
        <ele>388.66</ele>
        <time>2017-05-28T10:49:40Z</time>
      </trkpt>
      <trkpt lat="47.0794" lon="4.67812">
        <ele>388.18</ele>
        <time>2017-05-28T10:50:25Z</time>
      </trkpt>
      <trkpt lat="47.07942" lon="4.67815">
        <ele>388.27</ele>
        <time>2017-05-28T10:51:11Z</time>
      </trkpt>
      <trkpt lat="47.07939" lon="4.67813">
        <ele>388.1</ele>
        <time>2017-05-28T10:52:00Z</time>
      </trkpt>
      <trkpt lat="47.07939" lon="4.67813">
        <ele>387.7</ele>
        <time>2017-05-28T10:52:49Z</time>
      </trkpt>
      <trkpt lat="47.07942" lon="4.67814">
        <ele>387.52</ele>
        <time>2017-05-28T10:53:39Z</time>
      </trkpt>
      <trkpt lat="47.0794" lon="4.67816">
        <ele>387.1</ele>
        <time>2017-05-28T10:54:23Z</time>
      </trkpt>
      <trkpt lat="47.07938" lon="4.67809">
        <ele>387.26</ele>
        <time>2017-05-28T10:55:16Z</time>
      </trkpt>
      <trkpt lat="47.07939" lon="4.67814">
        <ele>387.11</ele>
        <time>2017-05-28T10:56:15Z</time>
      </trkpt>
      <trkpt lat="47.0794" lon="4.67814">
        <ele>386.83</ele>
        <time>2017-05-28T10:56:59Z</time>
      </trkpt>
      <trkpt lat="47.07938" lon="4.67813">
        <ele>386.92</ele>
        <time>2017-05-28T10:57:27Z</time>
      </trkpt>
      <trkpt lat="47.0794" lon="4.67813">
        <ele>386.36</ele>
        <time>2017-05-28T10:58:17Z</time>
      </trkpt>
      <trkpt lat="47.07942" lon="4.67814">
        <ele>386.51</ele>
        <time>2017-05-28T10:59:12Z</time>
      </trkpt>
      <trkpt lat="47.07941" lon="4.67813">
        <ele>386.54</ele>
        <time>2017-05-28T11:00:03Z</time>
      </trkpt>
      <trkpt lat="47.07941" lon="4.67812">
        <ele>386.63</ele>
        <time>2017-05-28T11:00:45Z</time>
      </trkpt>
      <trkpt lat="47.0794" lon="4.67814">
        <ele>386.07</ele>
        <time>2017-05-28T11:01:40Z</time>
      </trkpt>
      <trkpt lat="47.07941" lon="4.67816">
        <ele>386.04</ele>
        <time>2017-05-28T11:02:35Z</time>
      </trkpt>
      <trkpt lat="47.07941" lon="4.67813">
        <ele>385.72</ele>
        <time>2017-05-28T11:03:23Z</time>
      </trkpt>
      <trkpt lat="47.07941" lon="4.67811">
        <ele>385.51</ele>
        <time>2017-05-28T11:03:53Z</time>
      </trkpt>
      <trkpt lat="47.07943" lon="4.67817">
        <ele>385.92</ele>
        <time>2017-05-28T11:04:22Z</time>
      </trkpt>
      <trkpt lat="47.07946" lon="4.67817">
        <ele>385.7</ele>
        <time>2017-05-28T11:05:03Z</time>
      </trkpt>
      <trkpt lat="47.07941" lon="4.67806">
        <ele>384.92</ele>
        <time>2017-05-28T11:05:23Z</time>
      </trkpt>
      <trkpt lat="47.0794" lon="4.67801">
        <ele>383.11</ele>
        <time>2017-05-28T11:05:39Z</time>
      </trkpt>
      <trkpt lat="47.0794" lon="4.67801">
        <ele>386.17</ele>
        <time>2017-05-28T11:05:43Z</time>
      </trkpt>
      <trkpt lat="47.0794" lon="4.67801">
        <ele>383.76</ele>
        <time>2017-05-28T11:05:44Z</time>
      </trkpt>
      <trkpt lat="47.07942" lon="4.67798">
        <ele>383.62</ele>
        <time>2017-05-28T11:06:22Z</time>
      </trkpt>
      <trkpt lat="47.07949" lon="4.67792">
        <ele>382.71</ele>
        <time>2017-05-28T11:06:40Z</time>
      </trkpt>
      <trkpt lat="47.07962" lon="4.67784">
        <ele>381.91</ele>
        <time>2017-05-28T11:06:57Z</time>
      </trkpt>
      <trkpt lat="47.07967" lon="4.6778">
        <ele>382.05</ele>
        <time>2017-05-28T11:07:17Z</time>
      </trkpt>
      <trkpt lat="47.0797" lon="4.67778">
        <ele>381.76</ele>
        <time>2017-05-28T11:07:22Z</time>
      </trkpt>
      <trkpt lat="47.07983" lon="4.67764">
        <ele>381.27</ele>
        <time>2017-05-28T11:07:37Z</time>
      </trkpt>
      <trkpt lat="47.07984" lon="4.67761">
        <ele>381.32</ele>
        <time>2017-05-28T11:07:40Z</time>
      </trkpt>
      <trkpt lat="47.07997" lon="4.67743">
        <ele>380.28</ele>
        <time>2017-05-28T11:07:55Z</time>
      </trkpt>
      <trkpt lat="47.08" lon="4.67742">
        <ele>380.03</ele>
        <time>2017-05-28T11:07:57Z</time>
      </trkpt>
      <trkpt lat="47.08002" lon="4.6774">
        <ele>379.92</ele>
        <time>2017-05-28T11:07:59Z</time>
      </trkpt>
      <trkpt lat="47.08003" lon="4.67726">
        <ele>377.77</ele>
        <time>2017-05-28T11:08:15Z</time>
      </trkpt>
      <trkpt lat="47.07997" lon="4.67719">
        <ele>374.95</ele>
        <time>2017-05-28T11:08:28Z</time>
      </trkpt>
      <trkpt lat="47.07993" lon="4.67708">
        <ele>373.18</ele>
        <time>2017-05-28T11:08:43Z</time>
      </trkpt>
      <trkpt lat="47.07992" lon="4.67714">
        <ele>373.27</ele>
        <time>2017-05-28T11:09:06Z</time>
      </trkpt>
      <trkpt lat="47.07991" lon="4.67712">
        <ele>372.38</ele>
        <time>2017-05-28T11:09:28Z</time>
      </trkpt>
      <trkpt lat="47.07992" lon="4.67713">
        <ele>373.21</ele>
        <time>2017-05-28T11:09:43Z</time>
      </trkpt>
      <trkpt lat="47.07992" lon="4.67706">
        <ele>372.75</ele>
        <time>2017-05-28T11:09:56Z</time>
      </trkpt>
      <trkpt lat="47.07994" lon="4.6771">
        <ele>372.63</ele>
        <time>2017-05-28T11:10:26Z</time>
      </trkpt>
      <trkpt lat="47.07998" lon="4.67716">
        <ele>373.85</ele>
        <time>2017-05-28T11:10:39Z</time>
      </trkpt>
      <trkpt lat="47.07997" lon="4.67721">
        <ele>374.65</ele>
        <time>2017-05-28T11:10:58Z</time>
      </trkpt>
      <trkpt lat="47.08003" lon="4.67727">
        <ele>376.55</ele>
        <time>2017-05-28T11:11:13Z</time>
      </trkpt>
      <trkpt lat="47.08009" lon="4.6773">
        <ele>378.55</ele>
        <time>2017-05-28T11:11:34Z</time>
      </trkpt>
      <trkpt lat="47.08015" lon="4.67722">
        <ele>378.4</ele>
        <time>2017-05-28T11:11:43Z</time>
      </trkpt>
      <trkpt lat="47.08024" lon="4.67708">
        <ele>378.3</ele>
        <time>2017-05-28T11:11:57Z</time>
      </trkpt>
      <trkpt lat="47.08033" lon="4.67698">
        <ele>378.01</ele>
        <time>2017-05-28T11:12:10Z</time>
      </trkpt>
      <trkpt lat="47.08037" lon="4.67692">
        <ele>378.21</ele>
        <time>2017-05-28T11:12:27Z</time>
      </trkpt>
      <trkpt lat="47.08045" lon="4.67678">
        <ele>378.97</ele>
        <time>2017-05-28T11:12:41Z</time>
      </trkpt>
      <trkpt lat="47.08047" lon="4.67673">
        <ele>379.11</ele>
        <time>2017-05-28T11:12:45Z</time>
      </trkpt>
      <trkpt lat="47.08053" lon="4.67648">
        <ele>380.06</ele>
        <time>2017-05-28T11:13:02Z</time>
      </trkpt>
      <trkpt lat="47.08056" lon="4.67628">
        <ele>381.1</ele>
        <time>2017-05-28T11:13:16Z</time>
      </trkpt>
      <trkpt lat="47.08057" lon="4.67617">
        <ele>382.14</ele>
        <time>2017-05-28T11:13:25Z</time>
      </trkpt>
      <trkpt lat="47.08063" lon="4.67601">
        <ele>383.98</ele>
        <time>2017-05-28T11:13:40Z</time>
      </trkpt>
      <trkpt lat="47.08072" lon="4.67586">
        <ele>386.09</ele>
        <time>2017-05-28T11:13:55Z</time>
      </trkpt>
      <trkpt lat="47.08083" lon="4.67573">
        <ele>387.76</ele>
        <time>2017-05-28T11:14:10Z</time>
      </trkpt>
      <trkpt lat="47.08091" lon="4.67562">
        <ele>388.92</ele>
        <time>2017-05-28T11:14:22Z</time>
      </trkpt>
      <trkpt lat="47.08098" lon="4.67556">
        <ele>389.95</ele>
        <time>2017-05-28T11:14:30Z</time>
      </trkpt>
      <trkpt lat="47.08108" lon="4.67546">
        <ele>391.34</ele>
        <time>2017-05-28T11:14:44Z</time>
      </trkpt>
      <trkpt lat="47.08121" lon="4.67542">
        <ele>392.72</ele>
        <time>2017-05-28T11:14:59Z</time>
      </trkpt>
      <trkpt lat="47.08136" lon="4.67538">
        <ele>393.37</ele>
        <time>2017-05-28T11:15:16Z</time>
      </trkpt>
      <trkpt lat="47.08154" lon="4.67533">
        <ele>394.19</ele>
        <time>2017-05-28T11:15:33Z</time>
      </trkpt>
      <trkpt lat="47.08157" lon="4.67532">
        <ele>394.16</ele>
        <time>2017-05-28T11:15:36Z</time>
      </trkpt>
      <trkpt lat="47.08174" lon="4.67524">
        <ele>394.75</ele>
        <time>2017-05-28T11:15:52Z</time>
      </trkpt>
      <trkpt lat="47.08194" lon="4.67516">
        <ele>394.12</ele>
        <time>2017-05-28T11:16:10Z</time>
      </trkpt>
      <trkpt lat="47.08213" lon="4.67505">
        <ele>392.74</ele>
        <time>2017-05-28T11:16:28Z</time>
      </trkpt>
      <trkpt lat="47.08226" lon="4.67498">
        <ele>392.13</ele>
        <time>2017-05-28T11:16:40Z</time>
      </trkpt>
      <trkpt lat="47.08229" lon="4.67497">
        <ele>391.87</ele>
        <time>2017-05-28T11:16:43Z</time>
      </trkpt>
      <trkpt lat="47.08243" lon="4.67491">
        <ele>391.34</ele>
        <time>2017-05-28T11:16:55Z</time>
      </trkpt>
      <trkpt lat="47.08263" lon="4.6748">
        <ele>391.33</ele>
        <time>2017-05-28T11:17:11Z</time>
      </trkpt>
      <trkpt lat="47.08279" lon="4.67473">
        <ele>391.66</ele>
        <time>2017-05-28T11:17:25Z</time>
      </trkpt>
      <trkpt lat="47.08286" lon="4.6747">
        <ele>392.12</ele>
        <time>2017-05-28T11:17:34Z</time>
      </trkpt>
      <trkpt lat="47.08288" lon="4.6747">
        <ele>392.28</ele>
        <time>2017-05-28T11:17:36Z</time>
      </trkpt>
      <trkpt lat="47.08306" lon="4.67464">
        <ele>391.92</ele>
        <time>2017-05-28T11:17:51Z</time>
      </trkpt>
      <trkpt lat="47.08328" lon="4.67459">
        <ele>390.94</ele>
        <time>2017-05-28T11:18:09Z</time>
      </trkpt>
      <trkpt lat="47.08348" lon="4.67456">
        <ele>390.21</ele>
        <time>2017-05-28T11:18:25Z</time>
      </trkpt>
      <trkpt lat="47.08363" lon="4.67454">
        <ele>389.57</ele>
        <time>2017-05-28T11:18:37Z</time>
      </trkpt>
      <trkpt lat="47.0837" lon="4.67453">
        <ele>389.39</ele>
        <time>2017-05-28T11:18:42Z</time>
      </trkpt>
      <trkpt lat="47.08389" lon="4.67454">
        <ele>388.24</ele>
        <time>2017-05-28T11:18:57Z</time>
      </trkpt>
      <trkpt lat="47.0841" lon="4.67455">
        <ele>387.07</ele>
        <time>2017-05-28T11:19:14Z</time>
      </trkpt>
      <trkpt lat="47.08414" lon="4.67455">
        <ele>386.86</ele>
        <time>2017-05-28T11:19:17Z</time>
      </trkpt>
      <trkpt lat="47.08435" lon="4.67457">
        <ele>385.9</ele>
        <time>2017-05-28T11:19:34Z</time>
      </trkpt>
      <trkpt lat="47.08455" lon="4.67458">
        <ele>385.07</ele>
        <time>2017-05-28T11:19:50Z</time>
      </trkpt>
      <trkpt lat="47.08474" lon="4.6746">
        <ele>383.96</ele>
        <time>2017-05-28T11:20:06Z</time>
      </trkpt>
      <trkpt lat="47.08494" lon="4.67462">
        <ele>383.12</ele>
        <time>2017-05-28T11:20:21Z</time>
      </trkpt>
      <trkpt lat="47.0852" lon="4.67464">
        <ele>382.23</ele>
        <time>2017-05-28T11:20:41Z</time>
      </trkpt>
      <trkpt lat="47.08546" lon="4.67466">
        <ele>381.27</ele>
        <time>2017-05-28T11:21:01Z</time>
      </trkpt>
      <trkpt lat="47.08566" lon="4.67465">
        <ele>380.16</ele>
        <time>2017-05-28T11:21:16Z</time>
      </trkpt>
      <trkpt lat="47.0859" lon="4.67463">
        <ele>379.34</ele>
        <time>2017-05-28T11:21:34Z</time>
      </trkpt>
      <trkpt lat="47.08595" lon="4.67462">
        <ele>379.23</ele>
        <time>2017-05-28T11:21:39Z</time>
      </trkpt>
      <trkpt lat="47.08605" lon="4.67457">
        <ele>378.69</ele>
        <time>2017-05-28T11:21:48Z</time>
      </trkpt>
      <trkpt lat="47.08629" lon="4.67452">
        <ele>377.71</ele>
        <time>2017-05-28T11:22:05Z</time>
      </trkpt>
      <trkpt lat="47.08648" lon="4.67448">
        <ele>377.14</ele>
        <time>2017-05-28T11:22:19Z</time>
      </trkpt>
      <trkpt lat="47.08652" lon="4.67447">
        <ele>376.95</ele>
        <time>2017-05-28T11:22:22Z</time>
      </trkpt>
      <trkpt lat="47.08658" lon="4.67447">
        <ele>376.93</ele>
        <time>2017-05-28T11:22:26Z</time>
      </trkpt>
      <trkpt lat="47.0868" lon="4.67445">
        <ele>376.07</ele>
        <time>2017-05-28T11:22:43Z</time>
      </trkpt>
      <trkpt lat="47.08697" lon="4.67445">
        <ele>375.79</ele>
        <time>2017-05-28T11:22:56Z</time>
      </trkpt>
      <trkpt lat="47.08716" lon="4.67449">
        <ele>375.43</ele>
        <time>2017-05-28T11:23:10Z</time>
      </trkpt>
      <trkpt lat="47.08739" lon="4.67454">
        <ele>374.51</ele>
        <time>2017-05-28T11:23:27Z</time>
      </trkpt>
      <trkpt lat="47.08761" lon="4.67461">
        <ele>373.53</ele>
        <time>2017-05-28T11:23:44Z</time>
      </trkpt>
      <trkpt lat="47.08776" lon="4.67466">
        <ele>372.79</ele>
        <time>2017-05-28T11:23:58Z</time>
      </trkpt>
      <trkpt lat="47.08785" lon="4.67476">
        <ele>373.57</ele>
        <time>2017-05-28T11:24:08Z</time>
      </trkpt>
      <trkpt lat="47.08787" lon="4.67479">
        <ele>372.74</ele>
        <time>2017-05-28T11:24:10Z</time>
      </trkpt>
      <trkpt lat="47.08806" lon="4.67502">
        <ele>371.76</ele>
        <time>2017-05-28T11:24:29Z</time>
      </trkpt>
      <trkpt lat="47.08808" lon="4.67505">
        <ele>371.81</ele>
        <time>2017-05-28T11:24:39Z</time>
      </trkpt>
      <trkpt lat="47.08812" lon="4.67513">
        <ele>371.44</ele>
        <time>2017-05-28T11:24:45Z</time>
      </trkpt>
      <trkpt lat="47.0882" lon="4.67525">
        <ele>371.2</ele>
        <time>2017-05-28T11:24:55Z</time>
      </trkpt>
      <trkpt lat="47.08839" lon="4.67527">
        <ele>370.88</ele>
        <time>2017-05-28T11:25:12Z</time>
      </trkpt>
      <trkpt lat="47.08859" lon="4.67524">
        <ele>370.73</ele>
        <time>2017-05-28T11:25:29Z</time>
      </trkpt>
      <trkpt lat="47.08876" lon="4.67515">
        <ele>370.96</ele>
        <time>2017-05-28T11:25:44Z</time>
      </trkpt>
      <trkpt lat="47.08886" lon="4.6751">
        <ele>371.09</ele>
        <time>2017-05-28T11:25:52Z</time>
      </trkpt>
      <trkpt lat="47.08897" lon="4.67509">
        <ele>371.07</ele>
        <time>2017-05-28T11:26:05Z</time>
      </trkpt>
      <trkpt lat="47.08902" lon="4.67507">
        <ele>370.99</ele>
        <time>2017-05-28T11:26:19Z</time>
      </trkpt>
      <trkpt lat="47.08914" lon="4.67504">
        <ele>370.98</ele>
        <time>2017-05-28T11:26:34Z</time>
      </trkpt>
      <trkpt lat="47.08932" lon="4.67496">
        <ele>371.05</ele>
        <time>2017-05-28T11:26:51Z</time>
      </trkpt>
      <trkpt lat="47.0894" lon="4.67495">
        <ele>370.78</ele>
        <time>2017-05-28T11:27:05Z</time>
      </trkpt>
      <trkpt lat="47.08944" lon="4.67493">
        <ele>371.05</ele>
        <time>2017-05-28T11:27:23Z</time>
      </trkpt>
      <trkpt lat="47.08946" lon="4.67492">
        <ele>370.89</ele>
        <time>2017-05-28T11:27:25Z</time>
      </trkpt>
      <trkpt lat="47.08951" lon="4.67488">
        <ele>371.09</ele>
        <time>2017-05-28T11:27:30Z</time>
      </trkpt>
      <trkpt lat="47.08963" lon="4.67493">
        <ele>371.05</ele>
        <time>2017-05-28T11:27:45Z</time>
      </trkpt>
      <trkpt lat="47.08962" lon="4.6749">
        <ele>371.21</ele>
        <time>2017-05-28T11:28:13Z</time>
      </trkpt>
      <trkpt lat="47.08964" lon="4.67488">
        <ele>371.44</ele>
        <time>2017-05-28T11:28:34Z</time>
      </trkpt>
      <trkpt lat="47.08965" lon="4.67486">
        <ele>371.2</ele>
        <time>2017-05-28T11:28:39Z</time>
      </trkpt>
      <trkpt lat="47.0897" lon="4.67482">
        <ele>371.19</ele>
        <time>2017-05-28T11:28:45Z</time>
      </trkpt>
      <trkpt lat="47.08983" lon="4.67477">
        <ele>371.37</ele>
        <time>2017-05-28T11:28:59Z</time>
      </trkpt>
      <trkpt lat="47.08987" lon="4.67476">
        <ele>371.29</ele>
        <time>2017-05-28T11:29:15Z</time>
      </trkpt>
      <trkpt lat="47.08996" lon="4.67471">
        <ele>371.34</ele>
        <time>2017-05-28T11:29:29Z</time>
      </trkpt>
      <trkpt lat="47.08999" lon="4.6747">
        <ele>370.87</ele>
        <time>2017-05-28T11:29:44Z</time>
      </trkpt>
      <trkpt lat="47.09007" lon="4.67472">
        <ele>371.45</ele>
        <time>2017-05-28T11:29:59Z</time>
      </trkpt>
      <trkpt lat="47.09007" lon="4.67479">
        <ele>371.13</ele>
        <time>2017-05-28T11:30:13Z</time>
      </trkpt>
      <trkpt lat="47.09006" lon="4.67481">
        <ele>370.8</ele>
        <time>2017-05-28T11:30:16Z</time>
      </trkpt>
      <trkpt lat="47.09" lon="4.67483">
        <ele>371.35</ele>
        <time>2017-05-28T11:30:29Z</time>
      </trkpt>
      <trkpt lat="47.09" lon="4.67486">
        <ele>370.77</ele>
        <time>2017-05-28T11:30:34Z</time>
      </trkpt>
      <trkpt lat="47.0899" lon="4.67503">
        <ele>371.48</ele>
        <time>2017-05-28T11:30:49Z</time>
      </trkpt>
      <trkpt lat="47.08987" lon="4.67524">
        <ele>372.7</ele>
        <time>2017-05-28T11:31:02Z</time>
      </trkpt>
      <trkpt lat="47.08976" lon="4.67546">
        <ele>372.86</ele>
        <time>2017-05-28T11:31:19Z</time>
      </trkpt>
      <trkpt lat="47.08964" lon="4.6756">
        <ele>373.21</ele>
        <time>2017-05-28T11:31:37Z</time>
      </trkpt>
      <trkpt lat="47.08962" lon="4.67559">
        <ele>372.58</ele>
        <time>2017-05-28T11:31:55Z</time>
      </trkpt>
      <trkpt lat="47.08961" lon="4.67558">
        <ele>371.8</ele>
        <time>2017-05-28T11:32:13Z</time>
      </trkpt>
      <trkpt lat="47.08961" lon="4.6756">
        <ele>371.43</ele>
        <time>2017-05-28T11:32:51Z</time>
      </trkpt>
      <trkpt lat="47.08965" lon="4.67562">
        <ele>371.81</ele>
        <time>2017-05-28T11:33:49Z</time>
      </trkpt>
      <trkpt lat="47.08966" lon="4.67565">
        <ele>371.96</ele>
        <time>2017-05-28T11:34:45Z</time>
      </trkpt>
      <trkpt lat="47.08965" lon="4.67562">
        <ele>371.84</ele>
        <time>2017-05-28T11:35:39Z</time>
      </trkpt>
      <trkpt lat="47.08964" lon="4.67563">
        <ele>370.96</ele>
        <time>2017-05-28T11:36:35Z</time>
      </trkpt>
      <trkpt lat="47.08965" lon="4.67562">
        <ele>371.33</ele>
        <time>2017-05-28T11:37:27Z</time>
      </trkpt>
      <trkpt lat="47.08964" lon="4.6756">
        <ele>371.12</ele>
        <time>2017-05-28T11:38:21Z</time>
      </trkpt>
      <trkpt lat="47.08964" lon="4.67557">
        <ele>370.83</ele>
        <time>2017-05-28T11:39:12Z</time>
      </trkpt>
      <trkpt lat="47.08966" lon="4.6756">
        <ele>371.04</ele>
        <time>2017-05-28T11:40:06Z</time>
      </trkpt>
      <trkpt lat="47.08966" lon="4.67562">
        <ele>370.95</ele>
        <time>2017-05-28T11:41:01Z</time>
      </trkpt>
      <trkpt lat="47.08966" lon="4.6756">
        <ele>371.49</ele>
        <time>2017-05-28T11:41:50Z</time>
      </trkpt>
      <trkpt lat="47.08965" lon="4.67562">
        <ele>371.04</ele>
        <time>2017-05-28T11:42:39Z</time>
      </trkpt>
      <trkpt lat="47.08967" lon="4.67562">
        <ele>371.18</ele>
        <time>2017-05-28T11:43:39Z</time>
      </trkpt>
      <trkpt lat="47.08967" lon="4.67561">
        <ele>371.17</ele>
        <time>2017-05-28T11:44:38Z</time>
      </trkpt>
      <trkpt lat="47.08967" lon="4.67564">
        <ele>371.37</ele>
        <time>2017-05-28T11:45:30Z</time>
      </trkpt>
      <trkpt lat="47.08966" lon="4.67559">
        <ele>371.59</ele>
        <time>2017-05-28T11:46:18Z</time>
      </trkpt>
      <trkpt lat="47.08966" lon="4.6756">
        <ele>371.68</ele>
        <time>2017-05-28T11:47:15Z</time>
      </trkpt>
      <trkpt lat="47.08967" lon="4.6756">
        <ele>371.64</ele>
        <time>2017-05-28T11:48:10Z</time>
      </trkpt>
      <trkpt lat="47.08966" lon="4.67563">
        <ele>371.67</ele>
        <time>2017-05-28T11:49:00Z</time>
      </trkpt>
      <trkpt lat="47.08966" lon="4.67562">
        <ele>371.61</ele>
        <time>2017-05-28T11:49:53Z</time>
      </trkpt>
      <trkpt lat="47.08966" lon="4.6756">
        <ele>371.67</ele>
        <time>2017-05-28T11:50:48Z</time>
      </trkpt>
      <trkpt lat="47.08965" lon="4.67559">
        <ele>373.57</ele>
        <time>2017-05-28T11:51:00Z</time>
      </trkpt>
      <trkpt lat="47.08963" lon="4.67555">
        <ele>373.01</ele>
        <time>2017-05-28T11:51:17Z</time>
      </trkpt>
      <trkpt lat="47.08967" lon="4.67549">
        <ele>372.8</ele>
        <time>2017-05-28T11:51:30Z</time>
      </trkpt>
      <trkpt lat="47.08973" lon="4.67539">
        <ele>368.38</ele>
        <time>2017-05-28T11:51:44Z</time>
      </trkpt>
      <trkpt lat="47.08975" lon="4.67538">
        <ele>373.52</ele>
        <time>2017-05-28T11:51:46Z</time>
      </trkpt>
      <trkpt lat="47.08975" lon="4.67538">
        <ele>372.83</ele>
        <time>2017-05-28T11:51:48Z</time>
      </trkpt>
      <trkpt lat="47.08981" lon="4.67535">
        <ele>372.36</ele>
        <time>2017-05-28T11:51:56Z</time>
      </trkpt>
      <trkpt lat="47.08985" lon="4.67524">
        <ele>371.92</ele>
        <time>2017-05-28T11:52:05Z</time>
      </trkpt>
      <trkpt lat="47.08987" lon="4.67519">
        <ele>371.16</ele>
        <time>2017-05-28T11:52:16Z</time>
      </trkpt>
      <trkpt lat="47.08988" lon="4.67515">
        <ele>371.02</ele>
        <time>2017-05-28T11:52:22Z</time>
      </trkpt>
      <trkpt lat="47.08998" lon="4.675">
        <ele>369.66</ele>
        <time>2017-05-28T11:52:37Z</time>
      </trkpt>
      <trkpt lat="47.09008" lon="4.67484">
        <ele>365.37</ele>
        <time>2017-05-28T11:52:50Z</time>
      </trkpt>
      <trkpt lat="47.09009" lon="4.67484">
        <ele>372.57</ele>
        <time>2017-05-28T11:52:51Z</time>
      </trkpt>
      <trkpt lat="47.0901" lon="4.67483">
        <ele>371.5</ele>
        <time>2017-05-28T11:52:52Z</time>
      </trkpt>
      <trkpt lat="47.09012" lon="4.67481">
        <ele>370.32</ele>
        <time>2017-05-28T11:52:54Z</time>
      </trkpt>
      <trkpt lat="47.09018" lon="4.67476">
        <ele>369.42</ele>
        <time>2017-05-28T11:53:07Z</time>
      </trkpt>
      <trkpt lat="47.09023" lon="4.67477">
        <ele>369.08</ele>
        <time>2017-05-28T11:53:18Z</time>
      </trkpt>
      <trkpt lat="47.09024" lon="4.67476">
        <ele>369.02</ele>
        <time>2017-05-28T11:53:20Z</time>
      </trkpt>
      <trkpt lat="47.0903" lon="4.67471">
        <ele>373.24</ele>
        <time>2017-05-28T11:53:27Z</time>
      </trkpt>
      <trkpt lat="47.09031" lon="4.6747">
        <ele>370.08</ele>
        <time>2017-05-28T11:53:28Z</time>
      </trkpt>
      <trkpt lat="47.09033" lon="4.67468">
        <ele>366.95</ele>
        <time>2017-05-28T11:53:30Z</time>
      </trkpt>
      <trkpt lat="47.09035" lon="4.67463">
        <ele>369.53</ele>
        <time>2017-05-28T11:53:34Z</time>
      </trkpt>
      <trkpt lat="47.09046" lon="4.6745">
        <ele>369.38</ele>
        <time>2017-05-28T11:53:53Z</time>
      </trkpt>
      <trkpt lat="47.09047" lon="4.67449">
        <ele>369.29</ele>
        <time>2017-05-28T11:54:00Z</time>
      </trkpt>
      <trkpt lat="47.09045" lon="4.67438">
        <ele>369.36</ele>
        <time>2017-05-28T11:54:08Z</time>
      </trkpt>
      <trkpt lat="47.09045" lon="4.67433">
        <ele>369.48</ele>
        <time>2017-05-28T11:54:27Z</time>
      </trkpt>
      <trkpt lat="47.09045" lon="4.67432">
        <ele>369.57</ele>
        <time>2017-05-28T11:54:48Z</time>
      </trkpt>
      <trkpt lat="47.09049" lon="4.67429">
        <ele>369.28</ele>
        <time>2017-05-28T11:55:00Z</time>
      </trkpt>
      <trkpt lat="47.09058" lon="4.67428">
        <ele>369.28</ele>
        <time>2017-05-28T11:55:07Z</time>
      </trkpt>
      <trkpt lat="47.09069" lon="4.67446">
        <ele>370.76</ele>
        <time>2017-05-28T11:55:24Z</time>
      </trkpt>
      <trkpt lat="47.09074" lon="4.67445">
        <ele>371.37</ele>
        <time>2017-05-28T11:55:29Z</time>
      </trkpt>
      <trkpt lat="47.09096" lon="4.67449">
        <ele>371.38</ele>
        <time>2017-05-28T11:55:49Z</time>
      </trkpt>
      <trkpt lat="47.09107" lon="4.67448">
        <ele>371.61</ele>
        <time>2017-05-28T11:55:58Z</time>
      </trkpt>
      <trkpt lat="47.09109" lon="4.67449">
        <ele>371.87</ele>
        <time>2017-05-28T11:56:00Z</time>
      </trkpt>
      <trkpt lat="47.09109" lon="4.67466">
        <ele>374.79</ele>
        <time>2017-05-28T11:56:11Z</time>
      </trkpt>
      <trkpt lat="47.0911" lon="4.67472">
        <ele>375.61</ele>
        <time>2017-05-28T11:56:15Z</time>
      </trkpt>
      <trkpt lat="47.09111" lon="4.67481">
        <ele>376.04</ele>
        <time>2017-05-28T11:56:20Z</time>
      </trkpt>
      <trkpt lat="47.09112" lon="4.67488">
        <ele>375.86</ele>
        <time>2017-05-28T11:56:24Z</time>
      </trkpt>
      <trkpt lat="47.09119" lon="4.67508">
        <ele>377.9</ele>
        <time>2017-05-28T11:56:38Z</time>
      </trkpt>
      <trkpt lat="47.0912" lon="4.67509">
        <ele>378.3</ele>
        <time>2017-05-28T11:56:40Z</time>
      </trkpt>
      <trkpt lat="47.09132" lon="4.67504">
        <ele>378.05</ele>
        <time>2017-05-28T11:56:50Z</time>
      </trkpt>
      <trkpt lat="47.09139" lon="4.67503">
        <ele>377.87</ele>
        <time>2017-05-28T11:56:56Z</time>
      </trkpt>
      <trkpt lat="47.09153" lon="4.67498">
        <ele>377.66</ele>
        <time>2017-05-28T11:57:08Z</time>
      </trkpt>
      <trkpt lat="47.09157" lon="4.67497">
        <ele>376.16</ele>
        <time>2017-05-28T11:57:11Z</time>
      </trkpt>
      <trkpt lat="47.09158" lon="4.67496">
        <ele>376.52</ele>
        <time>2017-05-28T11:57:12Z</time>
      </trkpt>
      <trkpt lat="47.09163" lon="4.67496">
        <ele>377.88</ele>
        <time>2017-05-28T11:57:16Z</time>
      </trkpt>
      <trkpt lat="47.09164" lon="4.67496">
        <ele>376.68</ele>
        <time>2017-05-28T11:57:17Z</time>
      </trkpt>
      <trkpt lat="47.09165" lon="4.67495">
        <ele>376.31</ele>
        <time>2017-05-28T11:57:18Z</time>
      </trkpt>
      <trkpt lat="47.09166" lon="4.67495">
        <ele>376.3</ele>
        <time>2017-05-28T11:57:19Z</time>
      </trkpt>
      <trkpt lat="47.09168" lon="4.67494">
        <ele>376.28</ele>
        <time>2017-05-28T11:57:20Z</time>
      </trkpt>
      <trkpt lat="47.0919" lon="4.67488">
        <ele>376.3</ele>
        <time>2017-05-28T11:57:37Z</time>
      </trkpt>
      <trkpt lat="47.09216" lon="4.67488">
        <ele>376.32</ele>
        <time>2017-05-28T11:57:57Z</time>
      </trkpt>
      <trkpt lat="47.09239" lon="4.67481">
        <ele>375.61</ele>
        <time>2017-05-28T11:58:14Z</time>
      </trkpt>
      <trkpt lat="47.09263" lon="4.67474">
        <ele>374.38</ele>
        <time>2017-05-28T11:58:33Z</time>
      </trkpt>
      <trkpt lat="47.0928" lon="4.67473">
        <ele>370.52</ele>
        <time>2017-05-28T11:58:47Z</time>
      </trkpt>
      <trkpt lat="47.09281" lon="4.67473">
        <ele>373.8</ele>
        <time>2017-05-28T11:58:48Z</time>
      </trkpt>
      <trkpt lat="47.09295" lon="4.67473">
        <ele>370.67</ele>
        <time>2017-05-28T11:58:58Z</time>
      </trkpt>
      <trkpt lat="47.09324" lon="4.67461">
        <ele>369.1</ele>
        <time>2017-05-28T11:59:23Z</time>
      </trkpt>
      <trkpt lat="47.09345" lon="4.67446">
        <ele>368.58</ele>
        <time>2017-05-28T11:59:42Z</time>
      </trkpt>
      <trkpt lat="47.09368" lon="4.6743">
        <ele>368.14</ele>
        <time>2017-05-28T12:00:03Z</time>
      </trkpt>
      <trkpt lat="47.0939" lon="4.67414">
        <ele>367.59</ele>
        <time>2017-05-28T12:00:24Z</time>
      </trkpt>
      <trkpt lat="47.09391" lon="4.67413">
        <ele>367.66</ele>
        <time>2017-05-28T12:00:26Z</time>
      </trkpt>
      <trkpt lat="47.09392" lon="4.67412">
        <ele>367.73</ele>
        <time>2017-05-28T12:00:27Z</time>
      </trkpt>
      <trkpt lat="47.09393" lon="4.67411">
        <ele>367.82</ele>
        <time>2017-05-28T12:00:28Z</time>
      </trkpt>
      <trkpt lat="47.09394" lon="4.6741">
        <ele>367.52</ele>
        <time>2017-05-28T12:00:29Z</time>
      </trkpt>
      <trkpt lat="47.09396" lon="4.6741">
        <ele>367.42</ele>
        <time>2017-05-28T12:00:30Z</time>
      </trkpt>
      <trkpt lat="47.09397" lon="4.67409">
        <ele>367.56</ele>
        <time>2017-05-28T12:00:31Z</time>
      </trkpt>
      <trkpt lat="47.09398" lon="4.67408">
        <ele>367.42</ele>
        <time>2017-05-28T12:00:32Z</time>
      </trkpt>
      <trkpt lat="47.09422" lon="4.67393">
        <ele>366.14</ele>
        <time>2017-05-28T12:00:53Z</time>
      </trkpt>
      <trkpt lat="47.09444" lon="4.67382">
        <ele>365.6</ele>
        <time>2017-05-28T12:01:11Z</time>
      </trkpt>
      <trkpt lat="47.09464" lon="4.67372">
        <ele>366.1</ele>
        <time>2017-05-28T12:01:29Z</time>
      </trkpt>
      <trkpt lat="47.09484" lon="4.67366">
        <ele>365.49</ele>
        <time>2017-05-28T12:01:46Z</time>
      </trkpt>
      <trkpt lat="47.09504" lon="4.67361">
        <ele>365.39</ele>
        <time>2017-05-28T12:02:02Z</time>
      </trkpt>
      <trkpt lat="47.09532" lon="4.67352">
        <ele>365.61</ele>
        <time>2017-05-28T12:02:24Z</time>
      </trkpt>
      <trkpt lat="47.09562" lon="4.67344">
        <ele>365.88</ele>
        <time>2017-05-28T12:02:48Z</time>
      </trkpt>
      <trkpt lat="47.09582" lon="4.67338">
        <ele>365.8</ele>
        <time>2017-05-28T12:03:04Z</time>
      </trkpt>
      <trkpt lat="47.09605" lon="4.67332">
        <ele>365.04</ele>
        <time>2017-05-28T12:03:22Z</time>
      </trkpt>
      <trkpt lat="47.09625" lon="4.67326">
        <ele>364.69</ele>
        <time>2017-05-28T12:03:38Z</time>
      </trkpt>
      <trkpt lat="47.09644" lon="4.6732">
        <ele>363.87</ele>
        <time>2017-05-28T12:03:53Z</time>
      </trkpt>
      <trkpt lat="47.09658" lon="4.67316">
        <ele>364.25</ele>
        <time>2017-05-28T12:04:04Z</time>
      </trkpt>
      <trkpt lat="47.09681" lon="4.67309">
        <ele>364.28</ele>
        <time>2017-05-28T12:04:21Z</time>
      </trkpt>
      <trkpt lat="47.09698" lon="4.67305">
        <ele>364.47</ele>
        <time>2017-05-28T12:04:35Z</time>
      </trkpt>
      <trkpt lat="47.0972" lon="4.673">
        <ele>364.3</ele>
        <time>2017-05-28T12:04:52Z</time>
      </trkpt>
      <trkpt lat="47.09741" lon="4.67303">
        <ele>364.65</ele>
        <time>2017-05-28T12:05:08Z</time>
      </trkpt>
      <trkpt lat="47.09768" lon="4.67302">
        <ele>365.51</ele>
        <time>2017-05-28T12:05:28Z</time>
      </trkpt>
      <trkpt lat="47.0979" lon="4.67305">
        <ele>365.75</ele>
        <time>2017-05-28T12:05:44Z</time>
      </trkpt>
      <trkpt lat="47.0981" lon="4.67307">
        <ele>367.15</ele>
        <time>2017-05-28T12:06:00Z</time>
      </trkpt>
      <trkpt lat="47.09832" lon="4.67306">
        <ele>367.86</ele>
        <time>2017-05-28T12:06:17Z</time>
      </trkpt>
      <trkpt lat="47.09858" lon="4.67298">
        <ele>367.59</ele>
        <time>2017-05-28T12:06:36Z</time>
      </trkpt>
      <trkpt lat="47.09876" lon="4.67293">
        <ele>367.25</ele>
        <time>2017-05-28T12:06:51Z</time>
      </trkpt>
      <trkpt lat="47.09898" lon="4.67282">
        <ele>366.98</ele>
        <time>2017-05-28T12:07:10Z</time>
      </trkpt>
      <trkpt lat="47.09919" lon="4.67274">
        <ele>365.82</ele>
        <time>2017-05-28T12:07:27Z</time>
      </trkpt>
      <trkpt lat="47.09944" lon="4.67266">
        <ele>365.11</ele>
        <time>2017-05-28T12:07:47Z</time>
      </trkpt>
      <trkpt lat="47.09954" lon="4.67261">
        <ele>364.48</ele>
        <time>2017-05-28T12:07:59Z</time>
      </trkpt>
      <trkpt lat="47.09956" lon="4.6726">
        <ele>364.48</ele>
        <time>2017-05-28T12:08:00Z</time>
      </trkpt>
      <trkpt lat="47.09957" lon="4.67259">
        <ele>364.37</ele>
        <time>2017-05-28T12:08:01Z</time>
      </trkpt>
      <trkpt lat="47.09958" lon="4.67259">
        <ele>364.3</ele>
        <time>2017-05-28T12:08:02Z</time>
      </trkpt>
      <trkpt lat="47.09959" lon="4.67258">
        <ele>364.32</ele>
        <time>2017-05-28T12:08:03Z</time>
      </trkpt>
      <trkpt lat="47.0996" lon="4.67258">
        <ele>364.3</ele>
        <time>2017-05-28T12:08:04Z</time>
      </trkpt>
      <trkpt lat="47.09988" lon="4.67246">
        <ele>363.3</ele>
        <time>2017-05-28T12:08:25Z</time>
      </trkpt>
      <trkpt lat="47.09994" lon="4.67245">
        <ele>363.25</ele>
        <time>2017-05-28T12:08:33Z</time>
      </trkpt>
      <trkpt lat="47.09996" lon="4.67245">
        <ele>363.18</ele>
        <time>2017-05-28T12:08:34Z</time>
      </trkpt>
      <trkpt lat="47.09997" lon="4.67245">
        <ele>363.07</ele>
        <time>2017-05-28T12:08:35Z</time>
      </trkpt>
      <trkpt lat="47.09998" lon="4.67244">
        <ele>363.05</ele>
        <time>2017-05-28T12:08:36Z</time>
      </trkpt>
      <trkpt lat="47.09999" lon="4.67243">
        <ele>362.9</ele>
        <time>2017-05-28T12:08:37Z</time>
      </trkpt>
      <trkpt lat="47.10001" lon="4.67242">
        <ele>362.87</ele>
        <time>2017-05-28T12:08:38Z</time>
      </trkpt>
      <trkpt lat="47.10011" lon="4.67239">
        <ele>362.59</ele>
        <time>2017-05-28T12:08:46Z</time>
      </trkpt>
      <trkpt lat="47.10012" lon="4.67239">
        <ele>362.61</ele>
        <time>2017-05-28T12:08:47Z</time>
      </trkpt>
      <trkpt lat="47.10014" lon="4.67239">
        <ele>362.43</ele>
        <time>2017-05-28T12:08:48Z</time>
      </trkpt>
      <trkpt lat="47.10015" lon="4.67239">
        <ele>362.34</ele>
        <time>2017-05-28T12:08:49Z</time>
      </trkpt>
      <trkpt lat="47.10016" lon="4.67238">
        <ele>362.51</ele>
        <time>2017-05-28T12:08:50Z</time>
      </trkpt>
      <trkpt lat="47.10017" lon="4.67238">
        <ele>362.44</ele>
        <time>2017-05-28T12:08:51Z</time>
      </trkpt>
      <trkpt lat="47.10039" lon="4.67228">
        <ele>362.3</ele>
        <time>2017-05-28T12:09:08Z</time>
      </trkpt>
      <trkpt lat="47.10059" lon="4.67219">
        <ele>361.79</ele>
        <time>2017-05-28T12:09:24Z</time>
      </trkpt>
      <trkpt lat="47.1008" lon="4.67208">
        <ele>361.79</ele>
        <time>2017-05-28T12:09:40Z</time>
      </trkpt>
      <trkpt lat="47.10096" lon="4.67199">
        <ele>361.06</ele>
        <time>2017-05-28T12:09:54Z</time>
      </trkpt>
      <trkpt lat="47.10116" lon="4.67181">
        <ele>361.22</ele>
        <time>2017-05-28T12:10:12Z</time>
      </trkpt>
      <trkpt lat="47.10139" lon="4.6716">
        <ele>360.74</ele>
        <time>2017-05-28T12:10:33Z</time>
      </trkpt>
      <trkpt lat="47.10163" lon="4.67139">
        <ele>360.43</ele>
        <time>2017-05-28T12:10:55Z</time>
      </trkpt>
      <trkpt lat="47.10182" lon="4.6712">
        <ele>360.06</ele>
        <time>2017-05-28T12:11:13Z</time>
      </trkpt>
      <trkpt lat="47.10202" lon="4.671">
        <ele>359.81</ele>
        <time>2017-05-28T12:11:32Z</time>
      </trkpt>
      <trkpt lat="47.10221" lon="4.67086">
        <ele>360.24</ele>
        <time>2017-05-28T12:11:49Z</time>
      </trkpt>
      <trkpt lat="47.10236" lon="4.67072">
        <ele>359.7</ele>
        <time>2017-05-28T12:12:03Z</time>
      </trkpt>
      <trkpt lat="47.10255" lon="4.67053">
        <ele>359.81</ele>
        <time>2017-05-28T12:12:21Z</time>
      </trkpt>
      <trkpt lat="47.10282" lon="4.67031">
        <ele>359.34</ele>
        <time>2017-05-28T12:12:45Z</time>
      </trkpt>
      <trkpt lat="47.10299" lon="4.67016">
        <ele>358.85</ele>
        <time>2017-05-28T12:13:01Z</time>
      </trkpt>
      <trkpt lat="47.10308" lon="4.67005">
        <ele>357.74</ele>
        <time>2017-05-28T12:13:17Z</time>
      </trkpt>
      <trkpt lat="47.10307" lon="4.67009">
        <ele>358.87</ele>
        <time>2017-05-28T12:13:45Z</time>
      </trkpt>
      <trkpt lat="47.10309" lon="4.67009">
        <ele>358.66</ele>
        <time>2017-05-28T12:14:02Z</time>
      </trkpt>
      <trkpt lat="47.1031" lon="4.67008">
        <ele>358.73</ele>
        <time>2017-05-28T12:14:03Z</time>
      </trkpt>
      <trkpt lat="47.10311" lon="4.67007">
        <ele>358.63</ele>
        <time>2017-05-28T12:14:04Z</time>
      </trkpt>
      <trkpt lat="47.10312" lon="4.67006">
        <ele>358.68</ele>
        <time>2017-05-28T12:14:05Z</time>
      </trkpt>
      <trkpt lat="47.10313" lon="4.67005">
        <ele>358.66</ele>
        <time>2017-05-28T12:14:06Z</time>
      </trkpt>
      <trkpt lat="47.10314" lon="4.67004">
        <ele>358.59</ele>
        <time>2017-05-28T12:14:07Z</time>
      </trkpt>
      <trkpt lat="47.10315" lon="4.67003">
        <ele>358.52</ele>
        <time>2017-05-28T12:14:08Z</time>
      </trkpt>
      <trkpt lat="47.10316" lon="4.67002">
        <ele>358.49</ele>
        <time>2017-05-28T12:14:09Z</time>
      </trkpt>
      <trkpt lat="47.10317" lon="4.67001">
        <ele>358.65</ele>
        <time>2017-05-28T12:14:10Z</time>
      </trkpt>
      <trkpt lat="47.10318" lon="4.67">
        <ele>358.49</ele>
        <time>2017-05-28T12:14:11Z</time>
      </trkpt>
      <trkpt lat="47.10335" lon="4.6698">
        <ele>358.12</ele>
        <time>2017-05-28T12:14:34Z</time>
      </trkpt>
      <trkpt lat="47.10337" lon="4.66982">
        <ele>358.19</ele>
        <time>2017-05-28T12:14:38Z</time>
      </trkpt>
      <trkpt lat="47.1034" lon="4.66984">
        <ele>358.18</ele>
        <time>2017-05-28T12:14:41Z</time>
      </trkpt>
      <trkpt lat="47.10341" lon="4.66984">
        <ele>358.16</ele>
        <time>2017-05-28T12:14:42Z</time>
      </trkpt>
      <trkpt lat="47.10342" lon="4.66984">
        <ele>358.18</ele>
        <time>2017-05-28T12:14:43Z</time>
      </trkpt>
      <trkpt lat="47.10357" lon="4.66979">
        <ele>357.81</ele>
        <time>2017-05-28T12:14:57Z</time>
      </trkpt>
      <trkpt lat="47.10358" lon="4.66978">
        <ele>357.78</ele>
        <time>2017-05-28T12:14:58Z</time>
      </trkpt>
      <trkpt lat="47.1036" lon="4.66978">
        <ele>357.96</ele>
        <time>2017-05-28T12:15:00Z</time>
      </trkpt>
      <trkpt lat="47.10362" lon="4.66978">
        <ele>357.92</ele>
        <time>2017-05-28T12:15:01Z</time>
      </trkpt>
      <trkpt lat="47.10363" lon="4.66978">
        <ele>358.06</ele>
        <time>2017-05-28T12:15:02Z</time>
      </trkpt>
      <trkpt lat="47.10372" lon="4.66972">
        <ele>357.92</ele>
        <time>2017-05-28T12:15:15Z</time>
      </trkpt>
      <trkpt lat="47.10373" lon="4.66973">
        <ele>357.21</ele>
        <time>2017-05-28T12:15:30Z</time>
      </trkpt>
      <trkpt lat="47.10376" lon="4.66973">
        <ele>357.62</ele>
        <time>2017-05-28T12:15:49Z</time>
      </trkpt>
      <trkpt lat="47.10374" lon="4.66971">
        <ele>357.4</ele>
        <time>2017-05-28T12:16:01Z</time>
      </trkpt>
      <trkpt lat="47.10373" lon="4.6697">
        <ele>357.27</ele>
        <time>2017-05-28T12:16:16Z</time>
      </trkpt>
      <trkpt lat="47.10377" lon="4.6697">
        <ele>357.52</ele>
        <time>2017-05-28T12:16:22Z</time>
      </trkpt>
      <trkpt lat="47.10378" lon="4.66971">
        <ele>357.48</ele>
        <time>2017-05-28T12:16:23Z</time>
      </trkpt>
      <trkpt lat="47.10386" lon="4.66969">
        <ele>357.48</ele>
        <time>2017-05-28T12:16:31Z</time>
      </trkpt>
      <trkpt lat="47.10387" lon="4.66968">
        <ele>357.6</ele>
        <time>2017-05-28T12:16:32Z</time>
      </trkpt>
      <trkpt lat="47.10388" lon="4.66968">
        <ele>357.58</ele>
        <time>2017-05-28T12:16:33Z</time>
      </trkpt>
      <trkpt lat="47.10389" lon="4.66967">
        <ele>357.76</ele>
        <time>2017-05-28T12:16:34Z</time>
      </trkpt>
      <trkpt lat="47.10391" lon="4.66967">
        <ele>357.67</ele>
        <time>2017-05-28T12:16:36Z</time>
      </trkpt>
      <trkpt lat="47.10392" lon="4.66967">
        <ele>357.67</ele>
        <time>2017-05-28T12:16:37Z</time>
      </trkpt>
      <trkpt lat="47.10393" lon="4.66968">
        <ele>357.78</ele>
        <time>2017-05-28T12:16:38Z</time>
      </trkpt>
      <trkpt lat="47.10395" lon="4.66968">
        <ele>357.67</ele>
        <time>2017-05-28T12:16:39Z</time>
      </trkpt>
      <trkpt lat="47.10396" lon="4.66968">
        <ele>357.66</ele>
        <time>2017-05-28T12:16:40Z</time>
      </trkpt>
      <trkpt lat="47.10398" lon="4.66968">
        <ele>357.67</ele>
        <time>2017-05-28T12:16:41Z</time>
      </trkpt>
      <trkpt lat="47.10399" lon="4.66968">
        <ele>357.74</ele>
        <time>2017-05-28T12:16:42Z</time>
      </trkpt>
      <trkpt lat="47.104" lon="4.66968">
        <ele>357.89</ele>
        <time>2017-05-28T12:16:43Z</time>
      </trkpt>
      <trkpt lat="47.10415" lon="4.66968">
        <ele>357.8</ele>
        <time>2017-05-28T12:16:55Z</time>
      </trkpt>
      <trkpt lat="47.10436" lon="4.66968">
        <ele>357.76</ele>
        <time>2017-05-28T12:17:12Z</time>
      </trkpt>
      <trkpt lat="47.10448" lon="4.66966">
        <ele>357.72</ele>
        <time>2017-05-28T12:17:22Z</time>
      </trkpt>
      <trkpt lat="47.10451" lon="4.66967">
        <ele>357.79</ele>
        <time>2017-05-28T12:17:24Z</time>
      </trkpt>
      <trkpt lat="47.10453" lon="4.66967">
        <ele>357.85</ele>
        <time>2017-05-28T12:17:25Z</time>
      </trkpt>
      <trkpt lat="47.10454" lon="4.66966">
        <ele>357.82</ele>
        <time>2017-05-28T12:17:26Z</time>
      </trkpt>
      <trkpt lat="47.10456" lon="4.66966">
        <ele>357.89</ele>
        <time>2017-05-28T12:17:27Z</time>
      </trkpt>
      <trkpt lat="47.10457" lon="4.66966">
        <ele>357.99</ele>
        <time>2017-05-28T12:17:28Z</time>
      </trkpt>
      <trkpt lat="47.10458" lon="4.66966">
        <ele>358.02</ele>
        <time>2017-05-28T12:17:29Z</time>
      </trkpt>
      <trkpt lat="47.10466" lon="4.66964">
        <ele>358.16</ele>
        <time>2017-05-28T12:17:34Z</time>
      </trkpt>
      <trkpt lat="47.10467" lon="4.66965">
        <ele>358.1</ele>
        <time>2017-05-28T12:17:35Z</time>
      </trkpt>
      <trkpt lat="47.10468" lon="4.66966">
        <ele>358.01</ele>
        <time>2017-05-28T12:17:36Z</time>
      </trkpt>
      <trkpt lat="47.10486" lon="4.66972">
        <ele>359.09</ele>
        <time>2017-05-28T12:17:49Z</time>
      </trkpt>
      <trkpt lat="47.10487" lon="4.66972">
        <ele>359.13</ele>
        <time>2017-05-28T12:17:50Z</time>
      </trkpt>
      <trkpt lat="47.10489" lon="4.66972">
        <ele>359.18</ele>
        <time>2017-05-28T12:17:51Z</time>
      </trkpt>
      <trkpt lat="47.1049" lon="4.66972">
        <ele>359.19</ele>
        <time>2017-05-28T12:17:52Z</time>
      </trkpt>
      <trkpt lat="47.10492" lon="4.66972">
        <ele>359.16</ele>
        <time>2017-05-28T12:17:53Z</time>
      </trkpt>
      <trkpt lat="47.10493" lon="4.66973">
        <ele>359.22</ele>
        <time>2017-05-28T12:17:54Z</time>
      </trkpt>
      <trkpt lat="47.10494" lon="4.66973">
        <ele>359.31</ele>
        <time>2017-05-28T12:17:55Z</time>
      </trkpt>
      <trkpt lat="47.10495" lon="4.66973">
        <ele>359.18</ele>
        <time>2017-05-28T12:17:56Z</time>
      </trkpt>
      <trkpt lat="47.10497" lon="4.66972">
        <ele>359.19</ele>
        <time>2017-05-28T12:17:57Z</time>
      </trkpt>
      <trkpt lat="47.10504" lon="4.66972">
        <ele>359.47</ele>
        <time>2017-05-28T12:18:04Z</time>
      </trkpt>
      <trkpt lat="47.10509" lon="4.66971">
        <ele>359.42</ele>
        <time>2017-05-28T12:18:08Z</time>
      </trkpt>
      <trkpt lat="47.1052" lon="4.66972">
        <ele>359.38</ele>
        <time>2017-05-28T12:18:17Z</time>
      </trkpt>
      <trkpt lat="47.10521" lon="4.66973">
        <ele>359.29</ele>
        <time>2017-05-28T12:18:18Z</time>
      </trkpt>
      <trkpt lat="47.10523" lon="4.66977">
        <ele>359.4</ele>
        <time>2017-05-28T12:18:23Z</time>
      </trkpt>
      <trkpt lat="47.10533" lon="4.66988">
        <ele>359.5</ele>
        <time>2017-05-28T12:18:34Z</time>
      </trkpt>
      <trkpt lat="47.10552" lon="4.66989">
        <ele>358.94</ele>
        <time>2017-05-28T12:18:50Z</time>
      </trkpt>
      <trkpt lat="47.10568" lon="4.67001">
        <ele>358.97</ele>
        <time>2017-05-28T12:19:04Z</time>
      </trkpt>
      <trkpt lat="47.10572" lon="4.67019">
        <ele>358.63</ele>
        <time>2017-05-28T12:19:18Z</time>
      </trkpt>
      <trkpt lat="47.10573" lon="4.67019">
        <ele>357.98</ele>
        <time>2017-05-28T12:19:31Z</time>
      </trkpt>
    </trkseg>
  </trk>
</gpx>